<?xml version="1.0" encoding="UTF-8" standalone="no" ?>
<gpx xmlns="http://www.topografix.com/GPX/1/1" xmlns:xsi="http://www.w3.org/2001/XMLSchema-instance" xsi:schemaLocation="http://www.topografix.com/GPX/1/1 http://www.topografix.com/GPX/1/1/gpx.xsd" version="1.1" creator="VisuGPX - https://www.visugpx.com">
  <metadata>
    <name>parcourt du 22/06</name>
    <desc><![CDATA[parcourt sur les berges de l\'yzeron]]></desc>
  </metadata>
  <trk>
    <name><![CDATA[parcour 22/06]]></name>
    <trkseg>
      <trkpt lat="45.76058" lon="4.78133">
        <ele>261.14</ele>
        <time>2014-06-15T16:44:08Z</time>
      </trkpt>
      <trkpt lat="45.76058" lon="4.78131">
        <ele>261.14</ele>
        <time>2014-06-15T16:44:17Z</time>
      </trkpt>
      <trkpt lat="45.76056" lon="4.7813">
        <ele>261.62</ele>
        <time>2014-06-15T16:44:30Z</time>
      </trkpt>
      <trkpt lat="45.76056" lon="4.78129">
        <ele>261.62</ele>
        <time>2014-06-15T16:44:45Z</time>
      </trkpt>
      <trkpt lat="45.76057" lon="4.78111">
        <ele>260.17</ele>
        <time>2014-06-15T16:44:50Z</time>
      </trkpt>
      <trkpt lat="45.76059" lon="4.78049">
        <ele>257.77</ele>
        <time>2014-06-15T16:45:02Z</time>
      </trkpt>
      <trkpt lat="45.76066" lon="4.78019">
        <ele>256.81</ele>
        <time>2014-06-15T16:45:08Z</time>
      </trkpt>
      <trkpt lat="45.76077" lon="4.78003">
        <ele>258.25</ele>
        <time>2014-06-15T16:45:15Z</time>
      </trkpt>
      <trkpt lat="45.76078" lon="4.77998">
        <ele>258.25</ele>
        <time>2014-06-15T16:45:16Z</time>
      </trkpt>
      <trkpt lat="45.7608" lon="4.77971">
        <ele>258.73</ele>
        <time>2014-06-15T16:45:27Z</time>
      </trkpt>
      <trkpt lat="45.76079" lon="4.77969">
        <ele>258.73</ele>
        <time>2014-06-15T16:45:28Z</time>
      </trkpt>
      <trkpt lat="45.76069" lon="4.77964">
        <ele>259.21</ele>
        <time>2014-06-15T16:45:36Z</time>
      </trkpt>
      <trkpt lat="45.76067" lon="4.77962">
        <ele>259.21</ele>
        <time>2014-06-15T16:45:43Z</time>
      </trkpt>
      <trkpt lat="45.7606" lon="4.77954">
        <ele>259.21</ele>
        <time>2014-06-15T16:45:47Z</time>
      </trkpt>
      <trkpt lat="45.76055" lon="4.77953">
        <ele>258.73</ele>
        <time>2014-06-15T16:45:48Z</time>
      </trkpt>
      <trkpt lat="45.7605" lon="4.77951">
        <ele>258.25</ele>
        <time>2014-06-15T16:45:49Z</time>
      </trkpt>
      <trkpt lat="45.76046" lon="4.77949">
        <ele>258.25</ele>
        <time>2014-06-15T16:45:50Z</time>
      </trkpt>
      <trkpt lat="45.76033" lon="4.77942">
        <ele>258.25</ele>
        <time>2014-06-15T16:45:53Z</time>
      </trkpt>
      <trkpt lat="45.76025" lon="4.77934">
        <ele>258.73</ele>
        <time>2014-06-15T16:45:55Z</time>
      </trkpt>
      <trkpt lat="45.76021" lon="4.7793">
        <ele>258.25</ele>
        <time>2014-06-15T16:45:56Z</time>
      </trkpt>
      <trkpt lat="45.76007" lon="4.77919">
        <ele>258.25</ele>
        <time>2014-06-15T16:45:59Z</time>
      </trkpt>
      <trkpt lat="45.75998" lon="4.77913">
        <ele>257.77</ele>
        <time>2014-06-15T16:46:01Z</time>
      </trkpt>
      <trkpt lat="45.75971" lon="4.77899">
        <ele>258.25</ele>
        <time>2014-06-15T16:46:06Z</time>
      </trkpt>
      <trkpt lat="45.75966" lon="4.77895">
        <ele>257.77</ele>
        <time>2014-06-15T16:46:07Z</time>
      </trkpt>
      <trkpt lat="45.75944" lon="4.77876">
        <ele>257.29</ele>
        <time>2014-06-15T16:46:11Z</time>
      </trkpt>
      <trkpt lat="45.75939" lon="4.77872">
        <ele>257.77</ele>
        <time>2014-06-15T16:46:12Z</time>
      </trkpt>
      <trkpt lat="45.75933" lon="4.77869">
        <ele>257.77</ele>
        <time>2014-06-15T16:46:13Z</time>
      </trkpt>
      <trkpt lat="45.75895" lon="4.77847">
        <ele>257.29</ele>
        <time>2014-06-15T16:46:19Z</time>
      </trkpt>
      <trkpt lat="45.75875" lon="4.77841">
        <ele>257.29</ele>
        <time>2014-06-15T16:46:22Z</time>
      </trkpt>
      <trkpt lat="45.75869" lon="4.7784">
        <ele>257.77</ele>
        <time>2014-06-15T16:46:23Z</time>
      </trkpt>
      <trkpt lat="45.75862" lon="4.7784">
        <ele>257.77</ele>
        <time>2014-06-15T16:46:24Z</time>
      </trkpt>
      <trkpt lat="45.75849" lon="4.77839">
        <ele>257.29</ele>
        <time>2014-06-15T16:46:26Z</time>
      </trkpt>
      <trkpt lat="45.7583" lon="4.77835">
        <ele>256.81</ele>
        <time>2014-06-15T16:46:29Z</time>
      </trkpt>
      <trkpt lat="45.75761" lon="4.7783">
        <ele>254.41</ele>
        <time>2014-06-15T16:46:37Z</time>
      </trkpt>
      <trkpt lat="45.75719" lon="4.77821">
        <ele>254.41</ele>
        <time>2014-06-15T16:46:41Z</time>
      </trkpt>
      <trkpt lat="45.75655" lon="4.77793">
        <ele>253.93</ele>
        <time>2014-06-15T16:46:48Z</time>
      </trkpt>
      <trkpt lat="45.75582" lon="4.77729">
        <ele>253.93</ele>
        <time>2014-06-15T16:46:59Z</time>
      </trkpt>
      <trkpt lat="45.75572" lon="4.77712">
        <ele>254.89</ele>
        <time>2014-06-15T16:47:02Z</time>
      </trkpt>
      <trkpt lat="45.7557" lon="4.77705">
        <ele>254.89</ele>
        <time>2014-06-15T16:47:03Z</time>
      </trkpt>
      <trkpt lat="45.75531" lon="4.77606">
        <ele>252.96</ele>
        <time>2014-06-15T16:47:16Z</time>
      </trkpt>
      <trkpt lat="45.75511" lon="4.77495">
        <ele>251.52</ele>
        <time>2014-06-15T16:47:28Z</time>
      </trkpt>
      <trkpt lat="45.75488" lon="4.77404">
        <ele>250.08</ele>
        <time>2014-06-15T16:47:38Z</time>
      </trkpt>
      <trkpt lat="45.75465" lon="4.7735">
        <ele>249.6</ele>
        <time>2014-06-15T16:47:45Z</time>
      </trkpt>
      <trkpt lat="45.75457" lon="4.77337">
        <ele>249.6</ele>
        <time>2014-06-15T16:47:47Z</time>
      </trkpt>
      <trkpt lat="45.75452" lon="4.77331">
        <ele>249.6</ele>
        <time>2014-06-15T16:47:48Z</time>
      </trkpt>
      <trkpt lat="45.75446" lon="4.77328">
        <ele>249.6</ele>
        <time>2014-06-15T16:47:49Z</time>
      </trkpt>
      <trkpt lat="45.754" lon="4.77277">
        <ele>217</ele>
      </trkpt>
      <trkpt lat="45.75261" lon="4.77164">
        <ele>247.2</ele>
        <time>2014-06-15T16:48:31Z</time>
      </trkpt>
      <trkpt lat="45.75259" lon="4.77156">
        <ele>247.2</ele>
        <time>2014-06-15T16:48:32Z</time>
      </trkpt>
      <trkpt lat="45.75257" lon="4.77148">
        <ele>247.68</ele>
        <time>2014-06-15T16:48:33Z</time>
      </trkpt>
      <trkpt lat="45.75254" lon="4.77141">
        <ele>247.68</ele>
        <time>2014-06-15T16:48:34Z</time>
      </trkpt>
      <trkpt lat="45.7525" lon="4.77136">
        <ele>247.68</ele>
        <time>2014-06-15T16:48:35Z</time>
      </trkpt>
      <trkpt lat="45.75247" lon="4.7713">
        <ele>247.68</ele>
        <time>2014-06-15T16:48:36Z</time>
      </trkpt>
      <trkpt lat="45.75244" lon="4.77125">
        <ele>247.68</ele>
        <time>2014-06-15T16:48:37Z</time>
      </trkpt>
      <trkpt lat="45.75242" lon="4.7712">
        <ele>247.68</ele>
        <time>2014-06-15T16:48:38Z</time>
      </trkpt>
      <trkpt lat="45.7524" lon="4.77114">
        <ele>248.16</ele>
        <time>2014-06-15T16:48:39Z</time>
      </trkpt>
      <trkpt lat="45.75234" lon="4.771">
        <ele>248.16</ele>
        <time>2014-06-15T16:48:47Z</time>
      </trkpt>
      <trkpt lat="45.75234" lon="4.77098">
        <ele>247.68</ele>
        <time>2014-06-15T16:49:03Z</time>
      </trkpt>
      <trkpt lat="45.75233" lon="4.77096">
        <ele>247.68</ele>
        <time>2014-06-15T16:49:04Z</time>
      </trkpt>
      <trkpt lat="45.75233" lon="4.77094">
        <ele>247.68</ele>
        <time>2014-06-15T16:49:05Z</time>
      </trkpt>
      <trkpt lat="45.75231" lon="4.7709">
        <ele>247.68</ele>
        <time>2014-06-15T16:49:06Z</time>
      </trkpt>
      <trkpt lat="45.75229" lon="4.77087">
        <ele>247.68</ele>
        <time>2014-06-15T16:49:07Z</time>
      </trkpt>
      <trkpt lat="45.75227" lon="4.77086">
        <ele>247.68</ele>
        <time>2014-06-15T16:49:08Z</time>
      </trkpt>
      <trkpt lat="45.75226" lon="4.77084">
        <ele>247.2</ele>
        <time>2014-06-15T16:49:19Z</time>
      </trkpt>
      <trkpt lat="45.75226" lon="4.7708">
        <ele>247.68</ele>
        <time>2014-06-15T16:49:42Z</time>
      </trkpt>
      <trkpt lat="45.75225" lon="4.77078">
        <ele>247.2</ele>
        <time>2014-06-15T16:49:43Z</time>
      </trkpt>
      <trkpt lat="45.75223" lon="4.77075">
        <ele>246.72</ele>
        <time>2014-06-15T16:49:44Z</time>
      </trkpt>
      <trkpt lat="45.75221" lon="4.77072">
        <ele>246.72</ele>
        <time>2014-06-15T16:49:45Z</time>
      </trkpt>
      <trkpt lat="45.75218" lon="4.77069">
        <ele>246.72</ele>
        <time>2014-06-15T16:49:46Z</time>
      </trkpt>
      <trkpt lat="45.75208" lon="4.77062">
        <ele>246.72</ele>
        <time>2014-06-15T16:49:49Z</time>
      </trkpt>
      <trkpt lat="45.75205" lon="4.77058">
        <ele>246.72</ele>
        <time>2014-06-15T16:49:50Z</time>
      </trkpt>
      <trkpt lat="45.75202" lon="4.77054">
        <ele>246.72</ele>
        <time>2014-06-15T16:49:51Z</time>
      </trkpt>
      <trkpt lat="45.75198" lon="4.77049">
        <ele>246.72</ele>
        <time>2014-06-15T16:49:52Z</time>
      </trkpt>
      <trkpt lat="45.75195" lon="4.77044">
        <ele>246.23</ele>
        <time>2014-06-15T16:49:53Z</time>
      </trkpt>
      <trkpt lat="45.75176" lon="4.77011">
        <ele>245.75</ele>
        <time>2014-06-15T16:49:59Z</time>
      </trkpt>
      <trkpt lat="45.75173" lon="4.77005">
        <ele>245.75</ele>
        <time>2014-06-15T16:50:00Z</time>
      </trkpt>
      <trkpt lat="45.75134" lon="4.76917">
        <ele>245.27</ele>
        <time>2014-06-15T16:50:12Z</time>
      </trkpt>
      <trkpt lat="45.75131" lon="4.7691">
        <ele>244.79</ele>
        <time>2014-06-15T16:50:13Z</time>
      </trkpt>
      <trkpt lat="45.75128" lon="4.76903">
        <ele>245.27</ele>
        <time>2014-06-15T16:50:14Z</time>
      </trkpt>
      <trkpt lat="45.75114" lon="4.76877">
        <ele>245.75</ele>
        <time>2014-06-15T16:50:22Z</time>
      </trkpt>
      <trkpt lat="45.75106" lon="4.76863">
        <ele>245.27</ele>
        <time>2014-06-15T16:50:32Z</time>
      </trkpt>
      <trkpt lat="45.75105" lon="4.76862">
        <ele>245.27</ele>
        <time>2014-06-15T16:50:33Z</time>
      </trkpt>
      <trkpt lat="45.75103" lon="4.76862">
        <ele>245.27</ele>
        <time>2014-06-15T16:50:34Z</time>
      </trkpt>
      <trkpt lat="45.75102" lon="4.76862">
        <ele>244.79</ele>
        <time>2014-06-15T16:50:35Z</time>
      </trkpt>
      <trkpt lat="45.751" lon="4.76861">
        <ele>245.27</ele>
        <time>2014-06-15T16:50:36Z</time>
      </trkpt>
      <trkpt lat="45.75097" lon="4.76859">
        <ele>244.79</ele>
        <time>2014-06-15T16:50:37Z</time>
      </trkpt>
      <trkpt lat="45.75095" lon="4.76857">
        <ele>244.79</ele>
        <time>2014-06-15T16:50:38Z</time>
      </trkpt>
      <trkpt lat="45.75094" lon="4.76854">
        <ele>244.79</ele>
        <time>2014-06-15T16:50:39Z</time>
      </trkpt>
      <trkpt lat="45.75091" lon="4.76849">
        <ele>244.79</ele>
        <time>2014-06-15T16:50:40Z</time>
      </trkpt>
      <trkpt lat="45.75089" lon="4.76844">
        <ele>244.79</ele>
        <time>2014-06-15T16:50:41Z</time>
      </trkpt>
      <trkpt lat="45.75086" lon="4.76838">
        <ele>244.79</ele>
        <time>2014-06-15T16:50:42Z</time>
      </trkpt>
      <trkpt lat="45.75083" lon="4.76833">
        <ele>244.79</ele>
        <time>2014-06-15T16:50:43Z</time>
      </trkpt>
      <trkpt lat="45.75025" lon="4.76754">
        <ele>243.35</ele>
        <time>2014-06-15T16:50:56Z</time>
      </trkpt>
      <trkpt lat="45.74974" lon="4.76678">
        <ele>243.83</ele>
        <time>2014-06-15T16:51:07Z</time>
      </trkpt>
      <trkpt lat="45.74967" lon="4.76661">
        <ele>244.31</ele>
        <time>2014-06-15T16:51:09Z</time>
      </trkpt>
      <trkpt lat="45.74962" lon="4.76644">
        <ele>244.79</ele>
        <time>2014-06-15T16:51:11Z</time>
      </trkpt>
      <trkpt lat="45.74961" lon="4.76638">
        <ele>245.27</ele>
        <time>2014-06-15T16:51:12Z</time>
      </trkpt>
      <trkpt lat="45.74961" lon="4.76634">
        <ele>245.75</ele>
        <time>2014-06-15T16:51:13Z</time>
      </trkpt>
      <trkpt lat="45.74961" lon="4.76631">
        <ele>245.75</ele>
        <time>2014-06-15T16:51:14Z</time>
      </trkpt>
      <trkpt lat="45.74959" lon="4.76627">
        <ele>245.75</ele>
        <time>2014-06-15T16:51:26Z</time>
      </trkpt>
      <trkpt lat="45.74958" lon="4.76626">
        <ele>245.75</ele>
        <time>2014-06-15T16:51:35Z</time>
      </trkpt>
      <trkpt lat="45.74956" lon="4.76625">
        <ele>245.27</ele>
        <time>2014-06-15T16:51:36Z</time>
      </trkpt>
      <trkpt lat="45.74953" lon="4.76625">
        <ele>245.27</ele>
        <time>2014-06-15T16:51:37Z</time>
      </trkpt>
      <trkpt lat="45.74951" lon="4.76627">
        <ele>245.27</ele>
        <time>2014-06-15T16:51:38Z</time>
      </trkpt>
      <trkpt lat="45.74946" lon="4.76632">
        <ele>244.79</ele>
        <time>2014-06-15T16:51:43Z</time>
      </trkpt>
      <trkpt lat="45.74945" lon="4.76633">
        <ele>244.79</ele>
        <time>2014-06-15T16:51:44Z</time>
      </trkpt>
      <trkpt lat="45.74943" lon="4.76635">
        <ele>244.79</ele>
        <time>2014-06-15T16:51:45Z</time>
      </trkpt>
      <trkpt lat="45.74939" lon="4.76636">
        <ele>244.31</ele>
        <time>2014-06-15T16:51:47Z</time>
      </trkpt>
      <trkpt lat="45.74936" lon="4.76638">
        <ele>244.31</ele>
        <time>2014-06-15T16:51:49Z</time>
      </trkpt>
      <trkpt lat="45.74935" lon="4.7664">
        <ele>243.83</ele>
        <time>2014-06-15T16:51:50Z</time>
      </trkpt>
      <trkpt lat="45.74935" lon="4.76642">
        <ele>243.83</ele>
        <time>2014-06-15T16:51:51Z</time>
      </trkpt>
      <trkpt lat="45.74932" lon="4.76646">
        <ele>243.35</ele>
        <time>2014-06-15T16:51:52Z</time>
      </trkpt>
      <trkpt lat="45.74929" lon="4.76649">
        <ele>242.87</ele>
        <time>2014-06-15T16:51:53Z</time>
      </trkpt>
      <trkpt lat="45.74924" lon="4.76652">
        <ele>242.39</ele>
        <time>2014-06-15T16:51:54Z</time>
      </trkpt>
      <trkpt lat="45.74919" lon="4.76656">
        <ele>241.91</ele>
        <time>2014-06-15T16:51:55Z</time>
      </trkpt>
      <trkpt lat="45.74913" lon="4.76661">
        <ele>241.43</ele>
        <time>2014-06-15T16:51:56Z</time>
      </trkpt>
      <trkpt lat="45.74907" lon="4.76666">
        <ele>240.95</ele>
        <time>2014-06-15T16:51:57Z</time>
      </trkpt>
      <trkpt lat="45.74878" lon="4.76688">
        <ele>237.1</ele>
        <time>2014-06-15T16:52:01Z</time>
      </trkpt>
      <trkpt lat="45.74862" lon="4.76701">
        <ele>235.66</ele>
        <time>2014-06-15T16:52:03Z</time>
      </trkpt>
      <trkpt lat="45.74825" lon="4.76729">
        <ele>232.78</ele>
        <time>2014-06-15T16:52:07Z</time>
      </trkpt>
      <trkpt lat="45.74786" lon="4.76758">
        <ele>229.41</ele>
        <time>2014-06-15T16:52:11Z</time>
      </trkpt>
      <trkpt lat="45.74767" lon="4.76773">
        <ele>228.45</ele>
        <time>2014-06-15T16:52:13Z</time>
      </trkpt>
      <trkpt lat="45.74757" lon="4.76778">
        <ele>228.45</ele>
        <time>2014-06-15T16:52:14Z</time>
      </trkpt>
      <trkpt lat="45.74746" lon="4.7678">
        <ele>227.01</ele>
        <time>2014-06-15T16:52:15Z</time>
      </trkpt>
      <trkpt lat="45.74735" lon="4.7678">
        <ele>225.09</ele>
        <time>2014-06-15T16:52:16Z</time>
      </trkpt>
      <trkpt lat="45.74724" lon="4.76777">
        <ele>224.61</ele>
        <time>2014-06-15T16:52:17Z</time>
      </trkpt>
      <trkpt lat="45.74714" lon="4.76771">
        <ele>225.57</ele>
        <time>2014-06-15T16:52:18Z</time>
      </trkpt>
      <trkpt lat="45.74704" lon="4.76765">
        <ele>225.57</ele>
        <time>2014-06-15T16:52:19Z</time>
      </trkpt>
      <trkpt lat="45.74694" lon="4.76761">
        <ele>225.57</ele>
        <time>2014-06-15T16:52:20Z</time>
      </trkpt>
      <trkpt lat="45.74675" lon="4.76756">
        <ele>225.57</ele>
        <time>2014-06-15T16:52:22Z</time>
      </trkpt>
      <trkpt lat="45.74665" lon="4.76756">
        <ele>225.57</ele>
        <time>2014-06-15T16:52:23Z</time>
      </trkpt>
      <trkpt lat="45.74656" lon="4.76757">
        <ele>226.05</ele>
        <time>2014-06-15T16:52:24Z</time>
      </trkpt>
      <trkpt lat="45.74647" lon="4.7676">
        <ele>226.53</ele>
        <time>2014-06-15T16:52:25Z</time>
      </trkpt>
      <trkpt lat="45.74638" lon="4.76764">
        <ele>226.05</ele>
        <time>2014-06-15T16:52:26Z</time>
      </trkpt>
      <trkpt lat="45.7463" lon="4.76769">
        <ele>226.05</ele>
        <time>2014-06-15T16:52:27Z</time>
      </trkpt>
      <trkpt lat="45.74603" lon="4.7678">
        <ele>225.57</ele>
        <time>2014-06-15T16:52:30Z</time>
      </trkpt>
      <trkpt lat="45.74593" lon="4.76782">
        <ele>226.05</ele>
        <time>2014-06-15T16:52:31Z</time>
      </trkpt>
      <trkpt lat="45.74575" lon="4.76786">
        <ele>224.61</ele>
        <time>2014-06-15T16:52:33Z</time>
      </trkpt>
      <trkpt lat="45.74522" lon="4.76798">
        <ele>223.16</ele>
        <time>2014-06-15T16:52:39Z</time>
      </trkpt>
      <trkpt lat="45.74513" lon="4.76796">
        <ele>223.16</ele>
        <time>2014-06-15T16:52:40Z</time>
      </trkpt>
      <trkpt lat="45.74443" lon="4.76774">
        <ele>221.72</ele>
        <time>2014-06-15T16:52:48Z</time>
      </trkpt>
      <trkpt lat="45.74435" lon="4.76773">
        <ele>222.2</ele>
        <time>2014-06-15T16:52:49Z</time>
      </trkpt>
      <trkpt lat="45.74427" lon="4.76773">
        <ele>222.2</ele>
        <time>2014-06-15T16:52:50Z</time>
      </trkpt>
      <trkpt lat="45.74419" lon="4.76775">
        <ele>222.2</ele>
        <time>2014-06-15T16:52:51Z</time>
      </trkpt>
      <trkpt lat="45.74411" lon="4.76777">
        <ele>222.2</ele>
        <time>2014-06-15T16:52:52Z</time>
      </trkpt>
      <trkpt lat="45.74402" lon="4.76782">
        <ele>222.2</ele>
        <time>2014-06-15T16:52:53Z</time>
      </trkpt>
      <trkpt lat="45.7434" lon="4.76808">
        <ele>221.24</ele>
        <time>2014-06-15T16:53:00Z</time>
      </trkpt>
      <trkpt lat="45.7433" lon="4.7681">
        <ele>221.24</ele>
        <time>2014-06-15T16:53:01Z</time>
      </trkpt>
      <trkpt lat="45.74303" lon="4.7681">
        <ele>221.24</ele>
        <time>2014-06-15T16:53:04Z</time>
      </trkpt>
      <trkpt lat="45.74197" lon="4.76807">
        <ele>221.24</ele>
        <time>2014-06-15T16:53:17Z</time>
      </trkpt>
      <trkpt lat="45.74179" lon="4.76809">
        <ele>220.76</ele>
        <time>2014-06-15T16:53:20Z</time>
      </trkpt>
      <trkpt lat="45.74173" lon="4.76811">
        <ele>221.24</ele>
        <time>2014-06-15T16:53:21Z</time>
      </trkpt>
      <trkpt lat="45.74169" lon="4.76812">
        <ele>221.24</ele>
        <time>2014-06-15T16:53:22Z</time>
      </trkpt>
      <trkpt lat="45.74166" lon="4.76813">
        <ele>221.72</ele>
        <time>2014-06-15T16:53:23Z</time>
      </trkpt>
      <trkpt lat="45.74164" lon="4.76812">
        <ele>221.72</ele>
        <time>2014-06-15T16:53:24Z</time>
      </trkpt>
      <trkpt lat="45.74162" lon="4.76811">
        <ele>221.24</ele>
        <time>2014-06-15T16:53:25Z</time>
      </trkpt>
      <trkpt lat="45.7416" lon="4.76808">
        <ele>221.24</ele>
        <time>2014-06-15T16:53:26Z</time>
      </trkpt>
      <trkpt lat="45.74161" lon="4.76803">
        <ele>221.24</ele>
        <time>2014-06-15T16:53:27Z</time>
      </trkpt>
      <trkpt lat="45.74162" lon="4.76798">
        <ele>221.24</ele>
        <time>2014-06-15T16:53:28Z</time>
      </trkpt>
      <trkpt lat="45.74165" lon="4.76793">
        <ele>221.24</ele>
        <time>2014-06-15T16:53:29Z</time>
      </trkpt>
      <trkpt lat="45.74172" lon="4.76778">
        <ele>221.24</ele>
        <time>2014-06-15T16:53:32Z</time>
      </trkpt>
      <trkpt lat="45.74174" lon="4.76772">
        <ele>221.72</ele>
        <time>2014-06-15T16:53:33Z</time>
      </trkpt>
      <trkpt lat="45.74177" lon="4.76766">
        <ele>221.72</ele>
        <time>2014-06-15T16:53:34Z</time>
      </trkpt>
      <trkpt lat="45.74178" lon="4.7676">
        <ele>221.72</ele>
        <time>2014-06-15T16:53:35Z</time>
      </trkpt>
      <trkpt lat="45.7418" lon="4.76754">
        <ele>221.72</ele>
        <time>2014-06-15T16:53:36Z</time>
      </trkpt>
      <trkpt lat="45.74182" lon="4.76747">
        <ele>222.2</ele>
        <time>2014-06-15T16:53:37Z</time>
      </trkpt>
      <trkpt lat="45.74184" lon="4.76741">
        <ele>222.2</ele>
        <time>2014-06-15T16:53:38Z</time>
      </trkpt>
      <trkpt lat="45.74201" lon="4.76692">
        <ele>220.28</ele>
        <time>2014-06-15T16:53:45Z</time>
      </trkpt>
      <trkpt lat="45.74205" lon="4.76676">
        <ele>219.8</ele>
        <time>2014-06-15T16:53:47Z</time>
      </trkpt>
      <trkpt lat="45.7421" lon="4.76587">
        <ele>219.8</ele>
        <time>2014-06-15T16:54:00Z</time>
      </trkpt>
      <trkpt lat="45.7421" lon="4.76581">
        <ele>219.8</ele>
        <time>2014-06-15T16:54:01Z</time>
      </trkpt>
      <trkpt lat="45.74208" lon="4.76513">
        <ele>219.32</ele>
        <time>2014-06-15T16:54:11Z</time>
      </trkpt>
      <trkpt lat="45.74208" lon="4.76506">
        <ele>219.8</ele>
        <time>2014-06-15T16:54:12Z</time>
      </trkpt>
      <trkpt lat="45.74208" lon="4.76454">
        <ele>220.76</ele>
        <time>2014-06-15T16:54:22Z</time>
      </trkpt>
      <trkpt lat="45.74206" lon="4.76451">
        <ele>220.76</ele>
        <time>2014-06-15T16:54:23Z</time>
      </trkpt>
      <trkpt lat="45.74206" lon="4.76448">
        <ele>220.76</ele>
        <time>2014-06-15T16:54:24Z</time>
      </trkpt>
      <trkpt lat="45.74206" lon="4.76445">
        <ele>220.76</ele>
        <time>2014-06-15T16:54:25Z</time>
      </trkpt>
      <trkpt lat="45.74207" lon="4.76441">
        <ele>220.28</ele>
        <time>2014-06-15T16:54:26Z</time>
      </trkpt>
      <trkpt lat="45.74207" lon="4.76438">
        <ele>220.76</ele>
        <time>2014-06-15T16:54:27Z</time>
      </trkpt>
      <trkpt lat="45.74207" lon="4.76434">
        <ele>220.76</ele>
        <time>2014-06-15T16:54:28Z</time>
      </trkpt>
      <trkpt lat="45.74207" lon="4.76431">
        <ele>220.76</ele>
        <time>2014-06-15T16:54:36Z</time>
      </trkpt>
      <trkpt lat="45.74205" lon="4.7642">
        <ele>221.24</ele>
        <time>2014-06-15T16:54:51Z</time>
      </trkpt>
      <trkpt lat="45.74206" lon="4.76415">
        <ele>220.76</ele>
        <time>2014-06-15T16:54:58Z</time>
      </trkpt>
      <trkpt lat="45.7421" lon="4.76415">
        <ele>219.8</ele>
        <time>2014-06-15T16:55:02Z</time>
      </trkpt>
      <trkpt lat="45.74213" lon="4.76413">
        <ele>219.8</ele>
        <time>2014-06-15T16:55:03Z</time>
      </trkpt>
      <trkpt lat="45.74231" lon="4.76404">
        <ele>219.8</ele>
        <time>2014-06-15T16:55:11Z</time>
      </trkpt>
      <trkpt lat="45.74232" lon="4.76402">
        <ele>219.8</ele>
        <time>2014-06-15T16:55:12Z</time>
      </trkpt>
      <trkpt lat="45.74241" lon="4.76377">
        <ele>220.76</ele>
        <time>2014-06-15T16:55:23Z</time>
      </trkpt>
      <trkpt lat="45.74244" lon="4.76377">
        <ele>221.24</ele>
        <time>2014-06-15T16:55:25Z</time>
      </trkpt>
      <trkpt lat="45.74245" lon="4.76377">
        <ele>221.24</ele>
        <time>2014-06-15T16:55:26Z</time>
      </trkpt>
      <trkpt lat="45.74247" lon="4.76377">
        <ele>221.24</ele>
        <time>2014-06-15T16:55:27Z</time>
      </trkpt>
      <trkpt lat="45.74249" lon="4.76377">
        <ele>221.24</ele>
        <time>2014-06-15T16:55:28Z</time>
      </trkpt>
      <trkpt lat="45.74251" lon="4.76377">
        <ele>221.24</ele>
        <time>2014-06-15T16:55:29Z</time>
      </trkpt>
      <trkpt lat="45.74252" lon="4.76378">
        <ele>221.72</ele>
        <time>2014-06-15T16:55:30Z</time>
      </trkpt>
      <trkpt lat="45.74255" lon="4.76377">
        <ele>221.72</ele>
        <time>2014-06-15T16:55:32Z</time>
      </trkpt>
      <trkpt lat="45.74257" lon="4.76375">
        <ele>221.24</ele>
        <time>2014-06-15T16:55:33Z</time>
      </trkpt>
      <trkpt lat="45.74258" lon="4.76373">
        <ele>220.28</ele>
        <time>2014-06-15T16:55:34Z</time>
      </trkpt>
      <trkpt lat="45.74259" lon="4.7637">
        <ele>220.28</ele>
        <time>2014-06-15T16:55:35Z</time>
      </trkpt>
      <trkpt lat="45.7426" lon="4.76367">
        <ele>220.76</ele>
        <time>2014-06-15T16:55:36Z</time>
      </trkpt>
      <trkpt lat="45.74262" lon="4.76364">
        <ele>220.76</ele>
        <time>2014-06-15T16:55:37Z</time>
      </trkpt>
      <trkpt lat="45.74264" lon="4.76363">
        <ele>220.76</ele>
        <time>2014-06-15T16:55:38Z</time>
      </trkpt>
      <trkpt lat="45.74267" lon="4.76361">
        <ele>220.76</ele>
        <time>2014-06-15T16:55:39Z</time>
      </trkpt>
      <trkpt lat="45.7427" lon="4.76358">
        <ele>220.76</ele>
        <time>2014-06-15T16:55:40Z</time>
      </trkpt>
      <trkpt lat="45.74299" lon="4.76334">
        <ele>220.76</ele>
        <time>2014-06-15T16:55:51Z</time>
      </trkpt>
      <trkpt lat="45.74332" lon="4.76307">
        <ele>220.76</ele>
        <time>2014-06-15T16:56:02Z</time>
      </trkpt>
      <trkpt lat="45.74352" lon="4.7629">
        <ele>220.28</ele>
        <time>2014-06-15T16:56:07Z</time>
      </trkpt>
      <trkpt lat="45.74355" lon="4.76286">
        <ele>220.76</ele>
        <time>2014-06-15T16:56:08Z</time>
      </trkpt>
      <trkpt lat="45.74365" lon="4.76274">
        <ele>220.28</ele>
        <time>2014-06-15T16:56:11Z</time>
      </trkpt>
      <trkpt lat="45.74389" lon="4.76231">
        <ele>221.24</ele>
        <time>2014-06-15T16:56:36Z</time>
      </trkpt>
      <trkpt lat="45.74381" lon="4.76198">
        <ele>220.76</ele>
        <time>2014-06-15T16:56:44Z</time>
      </trkpt>
      <trkpt lat="45.74373" lon="4.76167">
        <ele>220.76</ele>
        <time>2014-06-15T16:56:50Z</time>
      </trkpt>
      <trkpt lat="45.74369" lon="4.76131">
        <ele>221.24</ele>
        <time>2014-06-15T16:56:59Z</time>
      </trkpt>
      <trkpt lat="45.74365" lon="4.76093">
        <ele>221.24</ele>
        <time>2014-06-15T16:57:06Z</time>
      </trkpt>
      <trkpt lat="45.74368" lon="4.7601">
        <ele>221.72</ele>
        <time>2014-06-15T16:57:18Z</time>
      </trkpt>
      <trkpt lat="45.74371" lon="4.75996">
        <ele>221.72</ele>
        <time>2014-06-15T16:57:20Z</time>
      </trkpt>
      <trkpt lat="45.74375" lon="4.75981">
        <ele>220.76</ele>
        <time>2014-06-15T16:57:22Z</time>
      </trkpt>
      <trkpt lat="45.74381" lon="4.75958">
        <ele>221.24</ele>
        <time>2014-06-15T16:57:25Z</time>
      </trkpt>
      <trkpt lat="45.74384" lon="4.75898">
        <ele>222.68</ele>
        <time>2014-06-15T16:57:35Z</time>
      </trkpt>
      <trkpt lat="45.74383" lon="4.7586">
        <ele>222.68</ele>
        <time>2014-06-15T16:57:40Z</time>
      </trkpt>
      <trkpt lat="45.74382" lon="4.75854">
        <ele>222.68</ele>
        <time>2014-06-15T16:57:41Z</time>
      </trkpt>
      <trkpt lat="45.74377" lon="4.75841">
        <ele>222.68</ele>
        <time>2014-06-15T16:57:43Z</time>
      </trkpt>
      <trkpt lat="45.74375" lon="4.75835">
        <ele>222.68</ele>
        <time>2014-06-15T16:57:44Z</time>
      </trkpt>
      <trkpt lat="45.74374" lon="4.75831">
        <ele>223.16</ele>
        <time>2014-06-15T16:57:45Z</time>
      </trkpt>
      <trkpt lat="45.74357" lon="4.75777">
        <ele>223.64</ele>
        <time>2014-06-15T16:57:56Z</time>
      </trkpt>
      <trkpt lat="45.74354" lon="4.7573">
        <ele>224.61</ele>
        <time>2014-06-15T16:58:07Z</time>
      </trkpt>
      <trkpt lat="45.74359" lon="4.75677">
        <ele>225.57</ele>
        <time>2014-06-15T16:58:17Z</time>
      </trkpt>
      <trkpt lat="45.74357" lon="4.75609">
        <ele>226.05</ele>
        <time>2014-06-15T16:58:30Z</time>
      </trkpt>
      <trkpt lat="45.74306" lon="4.7555">
        <ele>226.05</ele>
        <time>2014-06-15T16:58:43Z</time>
      </trkpt>
      <trkpt lat="45.74253" lon="4.75538">
        <ele>227.49</ele>
        <time>2014-06-15T16:58:58Z</time>
      </trkpt>
      <trkpt lat="45.74218" lon="4.75537">
        <ele>228.45</ele>
        <time>2014-06-15T16:59:05Z</time>
      </trkpt>
      <trkpt lat="45.74216" lon="4.75531">
        <ele>228.45</ele>
        <time>2014-06-15T16:59:06Z</time>
      </trkpt>
      <trkpt lat="45.74202" lon="4.75495">
        <ele>229.41</ele>
        <time>2014-06-15T16:59:14Z</time>
      </trkpt>
      <trkpt lat="45.74199" lon="4.75483">
        <ele>229.89</ele>
        <time>2014-06-15T16:59:18Z</time>
      </trkpt>
      <trkpt lat="45.74187" lon="4.7546">
        <ele>230.37</ele>
        <time>2014-06-15T16:59:31Z</time>
      </trkpt>
      <trkpt lat="45.74184" lon="4.75453">
        <ele>230.37</ele>
        <time>2014-06-15T16:59:43Z</time>
      </trkpt>
      <trkpt lat="45.74184" lon="4.75453">
        <ele>229.89</ele>
        <time>2014-06-15T16:59:57Z</time>
      </trkpt>
      <trkpt lat="45.74184" lon="4.7545">
        <ele>229.89</ele>
        <time>2014-06-15T17:00:03Z</time>
      </trkpt>
      <trkpt lat="45.74184" lon="4.75448">
        <ele>229.89</ele>
        <time>2014-06-15T17:00:04Z</time>
      </trkpt>
      <trkpt lat="45.74181" lon="4.75439">
        <ele>230.37</ele>
        <time>2014-06-15T17:00:08Z</time>
      </trkpt>
      <trkpt lat="45.74181" lon="4.75437">
        <ele>230.85</ele>
        <time>2014-06-15T17:00:09Z</time>
      </trkpt>
      <trkpt lat="45.74169" lon="4.75425">
        <ele>228.45</ele>
        <time>2014-06-15T17:01:23Z</time>
      </trkpt>
      <trkpt lat="45.74171" lon="4.75423">
        <ele>228.45</ele>
        <time>2014-06-15T17:01:24Z</time>
      </trkpt>
      <trkpt lat="45.74172" lon="4.75421">
        <ele>228.93</ele>
        <time>2014-06-15T17:01:25Z</time>
      </trkpt>
      <trkpt lat="45.74188" lon="4.75398">
        <ele>228.45</ele>
        <time>2014-06-15T17:01:37Z</time>
      </trkpt>
      <trkpt lat="45.74186" lon="4.75397">
        <ele>227.97</ele>
        <time>2014-06-15T17:01:38Z</time>
      </trkpt>
      <trkpt lat="45.74184" lon="4.75395">
        <ele>227.97</ele>
        <time>2014-06-15T17:01:39Z</time>
      </trkpt>
      <trkpt lat="45.74176" lon="4.75384">
        <ele>227.01</ele>
        <time>2014-06-15T17:01:43Z</time>
      </trkpt>
      <trkpt lat="45.74176" lon="4.7538">
        <ele>227.01</ele>
        <time>2014-06-15T17:01:44Z</time>
      </trkpt>
      <trkpt lat="45.74165" lon="4.75313">
        <ele>227.97</ele>
        <time>2014-06-15T17:01:56Z</time>
      </trkpt>
      <trkpt lat="45.74163" lon="4.75268">
        <ele>229.41</ele>
        <time>2014-06-15T17:02:05Z</time>
      </trkpt>
      <trkpt lat="45.7416" lon="4.75264">
        <ele>229.41</ele>
        <time>2014-06-15T17:02:06Z</time>
      </trkpt>
      <trkpt lat="45.74158" lon="4.7526">
        <ele>229.41</ele>
        <time>2014-06-15T17:02:07Z</time>
      </trkpt>
      <trkpt lat="45.74152" lon="4.75251">
        <ele>228.93</ele>
        <time>2014-06-15T17:02:09Z</time>
      </trkpt>
      <trkpt lat="45.74147" lon="4.75239">
        <ele>227.97</ele>
        <time>2014-06-15T17:02:11Z</time>
      </trkpt>
      <trkpt lat="45.74145" lon="4.75233">
        <ele>227.97</ele>
        <time>2014-06-15T17:02:12Z</time>
      </trkpt>
      <trkpt lat="45.74141" lon="4.75216">
        <ele>227.49</ele>
        <time>2014-06-15T17:02:15Z</time>
      </trkpt>
      <trkpt lat="45.74138" lon="4.75204">
        <ele>227.97</ele>
        <time>2014-06-15T17:02:17Z</time>
      </trkpt>
      <trkpt lat="45.74136" lon="4.75198">
        <ele>227.49</ele>
        <time>2014-06-15T17:02:18Z</time>
      </trkpt>
      <trkpt lat="45.74135" lon="4.75193">
        <ele>227.01</ele>
        <time>2014-06-15T17:02:19Z</time>
      </trkpt>
      <trkpt lat="45.7413" lon="4.7516">
        <ele>227.97</ele>
        <time>2014-06-15T17:02:25Z</time>
      </trkpt>
      <trkpt lat="45.74131" lon="4.75154">
        <ele>227.49</ele>
        <time>2014-06-15T17:02:26Z</time>
      </trkpt>
      <trkpt lat="45.74146" lon="4.75097">
        <ele>229.89</ele>
        <time>2014-06-15T17:02:36Z</time>
      </trkpt>
      <trkpt lat="45.74148" lon="4.75077">
        <ele>229.89</ele>
        <time>2014-06-15T17:02:39Z</time>
      </trkpt>
      <trkpt lat="45.74148" lon="4.7507">
        <ele>229.89</ele>
        <time>2014-06-15T17:02:40Z</time>
      </trkpt>
      <trkpt lat="45.74149" lon="4.75063">
        <ele>230.37</ele>
        <time>2014-06-15T17:02:41Z</time>
      </trkpt>
      <trkpt lat="45.74151" lon="4.7505">
        <ele>230.37</ele>
        <time>2014-06-15T17:02:43Z</time>
      </trkpt>
      <trkpt lat="45.74151" lon="4.75044">
        <ele>230.37</ele>
        <time>2014-06-15T17:02:44Z</time>
      </trkpt>
      <trkpt lat="45.74149" lon="4.74999">
        <ele>230.37</ele>
        <time>2014-06-15T17:02:55Z</time>
      </trkpt>
      <trkpt lat="45.74148" lon="4.74996">
        <ele>229.89</ele>
        <time>2014-06-15T17:03:10Z</time>
      </trkpt>
      <trkpt lat="45.74147" lon="4.74992">
        <ele>229.41</ele>
        <time>2014-06-15T17:03:14Z</time>
      </trkpt>
      <trkpt lat="45.7415" lon="4.7499">
        <ele>228.93</ele>
        <time>2014-06-15T17:03:17Z</time>
      </trkpt>
      <trkpt lat="45.74158" lon="4.74985">
        <ele>230.37</ele>
        <time>2014-06-15T17:03:28Z</time>
      </trkpt>
      <trkpt lat="45.7416" lon="4.74983">
        <ele>229.89</ele>
        <time>2014-06-15T17:03:29Z</time>
      </trkpt>
      <trkpt lat="45.74169" lon="4.74977">
        <ele>231.33</ele>
        <time>2014-06-15T17:03:33Z</time>
      </trkpt>
      <trkpt lat="45.74193" lon="4.74955">
        <ele>230.37</ele>
        <time>2014-06-15T17:03:44Z</time>
      </trkpt>
      <trkpt lat="45.74195" lon="4.74953">
        <ele>230.85</ele>
        <time>2014-06-15T17:03:45Z</time>
      </trkpt>
      <trkpt lat="45.74197" lon="4.7495">
        <ele>230.37</ele>
        <time>2014-06-15T17:03:46Z</time>
      </trkpt>
      <trkpt lat="45.74202" lon="4.74946">
        <ele>230.37</ele>
        <time>2014-06-15T17:03:49Z</time>
      </trkpt>
      <trkpt lat="45.74204" lon="4.74945">
        <ele>230.37</ele>
        <time>2014-06-15T17:03:50Z</time>
      </trkpt>
      <trkpt lat="45.74206" lon="4.74945">
        <ele>230.85</ele>
        <time>2014-06-15T17:03:51Z</time>
      </trkpt>
      <trkpt lat="45.74208" lon="4.74944">
        <ele>231.33</ele>
        <time>2014-06-15T17:03:52Z</time>
      </trkpt>
      <trkpt lat="45.7421" lon="4.74944">
        <ele>230.85</ele>
        <time>2014-06-15T17:03:53Z</time>
      </trkpt>
      <trkpt lat="45.74219" lon="4.74941">
        <ele>231.81</ele>
        <time>2014-06-15T17:03:57Z</time>
      </trkpt>
      <trkpt lat="45.74228" lon="4.74936">
        <ele>232.3</ele>
        <time>2014-06-15T17:04:00Z</time>
      </trkpt>
      <trkpt lat="45.74232" lon="4.74932">
        <ele>232.3</ele>
        <time>2014-06-15T17:04:01Z</time>
      </trkpt>
      <trkpt lat="45.74235" lon="4.74929">
        <ele>232.3</ele>
        <time>2014-06-15T17:04:02Z</time>
      </trkpt>
      <trkpt lat="45.74257" lon="4.7491">
        <ele>232.78</ele>
        <time>2014-06-15T17:04:14Z</time>
      </trkpt>
      <trkpt lat="45.74263" lon="4.74904">
        <ele>232.78</ele>
        <time>2014-06-15T17:04:17Z</time>
      </trkpt>
      <trkpt lat="45.74267" lon="4.749">
        <ele>232.3</ele>
        <time>2014-06-15T17:04:18Z</time>
      </trkpt>
      <trkpt lat="45.74271" lon="4.74896">
        <ele>232.3</ele>
        <time>2014-06-15T17:04:19Z</time>
      </trkpt>
      <trkpt lat="45.74275" lon="4.74893">
        <ele>231.81</ele>
        <time>2014-06-15T17:04:20Z</time>
      </trkpt>
      <trkpt lat="45.74279" lon="4.7489">
        <ele>231.81</ele>
        <time>2014-06-15T17:04:21Z</time>
      </trkpt>
      <trkpt lat="45.74324" lon="4.7487">
        <ele>229.89</ele>
        <time>2014-06-15T17:08:50Z</time>
      </trkpt>
      <trkpt lat="45.74319" lon="4.74867">
        <ele>228.93</ele>
        <time>2014-06-15T17:09:02Z</time>
      </trkpt>
      <trkpt lat="45.74315" lon="4.74865">
        <ele>228.93</ele>
        <time>2014-06-15T17:09:15Z</time>
      </trkpt>
      <trkpt lat="45.74312" lon="4.74857">
        <ele>229.89</ele>
        <time>2014-06-15T17:09:27Z</time>
      </trkpt>
      <trkpt lat="45.74307" lon="4.74855">
        <ele>229.41</ele>
        <time>2014-06-15T17:09:42Z</time>
      </trkpt>
      <trkpt lat="45.74306" lon="4.74854">
        <ele>229.41</ele>
        <time>2014-06-15T17:09:43Z</time>
      </trkpt>
      <trkpt lat="45.74315" lon="4.7485">
        <ele>229.41</ele>
        <time>2014-06-15T17:10:43Z</time>
      </trkpt>
      <trkpt lat="45.74321" lon="4.74844">
        <ele>228.93</ele>
        <time>2014-06-15T17:10:52Z</time>
      </trkpt>
      <trkpt lat="45.74322" lon="4.74843">
        <ele>228.93</ele>
        <time>2014-06-15T17:10:53Z</time>
      </trkpt>
      <trkpt lat="45.74324" lon="4.74842">
        <ele>228.93</ele>
        <time>2014-06-15T17:10:54Z</time>
      </trkpt>
      <trkpt lat="45.74339" lon="4.74822">
        <ele>229.89</ele>
        <time>2014-06-15T17:11:05Z</time>
      </trkpt>
      <trkpt lat="45.7434" lon="4.7482">
        <ele>230.37</ele>
        <time>2014-06-15T17:11:06Z</time>
      </trkpt>
      <trkpt lat="45.74342" lon="4.74817">
        <ele>229.89</ele>
        <time>2014-06-15T17:11:07Z</time>
      </trkpt>
      <trkpt lat="45.74353" lon="4.74804">
        <ele>231.33</ele>
        <time>2014-06-15T17:11:21Z</time>
      </trkpt>
      <trkpt lat="45.74366" lon="4.7479">
        <ele>230.85</ele>
        <time>2014-06-15T17:11:31Z</time>
      </trkpt>
      <trkpt lat="45.74367" lon="4.74789">
        <ele>231.33</ele>
        <time>2014-06-15T17:11:32Z</time>
      </trkpt>
      <trkpt lat="45.74386" lon="4.74761">
        <ele>231.81</ele>
        <time>2014-06-15T17:11:44Z</time>
      </trkpt>
      <trkpt lat="45.74391" lon="4.74745">
        <ele>231.81</ele>
        <time>2014-06-15T17:11:52Z</time>
      </trkpt>
      <trkpt lat="45.74393" lon="4.7473">
        <ele>230.85</ele>
        <time>2014-06-15T17:11:57Z</time>
      </trkpt>
      <trkpt lat="45.74392" lon="4.74723">
        <ele>231.33</ele>
        <time>2014-06-15T17:12:07Z</time>
      </trkpt>
      <trkpt lat="45.74387" lon="4.74718">
        <ele>231.81</ele>
        <time>2014-06-15T17:12:12Z</time>
      </trkpt>
      <trkpt lat="45.74384" lon="4.74708">
        <ele>231.33</ele>
        <time>2014-06-15T17:12:16Z</time>
      </trkpt>
      <trkpt lat="45.74385" lon="4.74702">
        <ele>231.33</ele>
        <time>2014-06-15T17:12:18Z</time>
      </trkpt>
      <trkpt lat="45.74377" lon="4.74677">
        <ele>231.33</ele>
        <time>2014-06-15T17:12:31Z</time>
      </trkpt>
      <trkpt lat="45.74367" lon="4.7464">
        <ele>231.81</ele>
        <time>2014-06-15T17:12:43Z</time>
      </trkpt>
      <trkpt lat="45.74364" lon="4.74624">
        <ele>231.33</ele>
        <time>2014-06-15T17:12:47Z</time>
      </trkpt>
      <trkpt lat="45.74365" lon="4.74555">
        <ele>231.81</ele>
        <time>2014-06-15T17:12:59Z</time>
      </trkpt>
      <trkpt lat="45.74366" lon="4.74539">
        <ele>231.33</ele>
        <time>2014-06-15T17:13:01Z</time>
      </trkpt>
      <trkpt lat="45.7436" lon="4.74471">
        <ele>231.81</ele>
        <time>2014-06-15T17:13:11Z</time>
      </trkpt>
      <trkpt lat="45.74344" lon="4.74412">
        <ele>233.26</ele>
        <time>2014-06-15T17:13:21Z</time>
      </trkpt>
      <trkpt lat="45.7434" lon="4.74399">
        <ele>233.74</ele>
        <time>2014-06-15T17:13:25Z</time>
      </trkpt>
      <trkpt lat="45.74331" lon="4.74384">
        <ele>233.26</ele>
        <time>2014-06-15T17:13:36Z</time>
      </trkpt>
      <trkpt lat="45.74329" lon="4.7438">
        <ele>233.26</ele>
        <time>2014-06-15T17:13:38Z</time>
      </trkpt>
      <trkpt lat="45.74328" lon="4.74379">
        <ele>233.26</ele>
        <time>2014-06-15T17:13:39Z</time>
      </trkpt>
      <trkpt lat="45.74313" lon="4.74363">
        <ele>232.78</ele>
        <time>2014-06-15T17:13:50Z</time>
      </trkpt>
      <trkpt lat="45.74304" lon="4.74356">
        <ele>233.74</ele>
        <time>2014-06-15T17:14:03Z</time>
      </trkpt>
      <trkpt lat="45.74291" lon="4.74346">
        <ele>234.7</ele>
        <time>2014-06-15T17:14:14Z</time>
      </trkpt>
      <trkpt lat="45.74287" lon="4.74337">
        <ele>234.7</ele>
        <time>2014-06-15T17:14:15Z</time>
      </trkpt>
      <trkpt lat="45.74285" lon="4.74334">
        <ele>234.7</ele>
        <time>2014-06-15T17:14:16Z</time>
      </trkpt>
      <trkpt lat="45.74284" lon="4.74331">
        <ele>234.7</ele>
        <time>2014-06-15T17:14:17Z</time>
      </trkpt>
      <trkpt lat="45.74282" lon="4.74329">
        <ele>234.7</ele>
        <time>2014-06-15T17:14:18Z</time>
      </trkpt>
      <trkpt lat="45.74281" lon="4.74326">
        <ele>234.7</ele>
        <time>2014-06-15T17:14:19Z</time>
      </trkpt>
      <trkpt lat="45.74279" lon="4.74323">
        <ele>234.7</ele>
        <time>2014-06-15T17:14:20Z</time>
      </trkpt>
      <trkpt lat="45.74277" lon="4.7432">
        <ele>234.7</ele>
        <time>2014-06-15T17:14:21Z</time>
      </trkpt>
      <trkpt lat="45.74276" lon="4.74317">
        <ele>234.7</ele>
        <time>2014-06-15T17:14:22Z</time>
      </trkpt>
      <trkpt lat="45.74269" lon="4.74266">
        <ele>234.22</ele>
        <time>2014-06-15T17:14:32Z</time>
      </trkpt>
      <trkpt lat="45.74278" lon="4.74222">
        <ele>234.7</ele>
        <time>2014-06-15T17:14:42Z</time>
      </trkpt>
      <trkpt lat="45.74303" lon="4.74212">
        <ele>235.66</ele>
        <time>2014-06-15T17:14:49Z</time>
      </trkpt>
      <trkpt lat="45.7432" lon="4.74207">
        <ele>238.54</ele>
        <time>2014-06-15T17:14:54Z</time>
      </trkpt>
      <trkpt lat="45.74321" lon="4.74205">
        <ele>239.02</ele>
        <time>2014-06-15T17:14:55Z</time>
      </trkpt>
      <trkpt lat="45.74325" lon="4.74156">
        <ele>238.54</ele>
        <time>2014-06-15T17:15:06Z</time>
      </trkpt>
      <trkpt lat="45.74315" lon="4.74098">
        <ele>238.06</ele>
        <time>2014-06-15T17:15:17Z</time>
      </trkpt>
      <trkpt lat="45.74305" lon="4.74045">
        <ele>238.06</ele>
        <time>2014-06-15T17:15:27Z</time>
      </trkpt>
      <trkpt lat="45.74291" lon="4.74002">
        <ele>239.51</ele>
        <time>2014-06-15T17:15:40Z</time>
      </trkpt>
      <trkpt lat="45.74245" lon="4.73953">
        <ele>239.99</ele>
        <time>2014-06-15T17:15:51Z</time>
      </trkpt>
      <trkpt lat="45.74243" lon="4.73951">
        <ele>239.99</ele>
        <time>2014-06-15T17:15:52Z</time>
      </trkpt>
      <trkpt lat="45.74241" lon="4.73949">
        <ele>239.99</ele>
        <time>2014-06-15T17:15:53Z</time>
      </trkpt>
      <trkpt lat="45.74239" lon="4.73947">
        <ele>239.99</ele>
        <time>2014-06-15T17:15:54Z</time>
      </trkpt>
      <trkpt lat="45.74237" lon="4.73946">
        <ele>239.99</ele>
        <time>2014-06-15T17:15:55Z</time>
      </trkpt>
      <trkpt lat="45.74235" lon="4.73943">
        <ele>239.99</ele>
        <time>2014-06-15T17:15:56Z</time>
      </trkpt>
      <trkpt lat="45.74229" lon="4.73933">
        <ele>239.99</ele>
        <time>2014-06-15T17:16:00Z</time>
      </trkpt>
      <trkpt lat="45.74227" lon="4.7393">
        <ele>239.99</ele>
        <time>2014-06-15T17:16:01Z</time>
      </trkpt>
      <trkpt lat="45.74226" lon="4.73927">
        <ele>239.99</ele>
        <time>2014-06-15T17:16:02Z</time>
      </trkpt>
      <trkpt lat="45.74226" lon="4.73924">
        <ele>239.99</ele>
        <time>2014-06-15T17:16:03Z</time>
      </trkpt>
      <trkpt lat="45.74226" lon="4.73921">
        <ele>239.99</ele>
        <time>2014-06-15T17:16:04Z</time>
      </trkpt>
      <trkpt lat="45.74225" lon="4.73918">
        <ele>239.99</ele>
        <time>2014-06-15T17:16:05Z</time>
      </trkpt>
      <trkpt lat="45.74224" lon="4.73915">
        <ele>239.99</ele>
        <time>2014-06-15T17:16:06Z</time>
      </trkpt>
      <trkpt lat="45.74222" lon="4.73912">
        <ele>239.99</ele>
        <time>2014-06-15T17:16:07Z</time>
      </trkpt>
      <trkpt lat="45.74206" lon="4.73861">
        <ele>239.99</ele>
        <time>2014-06-15T17:16:19Z</time>
      </trkpt>
      <trkpt lat="45.74189" lon="4.73816">
        <ele>239.99</ele>
        <time>2014-06-15T17:16:31Z</time>
      </trkpt>
      <trkpt lat="45.74173" lon="4.73748">
        <ele>240.47</ele>
        <time>2014-06-15T17:16:43Z</time>
      </trkpt>
      <trkpt lat="45.74156" lon="4.73718">
        <ele>240.95</ele>
        <time>2014-06-15T17:16:49Z</time>
      </trkpt>
      <trkpt lat="45.74156" lon="4.73715">
        <ele>240.95</ele>
        <time>2014-06-15T17:16:50Z</time>
      </trkpt>
      <trkpt lat="45.7417" lon="4.73703">
        <ele>241.91</ele>
        <time>2014-06-15T17:16:56Z</time>
      </trkpt>
      <trkpt lat="45.74173" lon="4.73698">
        <ele>241.91</ele>
        <time>2014-06-15T17:16:57Z</time>
      </trkpt>
      <trkpt lat="45.74185" lon="4.73683">
        <ele>243.83</ele>
        <time>2014-06-15T17:17:02Z</time>
      </trkpt>
      <trkpt lat="45.74189" lon="4.7364">
        <ele>243.35</ele>
        <time>2014-06-15T17:17:12Z</time>
      </trkpt>
      <trkpt lat="45.74184" lon="4.73582">
        <ele>241.91</ele>
        <time>2014-06-15T17:17:22Z</time>
      </trkpt>
      <trkpt lat="45.74185" lon="4.73575">
        <ele>242.39</ele>
        <time>2014-06-15T17:17:23Z</time>
      </trkpt>
      <trkpt lat="45.74186" lon="4.73569">
        <ele>242.39</ele>
        <time>2014-06-15T17:17:24Z</time>
      </trkpt>
      <trkpt lat="45.74187" lon="4.73564">
        <ele>242.39</ele>
        <time>2014-06-15T17:17:25Z</time>
      </trkpt>
      <trkpt lat="45.74192" lon="4.73533">
        <ele>241.91</ele>
        <time>2014-06-15T17:17:34Z</time>
      </trkpt>
      <trkpt lat="45.74194" lon="4.73524">
        <ele>241.43</ele>
        <time>2014-06-15T17:17:37Z</time>
      </trkpt>
      <trkpt lat="45.74194" lon="4.73521">
        <ele>240.95</ele>
        <time>2014-06-15T17:17:38Z</time>
      </trkpt>
      <trkpt lat="45.74194" lon="4.73518">
        <ele>240.95</ele>
        <time>2014-06-15T17:17:39Z</time>
      </trkpt>
      <trkpt lat="45.7421" lon="4.73482">
        <ele>241.43</ele>
        <time>2014-06-15T17:17:47Z</time>
      </trkpt>
      <trkpt lat="45.74214" lon="4.73432">
        <ele>242.39</ele>
        <time>2014-06-15T17:17:55Z</time>
      </trkpt>
      <trkpt lat="45.74211" lon="4.7337">
        <ele>242.87</ele>
        <time>2014-06-15T17:18:05Z</time>
      </trkpt>
      <trkpt lat="45.74201" lon="4.73336">
        <ele>242.87</ele>
        <time>2014-06-15T17:18:12Z</time>
      </trkpt>
      <trkpt lat="45.742" lon="4.73334">
        <ele>242.39</ele>
        <time>2014-06-15T17:18:13Z</time>
      </trkpt>
      <trkpt lat="45.74199" lon="4.73331">
        <ele>242.87</ele>
        <time>2014-06-15T17:18:14Z</time>
      </trkpt>
      <trkpt lat="45.74198" lon="4.73328">
        <ele>242.87</ele>
        <time>2014-06-15T17:18:15Z</time>
      </trkpt>
      <trkpt lat="45.74197" lon="4.73325">
        <ele>242.87</ele>
        <time>2014-06-15T17:18:16Z</time>
      </trkpt>
      <trkpt lat="45.74196" lon="4.73321">
        <ele>242.39</ele>
        <time>2014-06-15T17:18:17Z</time>
      </trkpt>
      <trkpt lat="45.74194" lon="4.73317">
        <ele>242.39</ele>
        <time>2014-06-15T17:18:18Z</time>
      </trkpt>
      <trkpt lat="45.74177" lon="4.73276">
        <ele>242.87</ele>
        <time>2014-06-15T17:18:30Z</time>
      </trkpt>
      <trkpt lat="45.74171" lon="4.73263">
        <ele>240.95</ele>
        <time>2014-06-15T17:18:35Z</time>
      </trkpt>
      <trkpt lat="45.74169" lon="4.73258">
        <ele>240.47</ele>
        <time>2014-06-15T17:18:37Z</time>
      </trkpt>
      <trkpt lat="45.74169" lon="4.73256">
        <ele>240.95</ele>
        <time>2014-06-15T17:18:38Z</time>
      </trkpt>
      <trkpt lat="45.74167" lon="4.73238">
        <ele>241.91</ele>
        <time>2014-06-15T17:18:48Z</time>
      </trkpt>
      <trkpt lat="45.7416" lon="4.73224">
        <ele>242.39</ele>
        <time>2014-06-15T17:19:02Z</time>
      </trkpt>
      <trkpt lat="45.74149" lon="4.73219">
        <ele>244.31</ele>
        <time>2014-06-15T17:19:14Z</time>
      </trkpt>
      <trkpt lat="45.74141" lon="4.73209">
        <ele>245.75</ele>
        <time>2014-06-15T17:19:25Z</time>
      </trkpt>
      <trkpt lat="45.74141" lon="4.73209">
        <ele>245.75</ele>
        <time>2014-06-15T17:19:27Z</time>
      </trkpt>
      <trkpt lat="45.74139" lon="4.73205">
        <ele>245.75</ele>
        <time>2014-06-15T17:19:29Z</time>
      </trkpt>
      <trkpt lat="45.74126" lon="4.73191">
        <ele>245.75</ele>
        <time>2014-06-15T17:19:38Z</time>
      </trkpt>
      <trkpt lat="45.74114" lon="4.73177">
        <ele>248.16</ele>
        <time>2014-06-15T17:19:46Z</time>
      </trkpt>
      <trkpt lat="45.74107" lon="4.73174">
        <ele>246.23</ele>
        <time>2014-06-15T17:19:50Z</time>
      </trkpt>
      <trkpt lat="45.74104" lon="4.73173">
        <ele>245.75</ele>
        <time>2014-06-15T17:19:51Z</time>
      </trkpt>
      <trkpt lat="45.7409" lon="4.73164">
        <ele>243.83</ele>
        <time>2014-06-15T17:19:58Z</time>
      </trkpt>
      <trkpt lat="45.74073" lon="4.73164">
        <ele>242.87</ele>
        <time>2014-06-15T17:20:03Z</time>
      </trkpt>
      <trkpt lat="45.74059" lon="4.73161">
        <ele>242.87</ele>
        <time>2014-06-15T17:20:05Z</time>
      </trkpt>
      <trkpt lat="45.74047" lon="4.73161">
        <ele>242.39</ele>
        <time>2014-06-15T17:20:07Z</time>
      </trkpt>
      <trkpt lat="45.74027" lon="4.73175">
        <ele>242.87</ele>
        <time>2014-06-15T17:20:11Z</time>
      </trkpt>
      <trkpt lat="45.74021" lon="4.73177">
        <ele>242.39</ele>
        <time>2014-06-15T17:20:12Z</time>
      </trkpt>
      <trkpt lat="45.74014" lon="4.73182">
        <ele>241.91</ele>
        <time>2014-06-15T17:20:13Z</time>
      </trkpt>
      <trkpt lat="45.74007" lon="4.73188">
        <ele>240.95</ele>
        <time>2014-06-15T17:20:15Z</time>
      </trkpt>
      <trkpt lat="45.73977" lon="4.73206">
        <ele>240.95</ele>
        <time>2014-06-15T17:20:22Z</time>
      </trkpt>
      <trkpt lat="45.73959" lon="4.73223">
        <ele>241.43</ele>
        <time>2014-06-15T17:20:28Z</time>
      </trkpt>
      <trkpt lat="45.73938" lon="4.73257">
        <ele>241.43</ele>
        <time>2014-06-15T17:20:40Z</time>
      </trkpt>
      <trkpt lat="45.73911" lon="4.73278">
        <ele>241.43</ele>
        <time>2014-06-15T17:20:51Z</time>
      </trkpt>
      <trkpt lat="45.73887" lon="4.73279">
        <ele>239.99</ele>
        <time>2014-06-15T17:20:59Z</time>
      </trkpt>
      <trkpt lat="45.73882" lon="4.73278">
        <ele>242.39</ele>
        <time>2014-06-15T17:21:01Z</time>
      </trkpt>
      <trkpt lat="45.73847" lon="4.73245">
        <ele>242.87</ele>
        <time>2014-06-15T17:21:12Z</time>
      </trkpt>
      <trkpt lat="45.73811" lon="4.73204">
        <ele>243.83</ele>
        <time>2014-06-15T17:21:24Z</time>
      </trkpt>
      <trkpt lat="45.73808" lon="4.73164">
        <ele>243.83</ele>
        <time>2014-06-15T17:21:31Z</time>
      </trkpt>
      <trkpt lat="45.73808" lon="4.73156">
        <ele>243.83</ele>
        <time>2014-06-15T17:21:32Z</time>
      </trkpt>
      <trkpt lat="45.73808" lon="4.73149">
        <ele>243.83</ele>
        <time>2014-06-15T17:21:33Z</time>
      </trkpt>
      <trkpt lat="45.73808" lon="4.73137">
        <ele>244.31</ele>
        <time>2014-06-15T17:21:35Z</time>
      </trkpt>
      <trkpt lat="45.73799" lon="4.73056">
        <ele>245.75</ele>
        <time>2014-06-15T17:21:49Z</time>
      </trkpt>
      <trkpt lat="45.73799" lon="4.73006">
        <ele>246.23</ele>
        <time>2014-06-15T17:21:58Z</time>
      </trkpt>
      <trkpt lat="45.73799" lon="4.73">
        <ele>246.23</ele>
        <time>2014-06-15T17:21:59Z</time>
      </trkpt>
      <trkpt lat="45.738" lon="4.72982">
        <ele>246.23</ele>
        <time>2014-06-15T17:22:02Z</time>
      </trkpt>
      <trkpt lat="45.73804" lon="4.72923">
        <ele>246.23</ele>
        <time>2014-06-15T17:22:13Z</time>
      </trkpt>
      <trkpt lat="45.73809" lon="4.72871">
        <ele>246.23</ele>
        <time>2014-06-15T17:22:23Z</time>
      </trkpt>
      <trkpt lat="45.73809" lon="4.72864">
        <ele>246.72</ele>
        <time>2014-06-15T17:22:24Z</time>
      </trkpt>
      <trkpt lat="45.7381" lon="4.72857">
        <ele>246.23</ele>
        <time>2014-06-15T17:22:25Z</time>
      </trkpt>
      <trkpt lat="45.73811" lon="4.72851">
        <ele>246.23</ele>
        <time>2014-06-15T17:22:26Z</time>
      </trkpt>
      <trkpt lat="45.73812" lon="4.72845">
        <ele>246.23</ele>
        <time>2014-06-15T17:22:27Z</time>
      </trkpt>
      <trkpt lat="45.73813" lon="4.72839">
        <ele>246.72</ele>
        <time>2014-06-15T17:22:28Z</time>
      </trkpt>
      <trkpt lat="45.73814" lon="4.72827">
        <ele>246.23</ele>
        <time>2014-06-15T17:22:30Z</time>
      </trkpt>
      <trkpt lat="45.73814" lon="4.72821">
        <ele>246.23</ele>
        <time>2014-06-15T17:22:31Z</time>
      </trkpt>
      <trkpt lat="45.73811" lon="4.72803">
        <ele>245.27</ele>
        <time>2014-06-15T17:22:34Z</time>
      </trkpt>
      <trkpt lat="45.73803" lon="4.72762">
        <ele>245.75</ele>
        <time>2014-06-15T17:22:42Z</time>
      </trkpt>
      <trkpt lat="45.73804" lon="4.72759">
        <ele>245.75</ele>
        <time>2014-06-15T17:22:43Z</time>
      </trkpt>
      <trkpt lat="45.73804" lon="4.72754">
        <ele>246.23</ele>
        <time>2014-06-15T17:22:45Z</time>
      </trkpt>
      <trkpt lat="45.73803" lon="4.7275">
        <ele>245.75</ele>
        <time>2014-06-15T17:23:18Z</time>
      </trkpt>
      <trkpt lat="45.73795" lon="4.72756">
        <ele>246.23</ele>
        <time>2014-06-15T17:23:31Z</time>
      </trkpt>
      <trkpt lat="45.73792" lon="4.72758">
        <ele>246.23</ele>
        <time>2014-06-15T17:23:49Z</time>
      </trkpt>
      <trkpt lat="45.73792" lon="4.72758">
        <ele>246.23</ele>
        <time>2014-06-15T17:23:50Z</time>
      </trkpt>
      <trkpt lat="45.73779" lon="4.7276">
        <ele>245.27</ele>
        <time>2014-06-15T17:23:56Z</time>
      </trkpt>
      <trkpt lat="45.73753" lon="4.72753">
        <ele>247.68</ele>
        <time>2014-06-15T17:24:07Z</time>
      </trkpt>
      <trkpt lat="45.73724" lon="4.72746">
        <ele>250.56</ele>
        <time>2014-06-15T17:24:18Z</time>
      </trkpt>
      <trkpt lat="45.73714" lon="4.72748">
        <ele>252.48</ele>
        <time>2014-06-15T17:24:24Z</time>
      </trkpt>
      <trkpt lat="45.73697" lon="4.72756">
        <ele>254.89</ele>
        <time>2014-06-15T17:24:36Z</time>
      </trkpt>
      <trkpt lat="45.73687" lon="4.72761">
        <ele>256.33</ele>
        <time>2014-06-15T17:24:43Z</time>
      </trkpt>
      <trkpt lat="45.73679" lon="4.72763">
        <ele>257.29</ele>
        <time>2014-06-15T17:24:47Z</time>
      </trkpt>
      <trkpt lat="45.73671" lon="4.72759">
        <ele>256.81</ele>
        <time>2014-06-15T17:24:51Z</time>
      </trkpt>
      <trkpt lat="45.7364" lon="4.72762">
        <ele>253.44</ele>
        <time>2014-06-15T17:25:00Z</time>
      </trkpt>
      <trkpt lat="45.73597" lon="4.72749">
        <ele>252</ele>
        <time>2014-06-15T17:25:10Z</time>
      </trkpt>
      <trkpt lat="45.73558" lon="4.72719">
        <ele>250.56</ele>
        <time>2014-06-15T17:25:21Z</time>
      </trkpt>
      <trkpt lat="45.73553" lon="4.72715">
        <ele>250.56</ele>
        <time>2014-06-15T17:25:22Z</time>
      </trkpt>
      <trkpt lat="45.73547" lon="4.72712">
        <ele>250.56</ele>
        <time>2014-06-15T17:25:23Z</time>
      </trkpt>
      <trkpt lat="45.73536" lon="4.72704">
        <ele>251.04</ele>
        <time>2014-06-15T17:25:25Z</time>
      </trkpt>
      <trkpt lat="45.73532" lon="4.727">
        <ele>250.56</ele>
        <time>2014-06-15T17:25:26Z</time>
      </trkpt>
      <trkpt lat="45.73503" lon="4.72667">
        <ele>250.56</ele>
        <time>2014-06-15T17:25:34Z</time>
      </trkpt>
      <trkpt lat="45.735" lon="4.72663">
        <ele>250.08</ele>
        <time>2014-06-15T17:25:35Z</time>
      </trkpt>
      <trkpt lat="45.7349" lon="4.72649">
        <ele>250.56</ele>
        <time>2014-06-15T17:25:38Z</time>
      </trkpt>
      <trkpt lat="45.73488" lon="4.72645">
        <ele>250.56</ele>
        <time>2014-06-15T17:25:39Z</time>
      </trkpt>
      <trkpt lat="45.73485" lon="4.72643">
        <ele>251.04</ele>
        <time>2014-06-15T17:25:40Z</time>
      </trkpt>
      <trkpt lat="45.73482" lon="4.7264">
        <ele>251.04</ele>
        <time>2014-06-15T17:25:41Z</time>
      </trkpt>
      <trkpt lat="45.73478" lon="4.72638">
        <ele>250.56</ele>
        <time>2014-06-15T17:25:42Z</time>
      </trkpt>
      <trkpt lat="45.73474" lon="4.72637">
        <ele>250.56</ele>
        <time>2014-06-15T17:25:43Z</time>
      </trkpt>
      <trkpt lat="45.73471" lon="4.72634">
        <ele>250.56</ele>
        <time>2014-06-15T17:25:44Z</time>
      </trkpt>
      <trkpt lat="45.73433" lon="4.72619">
        <ele>250.56</ele>
        <time>2014-06-15T17:25:55Z</time>
      </trkpt>
      <trkpt lat="45.73388" lon="4.72616">
        <ele>252</ele>
        <time>2014-06-15T17:26:08Z</time>
      </trkpt>
      <trkpt lat="45.73372" lon="4.72622">
        <ele>253.44</ele>
        <time>2014-06-15T17:26:18Z</time>
      </trkpt>
      <trkpt lat="45.73371" lon="4.72622">
        <ele>253.44</ele>
        <time>2014-06-15T17:26:28Z</time>
      </trkpt>
      <trkpt lat="45.7337" lon="4.7262">
        <ele>253.44</ele>
        <time>2014-06-15T17:26:29Z</time>
      </trkpt>
      <trkpt lat="45.73369" lon="4.72618">
        <ele>252.96</ele>
        <time>2014-06-15T17:26:30Z</time>
      </trkpt>
      <trkpt lat="45.73368" lon="4.72615">
        <ele>252.96</ele>
        <time>2014-06-15T17:26:31Z</time>
      </trkpt>
      <trkpt lat="45.73366" lon="4.72613">
        <ele>252.48</ele>
        <time>2014-06-15T17:26:32Z</time>
      </trkpt>
      <trkpt lat="45.73364" lon="4.72611">
        <ele>252.48</ele>
        <time>2014-06-15T17:26:33Z</time>
      </trkpt>
      <trkpt lat="45.73363" lon="4.72608">
        <ele>252.48</ele>
        <time>2014-06-15T17:26:34Z</time>
      </trkpt>
      <trkpt lat="45.73361" lon="4.72605">
        <ele>252</ele>
        <time>2014-06-15T17:26:35Z</time>
      </trkpt>
      <trkpt lat="45.7336" lon="4.72601">
        <ele>252</ele>
        <time>2014-06-15T17:26:36Z</time>
      </trkpt>
      <trkpt lat="45.73358" lon="4.72597">
        <ele>252</ele>
        <time>2014-06-15T17:26:37Z</time>
      </trkpt>
      <trkpt lat="45.73355" lon="4.72594">
        <ele>252</ele>
        <time>2014-06-15T17:26:38Z</time>
      </trkpt>
      <trkpt lat="45.73349" lon="4.72586">
        <ele>252</ele>
        <time>2014-06-15T17:26:42Z</time>
      </trkpt>
      <trkpt lat="45.73349" lon="4.72585">
        <ele>252</ele>
        <time>2014-06-15T17:26:43Z</time>
      </trkpt>
      <trkpt lat="45.73348" lon="4.72582">
        <ele>251.52</ele>
        <time>2014-06-15T17:26:44Z</time>
      </trkpt>
      <trkpt lat="45.73344" lon="4.72568">
        <ele>251.04</ele>
        <time>2014-06-15T17:26:51Z</time>
      </trkpt>
      <trkpt lat="45.73349" lon="4.72547">
        <ele>251.52</ele>
        <time>2014-06-15T17:27:03Z</time>
      </trkpt>
      <trkpt lat="45.7334" lon="4.72534">
        <ele>252.96</ele>
        <time>2014-06-15T17:27:16Z</time>
      </trkpt>
      <trkpt lat="45.73331" lon="4.72518">
        <ele>255.85</ele>
        <time>2014-06-15T17:27:27Z</time>
      </trkpt>
      <trkpt lat="45.73326" lon="4.72508">
        <ele>258.73</ele>
        <time>2014-06-15T17:27:32Z</time>
      </trkpt>
      <trkpt lat="45.73318" lon="4.72495">
        <ele>260.65</ele>
        <time>2014-06-15T17:27:38Z</time>
      </trkpt>
      <trkpt lat="45.73316" lon="4.72493">
        <ele>261.14</ele>
        <time>2014-06-15T17:27:39Z</time>
      </trkpt>
      <trkpt lat="45.73314" lon="4.7249">
        <ele>261.14</ele>
        <time>2014-06-15T17:27:40Z</time>
      </trkpt>
      <trkpt lat="45.7329" lon="4.72466">
        <ele>263.54</ele>
        <time>2014-06-15T17:27:51Z</time>
      </trkpt>
      <trkpt lat="45.73268" lon="4.72446">
        <ele>264.98</ele>
        <time>2014-06-15T17:28:04Z</time>
      </trkpt>
      <trkpt lat="45.73247" lon="4.72442">
        <ele>266.42</ele>
        <time>2014-06-15T17:28:16Z</time>
      </trkpt>
      <trkpt lat="45.73236" lon="4.7244">
        <ele>267.38</ele>
        <time>2014-06-15T17:28:21Z</time>
      </trkpt>
      <trkpt lat="45.73234" lon="4.72438">
        <ele>267.38</ele>
        <time>2014-06-15T17:28:22Z</time>
      </trkpt>
      <trkpt lat="45.73208" lon="4.72423">
        <ele>268.83</ele>
        <time>2014-06-15T17:28:33Z</time>
      </trkpt>
      <trkpt lat="45.73182" lon="4.72404">
        <ele>269.31</ele>
        <time>2014-06-15T17:28:44Z</time>
      </trkpt>
      <trkpt lat="45.73172" lon="4.72396">
        <ele>269.79</ele>
        <time>2014-06-15T17:28:48Z</time>
      </trkpt>
      <trkpt lat="45.7317" lon="4.72395">
        <ele>269.79</ele>
        <time>2014-06-15T17:28:49Z</time>
      </trkpt>
      <trkpt lat="45.73168" lon="4.72393">
        <ele>269.79</ele>
        <time>2014-06-15T17:28:50Z</time>
      </trkpt>
      <trkpt lat="45.73161" lon="4.72389">
        <ele>270.75</ele>
        <time>2014-06-15T17:29:02Z</time>
      </trkpt>
      <trkpt lat="45.73158" lon="4.72385">
        <ele>270.75</ele>
        <time>2014-06-15T17:29:13Z</time>
      </trkpt>
      <trkpt lat="45.73156" lon="4.72383">
        <ele>270.75</ele>
        <time>2014-06-15T17:29:14Z</time>
      </trkpt>
      <trkpt lat="45.73153" lon="4.72382">
        <ele>270.75</ele>
        <time>2014-06-15T17:29:15Z</time>
      </trkpt>
      <trkpt lat="45.73151" lon="4.72381">
        <ele>270.75</ele>
        <time>2014-06-15T17:29:16Z</time>
      </trkpt>
      <trkpt lat="45.73149" lon="4.72379">
        <ele>271.23</ele>
        <time>2014-06-15T17:29:17Z</time>
      </trkpt>
      <trkpt lat="45.73124" lon="4.72358">
        <ele>272.19</ele>
        <time>2014-06-15T17:29:30Z</time>
      </trkpt>
      <trkpt lat="45.73107" lon="4.72338">
        <ele>273.63</ele>
        <time>2014-06-15T17:29:40Z</time>
      </trkpt>
      <trkpt lat="45.73105" lon="4.72336">
        <ele>274.11</ele>
        <time>2014-06-15T17:29:41Z</time>
      </trkpt>
      <trkpt lat="45.73104" lon="4.72335">
        <ele>274.11</ele>
        <time>2014-06-15T17:29:42Z</time>
      </trkpt>
      <trkpt lat="45.731" lon="4.72331">
        <ele>274.59</ele>
        <time>2014-06-15T17:29:45Z</time>
      </trkpt>
      <trkpt lat="45.73098" lon="4.7233">
        <ele>275.07</ele>
        <time>2014-06-15T17:29:46Z</time>
      </trkpt>
      <trkpt lat="45.73097" lon="4.72328">
        <ele>275.56</ele>
        <time>2014-06-15T17:29:47Z</time>
      </trkpt>
      <trkpt lat="45.73095" lon="4.72328">
        <ele>276.04</ele>
        <time>2014-06-15T17:29:48Z</time>
      </trkpt>
      <trkpt lat="45.73093" lon="4.72326">
        <ele>276.04</ele>
        <time>2014-06-15T17:29:49Z</time>
      </trkpt>
      <trkpt lat="45.73092" lon="4.72325">
        <ele>277</ele>
        <time>2014-06-15T17:29:50Z</time>
      </trkpt>
      <trkpt lat="45.73091" lon="4.72324">
        <ele>277.48</ele>
        <time>2014-06-15T17:29:51Z</time>
      </trkpt>
      <trkpt lat="45.7309" lon="4.72323">
        <ele>277.48</ele>
        <time>2014-06-15T17:29:52Z</time>
      </trkpt>
      <trkpt lat="45.73087" lon="4.72321">
        <ele>277.96</ele>
        <time>2014-06-15T17:29:53Z</time>
      </trkpt>
      <trkpt lat="45.73086" lon="4.7232">
        <ele>277.96</ele>
        <time>2014-06-15T17:29:54Z</time>
      </trkpt>
      <trkpt lat="45.73084" lon="4.72319">
        <ele>278.44</ele>
        <time>2014-06-15T17:29:55Z</time>
      </trkpt>
      <trkpt lat="45.73082" lon="4.72318">
        <ele>278.92</ele>
        <time>2014-06-15T17:29:56Z</time>
      </trkpt>
      <trkpt lat="45.7308" lon="4.72317">
        <ele>279.4</ele>
        <time>2014-06-15T17:29:57Z</time>
      </trkpt>
      <trkpt lat="45.73078" lon="4.72315">
        <ele>279.4</ele>
        <time>2014-06-15T17:29:59Z</time>
      </trkpt>
      <trkpt lat="45.73076" lon="4.72313">
        <ele>279.88</ele>
        <time>2014-06-15T17:30:01Z</time>
      </trkpt>
      <trkpt lat="45.73055" lon="4.72295">
        <ele>282.77</ele>
        <time>2014-06-15T17:30:13Z</time>
      </trkpt>
      <trkpt lat="45.73044" lon="4.72284">
        <ele>284.69</ele>
        <time>2014-06-15T17:30:20Z</time>
      </trkpt>
      <trkpt lat="45.73042" lon="4.72282">
        <ele>284.69</ele>
        <time>2014-06-15T17:30:21Z</time>
      </trkpt>
      <trkpt lat="45.73017" lon="4.72256">
        <ele>285.65</ele>
        <time>2014-06-15T17:30:36Z</time>
      </trkpt>
      <trkpt lat="45.7298" lon="4.72232">
        <ele>283.73</ele>
        <time>2014-06-15T17:30:48Z</time>
      </trkpt>
      <trkpt lat="45.72961" lon="4.72221">
        <ele>283.73</ele>
        <time>2014-06-15T17:30:53Z</time>
      </trkpt>
      <trkpt lat="45.72899" lon="4.72194">
        <ele>283.25</ele>
        <time>2014-06-15T17:31:08Z</time>
      </trkpt>
      <trkpt lat="45.72846" lon="4.72163">
        <ele>284.69</ele>
        <time>2014-06-15T17:31:23Z</time>
      </trkpt>
      <trkpt lat="45.72802" lon="4.72124">
        <ele>287.09</ele>
        <time>2014-06-15T17:31:38Z</time>
      </trkpt>
      <trkpt lat="45.72774" lon="4.721">
        <ele>288.53</ele>
        <time>2014-06-15T17:31:49Z</time>
      </trkpt>
      <trkpt lat="45.72736" lon="4.72071">
        <ele>289.01</ele>
        <time>2014-06-15T17:32:02Z</time>
      </trkpt>
      <trkpt lat="45.72703" lon="4.72042">
        <ele>289.97</ele>
        <time>2014-06-15T17:32:14Z</time>
      </trkpt>
      <trkpt lat="45.72699" lon="4.72037">
        <ele>290.46</ele>
        <time>2014-06-15T17:32:17Z</time>
      </trkpt>
      <trkpt lat="45.72698" lon="4.72036">
        <ele>290.46</ele>
        <time>2014-06-15T17:32:18Z</time>
      </trkpt>
      <trkpt lat="45.72698" lon="4.72035">
        <ele>290.46</ele>
        <time>2014-06-15T17:32:19Z</time>
      </trkpt>
      <trkpt lat="45.72698" lon="4.72033">
        <ele>290.46</ele>
        <time>2014-06-15T17:32:20Z</time>
      </trkpt>
      <trkpt lat="45.72698" lon="4.7203">
        <ele>290.94</ele>
        <time>2014-06-15T17:32:21Z</time>
      </trkpt>
      <trkpt lat="45.72697" lon="4.72027">
        <ele>290.94</ele>
        <time>2014-06-15T17:32:22Z</time>
      </trkpt>
      <trkpt lat="45.72697" lon="4.72025">
        <ele>290.94</ele>
        <time>2014-06-15T17:32:23Z</time>
      </trkpt>
      <trkpt lat="45.72696" lon="4.72022">
        <ele>290.94</ele>
        <time>2014-06-15T17:32:24Z</time>
      </trkpt>
      <trkpt lat="45.72696" lon="4.72019">
        <ele>291.42</ele>
        <time>2014-06-15T17:32:25Z</time>
      </trkpt>
      <trkpt lat="45.72696" lon="4.72017">
        <ele>291.42</ele>
        <time>2014-06-15T17:32:26Z</time>
      </trkpt>
      <trkpt lat="45.72696" lon="4.72015">
        <ele>290.94</ele>
        <time>2014-06-15T17:32:27Z</time>
      </trkpt>
      <trkpt lat="45.72696" lon="4.72014">
        <ele>290.94</ele>
        <time>2014-06-15T17:32:28Z</time>
      </trkpt>
      <trkpt lat="45.72695" lon="4.72012">
        <ele>291.42</ele>
        <time>2014-06-15T17:32:29Z</time>
      </trkpt>
      <trkpt lat="45.72692" lon="4.72009">
        <ele>290.94</ele>
        <time>2014-06-15T17:32:31Z</time>
      </trkpt>
      <trkpt lat="45.72691" lon="4.72007">
        <ele>290.94</ele>
        <time>2014-06-15T17:32:32Z</time>
      </trkpt>
      <trkpt lat="45.7269" lon="4.72003">
        <ele>290.94</ele>
        <time>2014-06-15T17:32:33Z</time>
      </trkpt>
      <trkpt lat="45.7268" lon="4.71965">
        <ele>291.42</ele>
        <time>2014-06-15T17:32:45Z</time>
      </trkpt>
      <trkpt lat="45.72679" lon="4.71957">
        <ele>292.38</ele>
        <time>2014-06-15T17:32:56Z</time>
      </trkpt>
      <trkpt lat="45.7268" lon="4.71957">
        <ele>291.42</ele>
        <time>2014-06-15T17:33:23Z</time>
      </trkpt>
      <trkpt lat="45.72681" lon="4.71957">
        <ele>290.46</ele>
        <time>2014-06-15T17:33:48Z</time>
      </trkpt>
      <trkpt lat="45.72672" lon="4.71865">
        <ele>291.9</ele>
        <time>2014-06-15T17:34:17Z</time>
      </trkpt>
      <trkpt lat="45.72667" lon="4.71797">
        <ele>289.01</ele>
        <time>2014-06-15T17:34:32Z</time>
      </trkpt>
      <trkpt lat="45.72666" lon="4.71751">
        <ele>289.01</ele>
        <time>2014-06-15T17:34:47Z</time>
      </trkpt>
      <trkpt lat="45.72667" lon="4.71741">
        <ele>289.49</ele>
        <time>2014-06-15T17:34:50Z</time>
      </trkpt>
      <trkpt lat="45.72667" lon="4.71737">
        <ele>289.97</ele>
        <time>2014-06-15T17:34:51Z</time>
      </trkpt>
      <trkpt lat="45.72678" lon="4.71672">
        <ele>288.05</ele>
        <time>2014-06-15T17:35:04Z</time>
      </trkpt>
      <trkpt lat="45.72687" lon="4.71576">
        <ele>285.65</ele>
        <time>2014-06-15T17:35:17Z</time>
      </trkpt>
      <trkpt lat="45.72691" lon="4.71544">
        <ele>284.21</ele>
        <time>2014-06-15T17:35:21Z</time>
      </trkpt>
      <trkpt lat="45.72692" lon="4.71536">
        <ele>283.73</ele>
        <time>2014-06-15T17:35:22Z</time>
      </trkpt>
      <trkpt lat="45.72707" lon="4.71429">
        <ele>280.84</ele>
        <time>2014-06-15T17:35:34Z</time>
      </trkpt>
      <trkpt lat="45.72712" lon="4.71383">
        <ele>279.88</ele>
        <time>2014-06-15T17:35:39Z</time>
      </trkpt>
      <trkpt lat="45.72709" lon="4.7132">
        <ele>279.88</ele>
        <time>2014-06-15T17:35:46Z</time>
      </trkpt>
      <trkpt lat="45.72707" lon="4.71305">
        <ele>280.36</ele>
        <time>2014-06-15T17:35:48Z</time>
      </trkpt>
      <trkpt lat="45.72707" lon="4.71286">
        <ele>280.36</ele>
        <time>2014-06-15T17:35:51Z</time>
      </trkpt>
      <trkpt lat="45.72708" lon="4.71251">
        <ele>279.88</ele>
        <time>2014-06-15T17:35:57Z</time>
      </trkpt>
      <trkpt lat="45.72708" lon="4.71245">
        <ele>280.84</ele>
        <time>2014-06-15T17:35:58Z</time>
      </trkpt>
      <trkpt lat="45.72708" lon="4.7124">
        <ele>280.84</ele>
        <time>2014-06-15T17:35:59Z</time>
      </trkpt>
      <trkpt lat="45.72709" lon="4.71235">
        <ele>281.8</ele>
        <time>2014-06-15T17:36:00Z</time>
      </trkpt>
      <trkpt lat="45.7271" lon="4.7123">
        <ele>282.28</ele>
        <time>2014-06-15T17:36:01Z</time>
      </trkpt>
      <trkpt lat="45.72716" lon="4.71177">
        <ele>282.77</ele>
        <time>2014-06-15T17:36:13Z</time>
      </trkpt>
      <trkpt lat="45.72721" lon="4.71135">
        <ele>283.73</ele>
        <time>2014-06-15T17:36:23Z</time>
      </trkpt>
      <trkpt lat="45.72729" lon="4.71076">
        <ele>286.13</ele>
        <time>2014-06-15T17:36:35Z</time>
      </trkpt>
      <trkpt lat="45.7273" lon="4.71036">
        <ele>285.65</ele>
        <time>2014-06-15T17:36:42Z</time>
      </trkpt>
      <trkpt lat="45.7273" lon="4.71024">
        <ele>286.13</ele>
        <time>2014-06-15T17:36:44Z</time>
      </trkpt>
      <trkpt lat="45.7273" lon="4.71018">
        <ele>286.13</ele>
        <time>2014-06-15T17:36:45Z</time>
      </trkpt>
      <trkpt lat="45.7273" lon="4.71013">
        <ele>286.61</ele>
        <time>2014-06-15T17:36:46Z</time>
      </trkpt>
      <trkpt lat="45.72729" lon="4.71007">
        <ele>286.61</ele>
        <time>2014-06-15T17:36:47Z</time>
      </trkpt>
      <trkpt lat="45.72729" lon="4.71001">
        <ele>286.61</ele>
        <time>2014-06-15T17:36:48Z</time>
      </trkpt>
      <trkpt lat="45.72729" lon="4.70975">
        <ele>286.13</ele>
        <time>2014-06-15T17:36:52Z</time>
      </trkpt>
      <trkpt lat="45.72729" lon="4.70969">
        <ele>285.65</ele>
        <time>2014-06-15T17:36:53Z</time>
      </trkpt>
      <trkpt lat="45.72732" lon="4.70934">
        <ele>285.65</ele>
        <time>2014-06-15T17:36:58Z</time>
      </trkpt>
      <trkpt lat="45.72743" lon="4.70849">
        <ele>285.65</ele>
        <time>2014-06-15T17:37:12Z</time>
      </trkpt>
      <trkpt lat="45.72744" lon="4.70834">
        <ele>286.13</ele>
        <time>2014-06-15T17:37:17Z</time>
      </trkpt>
      <trkpt lat="45.72743" lon="4.70833">
        <ele>286.13</ele>
        <time>2014-06-15T17:37:18Z</time>
      </trkpt>
      <trkpt lat="45.72737" lon="4.70829">
        <ele>285.65</ele>
        <time>2014-06-15T17:37:21Z</time>
      </trkpt>
      <trkpt lat="45.72735" lon="4.70827">
        <ele>286.13</ele>
        <time>2014-06-15T17:37:22Z</time>
      </trkpt>
      <trkpt lat="45.72732" lon="4.70824">
        <ele>285.65</ele>
        <time>2014-06-15T17:37:23Z</time>
      </trkpt>
      <trkpt lat="45.72722" lon="4.70816">
        <ele>285.65</ele>
        <time>2014-06-15T17:37:26Z</time>
      </trkpt>
      <trkpt lat="45.72718" lon="4.70812">
        <ele>285.65</ele>
        <time>2014-06-15T17:37:27Z</time>
      </trkpt>
      <trkpt lat="45.72676" lon="4.70771">
        <ele>285.65</ele>
        <time>2014-06-15T17:37:39Z</time>
      </trkpt>
      <trkpt lat="45.72637" lon="4.70731">
        <ele>287.09</ele>
        <time>2014-06-15T17:37:51Z</time>
      </trkpt>
      <trkpt lat="45.72609" lon="4.70719">
        <ele>288.53</ele>
        <time>2014-06-15T17:38:02Z</time>
      </trkpt>
      <trkpt lat="45.72607" lon="4.70722">
        <ele>288.53</ele>
        <time>2014-06-15T17:38:03Z</time>
      </trkpt>
      <trkpt lat="45.72606" lon="4.70724">
        <ele>289.01</ele>
        <time>2014-06-15T17:38:04Z</time>
      </trkpt>
      <trkpt lat="45.72604" lon="4.70727">
        <ele>289.01</ele>
        <time>2014-06-15T17:38:05Z</time>
      </trkpt>
      <trkpt lat="45.726" lon="4.7073">
        <ele>289.01</ele>
        <time>2014-06-15T17:38:06Z</time>
      </trkpt>
      <trkpt lat="45.72597" lon="4.70732">
        <ele>289.01</ele>
        <time>2014-06-15T17:38:07Z</time>
      </trkpt>
      <trkpt lat="45.72594" lon="4.70734">
        <ele>289.49</ele>
        <time>2014-06-15T17:38:08Z</time>
      </trkpt>
      <trkpt lat="45.72591" lon="4.70736">
        <ele>289.97</ele>
        <time>2014-06-15T17:38:09Z</time>
      </trkpt>
      <trkpt lat="45.72589" lon="4.70738">
        <ele>289.97</ele>
        <time>2014-06-15T17:38:10Z</time>
      </trkpt>
      <trkpt lat="45.72578" lon="4.70747">
        <ele>290.46</ele>
        <time>2014-06-15T17:38:15Z</time>
      </trkpt>
      <trkpt lat="45.72575" lon="4.70747">
        <ele>290.46</ele>
        <time>2014-06-15T17:38:16Z</time>
      </trkpt>
      <trkpt lat="45.72573" lon="4.70747">
        <ele>290.46</ele>
        <time>2014-06-15T17:38:17Z</time>
      </trkpt>
      <trkpt lat="45.72572" lon="4.70746">
        <ele>290.94</ele>
        <time>2014-06-15T17:38:18Z</time>
      </trkpt>
      <trkpt lat="45.72571" lon="4.70744">
        <ele>290.46</ele>
        <time>2014-06-15T17:38:19Z</time>
      </trkpt>
      <trkpt lat="45.72569" lon="4.70742">
        <ele>290.46</ele>
        <time>2014-06-15T17:38:20Z</time>
      </trkpt>
      <trkpt lat="45.72568" lon="4.70739">
        <ele>289.97</ele>
        <time>2014-06-15T17:38:21Z</time>
      </trkpt>
      <trkpt lat="45.72565" lon="4.70736">
        <ele>290.46</ele>
        <time>2014-06-15T17:38:34Z</time>
      </trkpt>
      <trkpt lat="45.72563" lon="4.70733">
        <ele>290.46</ele>
        <time>2014-06-15T17:38:51Z</time>
      </trkpt>
      <trkpt lat="45.72563" lon="4.70731">
        <ele>290.46</ele>
        <time>2014-06-15T17:38:52Z</time>
      </trkpt>
      <trkpt lat="45.72562" lon="4.70728">
        <ele>290.46</ele>
        <time>2014-06-15T17:38:53Z</time>
      </trkpt>
      <trkpt lat="45.7256" lon="4.70725">
        <ele>290.46</ele>
        <time>2014-06-15T17:38:54Z</time>
      </trkpt>
      <trkpt lat="45.72559" lon="4.70721">
        <ele>290.46</ele>
        <time>2014-06-15T17:38:55Z</time>
      </trkpt>
      <trkpt lat="45.72557" lon="4.70718">
        <ele>290.46</ele>
        <time>2014-06-15T17:38:56Z</time>
      </trkpt>
      <trkpt lat="45.72555" lon="4.70714">
        <ele>290.46</ele>
        <time>2014-06-15T17:38:57Z</time>
      </trkpt>
      <trkpt lat="45.72554" lon="4.7071">
        <ele>290.46</ele>
        <time>2014-06-15T17:38:58Z</time>
      </trkpt>
      <trkpt lat="45.72552" lon="4.70705">
        <ele>290.46</ele>
        <time>2014-06-15T17:38:59Z</time>
      </trkpt>
      <trkpt lat="45.72514" lon="4.70674">
        <ele>290.94</ele>
        <time>2014-06-15T17:39:10Z</time>
      </trkpt>
      <trkpt lat="45.72503" lon="4.70662">
        <ele>290.46</ele>
        <time>2014-06-15T17:39:15Z</time>
      </trkpt>
      <trkpt lat="45.72502" lon="4.70662">
        <ele>290.94</ele>
        <time>2014-06-15T17:39:16Z</time>
      </trkpt>
      <trkpt lat="45.72499" lon="4.70662">
        <ele>290.46</ele>
        <time>2014-06-15T17:39:17Z</time>
      </trkpt>
      <trkpt lat="45.72497" lon="4.70663">
        <ele>290.46</ele>
        <time>2014-06-15T17:39:18Z</time>
      </trkpt>
      <trkpt lat="45.72494" lon="4.70665">
        <ele>290.46</ele>
        <time>2014-06-15T17:39:19Z</time>
      </trkpt>
      <trkpt lat="45.72491" lon="4.70667">
        <ele>290.46</ele>
        <time>2014-06-15T17:39:20Z</time>
      </trkpt>
      <trkpt lat="45.72489" lon="4.70668">
        <ele>290.46</ele>
        <time>2014-06-15T17:39:21Z</time>
      </trkpt>
      <trkpt lat="45.72486" lon="4.7067">
        <ele>290.46</ele>
        <time>2014-06-15T17:39:22Z</time>
      </trkpt>
      <trkpt lat="45.72482" lon="4.70671">
        <ele>290.46</ele>
        <time>2014-06-15T17:39:23Z</time>
      </trkpt>
      <trkpt lat="45.72479" lon="4.70673">
        <ele>290.46</ele>
        <time>2014-06-15T17:39:24Z</time>
      </trkpt>
      <trkpt lat="45.72476" lon="4.70675">
        <ele>290.46</ele>
        <time>2014-06-15T17:39:25Z</time>
      </trkpt>
      <trkpt lat="45.72457" lon="4.70686">
        <ele>290.46</ele>
        <time>2014-06-15T17:39:32Z</time>
      </trkpt>
      <trkpt lat="45.72455" lon="4.70685">
        <ele>290.46</ele>
        <time>2014-06-15T17:39:33Z</time>
      </trkpt>
      <trkpt lat="45.72429" lon="4.70677">
        <ele>291.42</ele>
        <time>2014-06-15T17:39:42Z</time>
      </trkpt>
      <trkpt lat="45.72392" lon="4.70676">
        <ele>291.42</ele>
        <time>2014-06-15T17:39:51Z</time>
      </trkpt>
      <trkpt lat="45.72379" lon="4.70671">
        <ele>291.42</ele>
        <time>2014-06-15T17:39:54Z</time>
      </trkpt>
      <trkpt lat="45.72375" lon="4.70669">
        <ele>291.42</ele>
        <time>2014-06-15T17:39:55Z</time>
      </trkpt>
      <trkpt lat="45.72367" lon="4.70662">
        <ele>291.42</ele>
        <time>2014-06-15T17:39:57Z</time>
      </trkpt>
      <trkpt lat="45.72337" lon="4.70622">
        <ele>290.94</ele>
        <time>2014-06-15T17:40:05Z</time>
      </trkpt>
      <trkpt lat="45.72332" lon="4.7061">
        <ele>290.94</ele>
        <time>2014-06-15T17:40:07Z</time>
      </trkpt>
      <trkpt lat="45.7233" lon="4.70603">
        <ele>290.94</ele>
        <time>2014-06-15T17:40:08Z</time>
      </trkpt>
      <trkpt lat="45.72318" lon="4.70532">
        <ele>292.38</ele>
        <time>2014-06-15T17:40:20Z</time>
      </trkpt>
      <trkpt lat="45.72316" lon="4.70529">
        <ele>292.38</ele>
        <time>2014-06-15T17:40:21Z</time>
      </trkpt>
      <trkpt lat="45.72313" lon="4.70528">
        <ele>292.38</ele>
        <time>2014-06-15T17:40:22Z</time>
      </trkpt>
      <trkpt lat="45.72311" lon="4.70527">
        <ele>292.86</ele>
        <time>2014-06-15T17:40:23Z</time>
      </trkpt>
      <trkpt lat="45.72307" lon="4.70525">
        <ele>292.86</ele>
        <time>2014-06-15T17:40:24Z</time>
      </trkpt>
      <trkpt lat="45.72304" lon="4.70523">
        <ele>292.86</ele>
        <time>2014-06-15T17:40:25Z</time>
      </trkpt>
      <trkpt lat="45.723" lon="4.70521">
        <ele>292.86</ele>
        <time>2014-06-15T17:40:26Z</time>
      </trkpt>
      <trkpt lat="45.72263" lon="4.70493">
        <ele>289.01</ele>
        <time>2014-06-15T17:40:38Z</time>
      </trkpt>
      <trkpt lat="45.72261" lon="4.70491">
        <ele>296.22</ele>
        <time>2014-06-15T17:40:39Z</time>
      </trkpt>
      <trkpt lat="45.72258" lon="4.70489">
        <ele>288.53</ele>
        <time>2014-06-15T17:40:40Z</time>
      </trkpt>
      <trkpt lat="45.72256" lon="4.70487">
        <ele>299.11</ele>
        <time>2014-06-15T17:40:41Z</time>
      </trkpt>
      <trkpt lat="45.72254" lon="4.70486">
        <ele>294.3</ele>
        <time>2014-06-15T17:40:42Z</time>
      </trkpt>
      <trkpt lat="45.72249" lon="4.70483">
        <ele>293.82</ele>
        <time>2014-06-15T17:40:44Z</time>
      </trkpt>
      <trkpt lat="45.72221" lon="4.70463">
        <ele>293.82</ele>
        <time>2014-06-15T17:40:56Z</time>
      </trkpt>
      <trkpt lat="45.72192" lon="4.70443">
        <ele>294.3</ele>
        <time>2014-06-15T17:41:05Z</time>
      </trkpt>
      <trkpt lat="45.72189" lon="4.7044">
        <ele>294.78</ele>
        <time>2014-06-15T17:41:06Z</time>
      </trkpt>
      <trkpt lat="45.72186" lon="4.70436">
        <ele>295.26</ele>
        <time>2014-06-15T17:41:07Z</time>
      </trkpt>
      <trkpt lat="45.72183" lon="4.70434">
        <ele>294.78</ele>
        <time>2014-06-15T17:41:08Z</time>
      </trkpt>
      <trkpt lat="45.7218" lon="4.70431">
        <ele>294.78</ele>
        <time>2014-06-15T17:41:09Z</time>
      </trkpt>
      <trkpt lat="45.72131" lon="4.70397">
        <ele>296.7</ele>
        <time>2014-06-15T17:41:24Z</time>
      </trkpt>
      <trkpt lat="45.72122" lon="4.70388">
        <ele>297.18</ele>
        <time>2014-06-15T17:41:29Z</time>
      </trkpt>
      <trkpt lat="45.72075" lon="4.70565">
        <ele>303.43</ele>
        <time>2014-06-15T17:43:51Z</time>
      </trkpt>
      <trkpt lat="45.72033" lon="4.70653">
        <ele>306.32</ele>
        <time>2014-06-15T17:44:40Z</time>
      </trkpt>
      <trkpt lat="45.72031" lon="4.70712">
        <ele>304.88</ele>
        <time>2014-06-15T17:44:46Z</time>
      </trkpt>
      <trkpt lat="45.72028" lon="4.7081">
        <ele>284</ele>
      </trkpt>
      <trkpt lat="45.72019" lon="4.70869">
        <ele>284</ele>
      </trkpt>
      <trkpt lat="45.7201" lon="4.70917">
        <ele>285</ele>
      </trkpt>
      <trkpt lat="45.72025" lon="4.7098">
        <ele>284</ele>
      </trkpt>
      <trkpt lat="45.72044" lon="4.71025">
        <ele>284</ele>
      </trkpt>
      <trkpt lat="45.72062" lon="4.71114">
        <ele>282</ele>
      </trkpt>
      <trkpt lat="45.72065" lon="4.71173">
        <ele>282</ele>
      </trkpt>
      <trkpt lat="45.72071" lon="4.71208">
        <ele>283</ele>
      </trkpt>
      <trkpt lat="45.72079" lon="4.7125">
        <ele>283</ele>
      </trkpt>
      <trkpt lat="45.7209" lon="4.71304">
        <ele>282</ele>
      </trkpt>
      <trkpt lat="45.72095" lon="4.71389">
        <ele>283</ele>
      </trkpt>
      <trkpt lat="45.72101" lon="4.71498">
        <ele>284</ele>
      </trkpt>
      <trkpt lat="45.72102" lon="4.71527">
        <ele>285</ele>
      </trkpt>
      <trkpt lat="45.72102" lon="4.71559">
        <ele>284</ele>
      </trkpt>
      <trkpt lat="45.72102" lon="4.71604">
        <ele>284</ele>
      </trkpt>
      <trkpt lat="45.721" lon="4.71647">
        <ele>283</ele>
      </trkpt>
      <trkpt lat="45.72085" lon="4.71708">
        <ele>281</ele>
      </trkpt>
      <trkpt lat="45.72076" lon="4.71744">
        <ele>279</ele>
      </trkpt>
      <trkpt lat="45.72029" lon="4.71826">
        <ele>278</ele>
      </trkpt>
      <trkpt lat="45.72024" lon="4.71846">
        <ele>278</ele>
      </trkpt>
      <trkpt lat="45.71998" lon="4.72136">
        <ele>278</ele>
      </trkpt>
      <trkpt lat="45.71986" lon="4.72269">
        <ele>280</ele>
      </trkpt>
      <trkpt lat="45.71968" lon="4.72383">
        <ele>284</ele>
      </trkpt>
      <trkpt lat="45.71915" lon="4.72498">
        <ele>293</ele>
      </trkpt>
      <trkpt lat="45.71875" lon="4.72702">
        <ele>298</ele>
      </trkpt>
      <trkpt lat="45.71843" lon="4.72786">
        <ele>297</ele>
      </trkpt>
      <trkpt lat="45.71819" lon="4.732">
        <ele>295</ele>
      </trkpt>
      <trkpt lat="45.71806" lon="4.73247">
        <ele>294</ele>
      </trkpt>
      <trkpt lat="45.71786" lon="4.7329">
        <ele>296</ele>
      </trkpt>
      <trkpt lat="45.71762" lon="4.73518">
        <ele>299</ele>
      </trkpt>
      <trkpt lat="45.71755" lon="4.73692">
        <ele>303</ele>
      </trkpt>
      <trkpt lat="45.71735" lon="4.73778">
        <ele>306</ele>
      </trkpt>
      <trkpt lat="45.71724" lon="4.73797">
        <ele>307</ele>
      </trkpt>
      <trkpt lat="45.71696" lon="4.73917">
        <ele>313</ele>
      </trkpt>
      <trkpt lat="45.71691" lon="4.74007">
        <ele>316</ele>
      </trkpt>
      <trkpt lat="45.71678" lon="4.74051">
        <ele>317</ele>
      </trkpt>
      <trkpt lat="45.71678" lon="4.74202">
        <ele>323</ele>
      </trkpt>
      <trkpt lat="45.71681" lon="4.74397">
        <ele>328</ele>
      </trkpt>
      <trkpt lat="45.71981" lon="4.744">
        <ele>311</ele>
      </trkpt>
      <trkpt lat="45.7212" lon="4.74155">
        <ele>297</ele>
      </trkpt>
      <trkpt lat="45.72204" lon="4.73997">
        <ele>293</ele>
      </trkpt>
      <trkpt lat="45.72256" lon="4.73902">
        <ele>290</ele>
      </trkpt>
      <trkpt lat="45.72288" lon="4.73825">
        <ele>287</ele>
      </trkpt>
      <trkpt lat="45.72331" lon="4.73781">
        <ele>286</ele>
      </trkpt>
      <trkpt lat="45.7238" lon="4.7375">
        <ele>281</ele>
      </trkpt>
      <trkpt lat="45.7242" lon="4.73729">
        <ele>281</ele>
      </trkpt>
      <trkpt lat="45.72481" lon="4.73669">
        <ele>280</ele>
      </trkpt>
      <trkpt lat="45.72537" lon="4.73584">
        <ele>278</ele>
      </trkpt>
      <trkpt lat="45.72547" lon="4.73574">
        <ele>281.8</ele>
        <time>2014-06-15T18:05:44Z</time>
      </trkpt>
      <trkpt lat="45.72566" lon="4.73577">
        <ele>280.84</ele>
        <time>2014-06-15T18:06:09Z</time>
      </trkpt>
      <trkpt lat="45.72571" lon="4.73573">
        <ele>279.4</ele>
        <time>2014-06-15T18:06:10Z</time>
      </trkpt>
      <trkpt lat="45.72579" lon="4.73564">
        <ele>277.96</ele>
        <time>2014-06-15T18:06:12Z</time>
      </trkpt>
      <trkpt lat="45.72584" lon="4.73561">
        <ele>277</ele>
        <time>2014-06-15T18:06:13Z</time>
      </trkpt>
      <trkpt lat="45.72599" lon="4.73556">
        <ele>276.52</ele>
        <time>2014-06-15T18:06:16Z</time>
      </trkpt>
      <trkpt lat="45.72604" lon="4.73556">
        <ele>276.52</ele>
        <time>2014-06-15T18:06:17Z</time>
      </trkpt>
      <trkpt lat="45.72608" lon="4.73557">
        <ele>276.04</ele>
        <time>2014-06-15T18:06:18Z</time>
      </trkpt>
      <trkpt lat="45.72681" lon="4.73569">
        <ele>276.52</ele>
        <time>2014-06-15T18:06:31Z</time>
      </trkpt>
      <trkpt lat="45.72692" lon="4.73572">
        <ele>276.04</ele>
        <time>2014-06-15T18:06:33Z</time>
      </trkpt>
      <trkpt lat="45.72697" lon="4.73572">
        <ele>276.04</ele>
        <time>2014-06-15T18:06:34Z</time>
      </trkpt>
      <trkpt lat="45.72705" lon="4.73575">
        <ele>276.04</ele>
        <time>2014-06-15T18:06:36Z</time>
      </trkpt>
      <trkpt lat="45.7271" lon="4.73575">
        <ele>276.04</ele>
        <time>2014-06-15T18:06:37Z</time>
      </trkpt>
      <trkpt lat="45.72715" lon="4.73575">
        <ele>276.04</ele>
        <time>2014-06-15T18:06:38Z</time>
      </trkpt>
      <trkpt lat="45.72721" lon="4.73574">
        <ele>276.04</ele>
        <time>2014-06-15T18:06:39Z</time>
      </trkpt>
      <trkpt lat="45.72726" lon="4.73573">
        <ele>275.56</ele>
        <time>2014-06-15T18:06:40Z</time>
      </trkpt>
      <trkpt lat="45.72732" lon="4.73571">
        <ele>275.07</ele>
        <time>2014-06-15T18:06:41Z</time>
      </trkpt>
      <trkpt lat="45.72738" lon="4.7357">
        <ele>275.07</ele>
        <time>2014-06-15T18:06:42Z</time>
      </trkpt>
      <trkpt lat="45.72749" lon="4.73568">
        <ele>274.59</ele>
        <time>2014-06-15T18:06:44Z</time>
      </trkpt>
      <trkpt lat="45.72765" lon="4.73563">
        <ele>275.07</ele>
        <time>2014-06-15T18:06:47Z</time>
      </trkpt>
      <trkpt lat="45.72771" lon="4.73561">
        <ele>275.07</ele>
        <time>2014-06-15T18:06:48Z</time>
      </trkpt>
      <trkpt lat="45.72775" lon="4.73559">
        <ele>275.07</ele>
        <time>2014-06-15T18:06:49Z</time>
      </trkpt>
      <trkpt lat="45.72779" lon="4.73558">
        <ele>275.07</ele>
        <time>2014-06-15T18:06:50Z</time>
      </trkpt>
      <trkpt lat="45.72784" lon="4.73557">
        <ele>274.59</ele>
        <time>2014-06-15T18:06:51Z</time>
      </trkpt>
      <trkpt lat="45.72815" lon="4.73542">
        <ele>274.59</ele>
        <time>2014-06-15T18:07:02Z</time>
      </trkpt>
      <trkpt lat="45.72816" lon="4.7354">
        <ele>274.59</ele>
        <time>2014-06-15T18:07:03Z</time>
      </trkpt>
      <trkpt lat="45.72817" lon="4.73538">
        <ele>274.11</ele>
        <time>2014-06-15T18:07:04Z</time>
      </trkpt>
      <trkpt lat="45.72831" lon="4.73517">
        <ele>271.23</ele>
        <time>2014-06-15T18:07:12Z</time>
      </trkpt>
      <trkpt lat="45.72919" lon="4.73494">
        <ele>269.79</ele>
        <time>2014-06-15T18:07:16Z</time>
      </trkpt>
      <trkpt lat="45.72923" lon="4.73488">
        <ele>268.83</ele>
        <time>2014-06-15T18:07:17Z</time>
      </trkpt>
      <trkpt lat="45.72948" lon="4.73448">
        <ele>265.94</ele>
        <time>2014-06-15T18:07:22Z</time>
      </trkpt>
      <trkpt lat="45.72965" lon="4.73424">
        <ele>264.5</ele>
        <time>2014-06-15T18:07:25Z</time>
      </trkpt>
      <trkpt lat="45.72994" lon="4.7336">
        <ele>263.54</ele>
        <time>2014-06-15T18:07:34Z</time>
      </trkpt>
      <trkpt lat="45.72997" lon="4.73354">
        <ele>263.54</ele>
        <time>2014-06-15T18:07:35Z</time>
      </trkpt>
      <trkpt lat="45.73001" lon="4.73349">
        <ele>263.54</ele>
        <time>2014-06-15T18:07:36Z</time>
      </trkpt>
      <trkpt lat="45.7301" lon="4.73338">
        <ele>262.58</ele>
        <time>2014-06-15T18:07:38Z</time>
      </trkpt>
      <trkpt lat="45.73015" lon="4.73334">
        <ele>262.1</ele>
        <time>2014-06-15T18:07:39Z</time>
      </trkpt>
      <trkpt lat="45.73059" lon="4.73307">
        <ele>260.65</ele>
        <time>2014-06-15T18:07:46Z</time>
      </trkpt>
      <trkpt lat="45.73064" lon="4.73305">
        <ele>261.14</ele>
        <time>2014-06-15T18:07:47Z</time>
      </trkpt>
      <trkpt lat="45.73068" lon="4.73304">
        <ele>261.14</ele>
        <time>2014-06-15T18:07:48Z</time>
      </trkpt>
      <trkpt lat="45.73073" lon="4.73303">
        <ele>260.65</ele>
        <time>2014-06-15T18:07:49Z</time>
      </trkpt>
      <trkpt lat="45.73078" lon="4.73302">
        <ele>261.14</ele>
        <time>2014-06-15T18:07:50Z</time>
      </trkpt>
      <trkpt lat="45.73082" lon="4.73302">
        <ele>260.65</ele>
        <time>2014-06-15T18:07:51Z</time>
      </trkpt>
      <trkpt lat="45.73086" lon="4.73301">
        <ele>260.65</ele>
        <time>2014-06-15T18:07:52Z</time>
      </trkpt>
      <trkpt lat="45.73097" lon="4.73292">
        <ele>259.69</ele>
        <time>2014-06-15T18:07:57Z</time>
      </trkpt>
      <trkpt lat="45.73104" lon="4.73261">
        <ele>258.73</ele>
        <time>2014-06-15T18:08:08Z</time>
      </trkpt>
      <trkpt lat="45.73105" lon="4.73259">
        <ele>258.73</ele>
        <time>2014-06-15T18:08:09Z</time>
      </trkpt>
      <trkpt lat="45.73106" lon="4.73256">
        <ele>258.73</ele>
        <time>2014-06-15T18:08:10Z</time>
      </trkpt>
      <trkpt lat="45.73107" lon="4.73254">
        <ele>258.73</ele>
        <time>2014-06-15T18:08:11Z</time>
      </trkpt>
      <trkpt lat="45.73123" lon="4.73225">
        <ele>257.77</ele>
        <time>2014-06-15T18:08:20Z</time>
      </trkpt>
      <trkpt lat="45.73125" lon="4.73224">
        <ele>257.77</ele>
        <time>2014-06-15T18:08:21Z</time>
      </trkpt>
      <trkpt lat="45.73147" lon="4.73208">
        <ele>255.85</ele>
        <time>2014-06-15T18:08:28Z</time>
      </trkpt>
      <trkpt lat="45.73152" lon="4.73204">
        <ele>255.85</ele>
        <time>2014-06-15T18:08:29Z</time>
      </trkpt>
      <trkpt lat="45.73157" lon="4.73199">
        <ele>255.85</ele>
        <time>2014-06-15T18:08:30Z</time>
      </trkpt>
      <trkpt lat="45.73163" lon="4.73195">
        <ele>255.85</ele>
        <time>2014-06-15T18:08:31Z</time>
      </trkpt>
      <trkpt lat="45.73168" lon="4.73191">
        <ele>256.81</ele>
        <time>2014-06-15T18:08:32Z</time>
      </trkpt>
      <trkpt lat="45.73184" lon="4.73183">
        <ele>258.25</ele>
        <time>2014-06-15T18:08:35Z</time>
      </trkpt>
      <trkpt lat="45.73212" lon="4.73154">
        <ele>256.81</ele>
        <time>2014-06-15T18:08:41Z</time>
      </trkpt>
      <trkpt lat="45.73216" lon="4.73148">
        <ele>256.81</ele>
        <time>2014-06-15T18:08:42Z</time>
      </trkpt>
      <trkpt lat="45.73232" lon="4.73124">
        <ele>255.85</ele>
        <time>2014-06-15T18:08:46Z</time>
      </trkpt>
      <trkpt lat="45.73242" lon="4.73104">
        <ele>255.37</ele>
        <time>2014-06-15T18:08:49Z</time>
      </trkpt>
      <trkpt lat="45.73244" lon="4.73097">
        <ele>254.89</ele>
        <time>2014-06-15T18:08:50Z</time>
      </trkpt>
      <trkpt lat="45.73249" lon="4.73068">
        <ele>253.93</ele>
        <time>2014-06-15T18:08:54Z</time>
      </trkpt>
      <trkpt lat="45.73249" lon="4.73061">
        <ele>253.93</ele>
        <time>2014-06-15T18:08:55Z</time>
      </trkpt>
      <trkpt lat="45.7325" lon="4.73055">
        <ele>253.44</ele>
        <time>2014-06-15T18:08:56Z</time>
      </trkpt>
      <trkpt lat="45.7325" lon="4.73048">
        <ele>252.96</ele>
        <time>2014-06-15T18:08:57Z</time>
      </trkpt>
      <trkpt lat="45.7325" lon="4.7304">
        <ele>252.96</ele>
        <time>2014-06-15T18:08:58Z</time>
      </trkpt>
      <trkpt lat="45.7325" lon="4.72977">
        <ele>253.44</ele>
        <time>2014-06-15T18:09:09Z</time>
      </trkpt>
      <trkpt lat="45.73256" lon="4.72947">
        <ele>252.48</ele>
        <time>2014-06-15T18:09:13Z</time>
      </trkpt>
      <trkpt lat="45.73259" lon="4.72938">
        <ele>252.48</ele>
        <time>2014-06-15T18:09:14Z</time>
      </trkpt>
      <trkpt lat="45.73263" lon="4.72931">
        <ele>252.48</ele>
        <time>2014-06-15T18:09:15Z</time>
      </trkpt>
      <trkpt lat="45.73268" lon="4.72924">
        <ele>252</ele>
        <time>2014-06-15T18:09:16Z</time>
      </trkpt>
      <trkpt lat="45.73271" lon="4.72918">
        <ele>252.96</ele>
        <time>2014-06-15T18:09:17Z</time>
      </trkpt>
      <trkpt lat="45.73278" lon="4.72907">
        <ele>252.96</ele>
        <time>2014-06-15T18:09:19Z</time>
      </trkpt>
      <trkpt lat="45.73314" lon="4.72849">
        <ele>253.93</ele>
        <time>2014-06-15T18:09:30Z</time>
      </trkpt>
      <trkpt lat="45.73313" lon="4.72841">
        <ele>252.96</ele>
        <time>2014-06-15T18:09:31Z</time>
      </trkpt>
      <trkpt lat="45.7331" lon="4.72809">
        <ele>251.04</ele>
        <time>2014-06-15T18:09:35Z</time>
      </trkpt>
      <trkpt lat="45.73313" lon="4.72785">
        <ele>251.04</ele>
        <time>2014-06-15T18:09:38Z</time>
      </trkpt>
      <trkpt lat="45.73315" lon="4.72778">
        <ele>251.04</ele>
        <time>2014-06-15T18:09:39Z</time>
      </trkpt>
      <trkpt lat="45.73317" lon="4.72773">
        <ele>251.04</ele>
        <time>2014-06-15T18:09:40Z</time>
      </trkpt>
      <trkpt lat="45.73329" lon="4.72728">
        <ele>250.56</ele>
        <time>2014-06-15T18:09:50Z</time>
      </trkpt>
      <trkpt lat="45.7334" lon="4.72677">
        <ele>248.16</ele>
        <time>2014-06-15T18:09:58Z</time>
      </trkpt>
      <trkpt lat="45.73342" lon="4.72672">
        <ele>248.16</ele>
        <time>2014-06-15T18:09:59Z</time>
      </trkpt>
      <trkpt lat="45.73343" lon="4.72666">
        <ele>247.68</ele>
        <time>2014-06-15T18:10:00Z</time>
      </trkpt>
      <trkpt lat="45.73345" lon="4.72661">
        <ele>246.72</ele>
        <time>2014-06-15T18:10:01Z</time>
      </trkpt>
      <trkpt lat="45.73347" lon="4.72655">
        <ele>245.75</ele>
        <time>2014-06-15T18:10:02Z</time>
      </trkpt>
      <trkpt lat="45.7335" lon="4.72651">
        <ele>245.75</ele>
        <time>2014-06-15T18:10:03Z</time>
      </trkpt>
      <trkpt lat="45.73354" lon="4.72644">
        <ele>246.23</ele>
        <time>2014-06-15T18:10:05Z</time>
      </trkpt>
      <trkpt lat="45.73356" lon="4.72643">
        <ele>245.75</ele>
        <time>2014-06-15T18:10:06Z</time>
      </trkpt>
      <trkpt lat="45.73358" lon="4.72642">
        <ele>246.23</ele>
        <time>2014-06-15T18:10:07Z</time>
      </trkpt>
      <trkpt lat="45.73359" lon="4.72642">
        <ele>246.23</ele>
        <time>2014-06-15T18:10:08Z</time>
      </trkpt>
      <trkpt lat="45.7336" lon="4.72643">
        <ele>246.72</ele>
        <time>2014-06-15T18:10:09Z</time>
      </trkpt>
      <trkpt lat="45.73361" lon="4.72644">
        <ele>246.23</ele>
        <time>2014-06-15T18:10:10Z</time>
      </trkpt>
      <trkpt lat="45.73362" lon="4.72645">
        <ele>246.72</ele>
        <time>2014-06-15T18:10:11Z</time>
      </trkpt>
      <trkpt lat="45.73363" lon="4.72646">
        <ele>247.2</ele>
        <time>2014-06-15T18:10:12Z</time>
      </trkpt>
      <trkpt lat="45.73366" lon="4.72651">
        <ele>248.16</ele>
        <time>2014-06-15T18:10:27Z</time>
      </trkpt>
      <trkpt lat="45.7337" lon="4.72656">
        <ele>248.16</ele>
        <time>2014-06-15T18:10:47Z</time>
      </trkpt>
      <trkpt lat="45.7337" lon="4.72657">
        <ele>248.64</ele>
        <time>2014-06-15T18:10:51Z</time>
      </trkpt>
      <trkpt lat="45.73371" lon="4.72662">
        <ele>249.12</ele>
        <time>2014-06-15T18:10:54Z</time>
      </trkpt>
      <trkpt lat="45.73372" lon="4.72663">
        <ele>249.6</ele>
        <time>2014-06-15T18:10:55Z</time>
      </trkpt>
      <trkpt lat="45.73374" lon="4.72666">
        <ele>249.6</ele>
        <time>2014-06-15T18:10:59Z</time>
      </trkpt>
      <trkpt lat="45.73375" lon="4.72669">
        <ele>250.08</ele>
        <time>2014-06-15T18:11:01Z</time>
      </trkpt>
      <trkpt lat="45.73376" lon="4.72671">
        <ele>250.56</ele>
        <time>2014-06-15T18:11:02Z</time>
      </trkpt>
      <trkpt lat="45.73377" lon="4.72685">
        <ele>252</ele>
        <time>2014-06-15T18:11:12Z</time>
      </trkpt>
      <trkpt lat="45.73377" lon="4.72691">
        <ele>252.96</ele>
        <time>2014-06-15T18:11:26Z</time>
      </trkpt>
      <trkpt lat="45.73379" lon="4.72702">
        <ele>255.85</ele>
        <time>2014-06-15T18:11:43Z</time>
      </trkpt>
      <trkpt lat="45.73378" lon="4.72707">
        <ele>256.33</ele>
        <time>2014-06-15T18:11:46Z</time>
      </trkpt>
      <trkpt lat="45.73378" lon="4.72709">
        <ele>256.81</ele>
        <time>2014-06-15T18:11:47Z</time>
      </trkpt>
      <trkpt lat="45.73375" lon="4.72731">
        <ele>259.69</ele>
        <time>2014-06-15T18:11:59Z</time>
      </trkpt>
      <trkpt lat="45.73373" lon="4.72742">
        <ele>261.14</ele>
        <time>2014-06-15T18:12:11Z</time>
      </trkpt>
      <trkpt lat="45.7337" lon="4.72761">
        <ele>261.62</ele>
        <time>2014-06-15T18:12:24Z</time>
      </trkpt>
      <trkpt lat="45.73369" lon="4.72776">
        <ele>263.54</ele>
        <time>2014-06-15T18:12:31Z</time>
      </trkpt>
      <trkpt lat="45.73369" lon="4.72779">
        <ele>263.54</ele>
        <time>2014-06-15T18:12:32Z</time>
      </trkpt>
      <trkpt lat="45.73369" lon="4.72782">
        <ele>264.02</ele>
        <time>2014-06-15T18:12:33Z</time>
      </trkpt>
      <trkpt lat="45.73369" lon="4.72801">
        <ele>265.46</ele>
        <time>2014-06-15T18:12:40Z</time>
      </trkpt>
      <trkpt lat="45.73369" lon="4.72803">
        <ele>265.46</ele>
        <time>2014-06-15T18:12:41Z</time>
      </trkpt>
      <trkpt lat="45.73369" lon="4.72806">
        <ele>265.46</ele>
        <time>2014-06-15T18:12:42Z</time>
      </trkpt>
      <trkpt lat="45.73369" lon="4.72809">
        <ele>265.94</ele>
        <time>2014-06-15T18:12:43Z</time>
      </trkpt>
      <trkpt lat="45.73369" lon="4.72812">
        <ele>266.42</ele>
        <time>2014-06-15T18:12:44Z</time>
      </trkpt>
      <trkpt lat="45.73369" lon="4.72815">
        <ele>266.9</ele>
        <time>2014-06-15T18:12:45Z</time>
      </trkpt>
      <trkpt lat="45.73369" lon="4.72818">
        <ele>266.9</ele>
        <time>2014-06-15T18:12:46Z</time>
      </trkpt>
      <trkpt lat="45.73369" lon="4.72821">
        <ele>266.9</ele>
        <time>2014-06-15T18:12:47Z</time>
      </trkpt>
      <trkpt lat="45.73369" lon="4.72824">
        <ele>266.9</ele>
        <time>2014-06-15T18:12:48Z</time>
      </trkpt>
      <trkpt lat="45.7337" lon="4.72827">
        <ele>267.38</ele>
        <time>2014-06-15T18:12:49Z</time>
      </trkpt>
      <trkpt lat="45.7337" lon="4.72858">
        <ele>270.75</ele>
        <time>2014-06-15T18:13:02Z</time>
      </trkpt>
      <trkpt lat="45.73371" lon="4.72861">
        <ele>270.75</ele>
        <time>2014-06-15T18:13:03Z</time>
      </trkpt>
      <trkpt lat="45.73371" lon="4.72889">
        <ele>273.15</ele>
        <time>2014-06-15T18:13:15Z</time>
      </trkpt>
      <trkpt lat="45.7337" lon="4.72926">
        <ele>275.56</ele>
        <time>2014-06-15T18:13:29Z</time>
      </trkpt>
      <trkpt lat="45.7337" lon="4.72957">
        <ele>277.96</ele>
        <time>2014-06-15T18:13:42Z</time>
      </trkpt>
      <trkpt lat="45.73368" lon="4.72999">
        <ele>280.84</ele>
        <time>2014-06-15T18:13:58Z</time>
      </trkpt>
      <trkpt lat="45.73369" lon="4.73034">
        <ele>282.28</ele>
        <time>2014-06-15T18:14:12Z</time>
      </trkpt>
      <trkpt lat="45.73368" lon="4.7304">
        <ele>282.28</ele>
        <time>2014-06-15T18:14:15Z</time>
      </trkpt>
      <trkpt lat="45.73369" lon="4.7304">
        <ele>281.8</ele>
        <time>2014-06-15T18:14:16Z</time>
      </trkpt>
      <trkpt lat="45.73384" lon="4.73035">
        <ele>282.77</ele>
        <time>2014-06-15T18:14:24Z</time>
      </trkpt>
      <trkpt lat="45.73417" lon="4.73029">
        <ele>280.84</ele>
        <time>2014-06-15T18:14:36Z</time>
      </trkpt>
      <trkpt lat="45.73443" lon="4.73022">
        <ele>278.92</ele>
        <time>2014-06-15T18:14:42Z</time>
      </trkpt>
      <trkpt lat="45.73448" lon="4.73021">
        <ele>278.92</ele>
        <time>2014-06-15T18:14:43Z</time>
      </trkpt>
      <trkpt lat="45.73452" lon="4.7302">
        <ele>278.92</ele>
        <time>2014-06-15T18:14:44Z</time>
      </trkpt>
      <trkpt lat="45.73479" lon="4.7301">
        <ele>277</ele>
        <time>2014-06-15T18:14:49Z</time>
      </trkpt>
      <trkpt lat="45.73539" lon="4.72981">
        <ele>273.63</ele>
        <time>2014-06-15T18:14:58Z</time>
      </trkpt>
      <trkpt lat="45.73566" lon="4.72968">
        <ele>270.75</ele>
        <time>2014-06-15T18:15:02Z</time>
      </trkpt>
      <trkpt lat="45.73593" lon="4.72943">
        <ele>269.31</ele>
        <time>2014-06-15T18:15:10Z</time>
      </trkpt>
      <trkpt lat="45.73618" lon="4.729">
        <ele>266.42</ele>
        <time>2014-06-15T18:15:17Z</time>
      </trkpt>
      <trkpt lat="45.73634" lon="4.72873">
        <ele>263.54</ele>
        <time>2014-06-15T18:15:23Z</time>
      </trkpt>
      <trkpt lat="45.73636" lon="4.72867">
        <ele>263.06</ele>
        <time>2014-06-15T18:15:24Z</time>
      </trkpt>
      <trkpt lat="45.73642" lon="4.72854">
        <ele>261.14</ele>
        <time>2014-06-15T18:15:26Z</time>
      </trkpt>
      <trkpt lat="45.73644" lon="4.7284">
        <ele>259.69</ele>
        <time>2014-06-15T18:15:28Z</time>
      </trkpt>
      <trkpt lat="45.73645" lon="4.72834">
        <ele>258.25</ele>
        <time>2014-06-15T18:15:29Z</time>
      </trkpt>
      <trkpt lat="45.73646" lon="4.72827">
        <ele>257.29</ele>
        <time>2014-06-15T18:15:30Z</time>
      </trkpt>
      <trkpt lat="45.73646" lon="4.7282">
        <ele>256.81</ele>
        <time>2014-06-15T18:15:31Z</time>
      </trkpt>
      <trkpt lat="45.73646" lon="4.72814">
        <ele>255.85</ele>
        <time>2014-06-15T18:15:32Z</time>
      </trkpt>
      <trkpt lat="45.73647" lon="4.72808">
        <ele>254.89</ele>
        <time>2014-06-15T18:15:33Z</time>
      </trkpt>
      <trkpt lat="45.73649" lon="4.72802">
        <ele>254.41</ele>
        <time>2014-06-15T18:15:34Z</time>
      </trkpt>
      <trkpt lat="45.73651" lon="4.72795">
        <ele>252.96</ele>
        <time>2014-06-15T18:15:35Z</time>
      </trkpt>
      <trkpt lat="45.73654" lon="4.72788">
        <ele>251.52</ele>
        <time>2014-06-15T18:15:36Z</time>
      </trkpt>
      <trkpt lat="45.73659" lon="4.72781">
        <ele>250.56</ele>
        <time>2014-06-15T18:15:37Z</time>
      </trkpt>
      <trkpt lat="45.73663" lon="4.72776">
        <ele>249.6</ele>
        <time>2014-06-15T18:15:38Z</time>
      </trkpt>
      <trkpt lat="45.73668" lon="4.72771">
        <ele>248.16</ele>
        <time>2014-06-15T18:15:39Z</time>
      </trkpt>
      <trkpt lat="45.73674" lon="4.72765">
        <ele>247.68</ele>
        <time>2014-06-15T18:15:40Z</time>
      </trkpt>
      <trkpt lat="45.73696" lon="4.72752">
        <ele>245.27</ele>
        <time>2014-06-15T18:15:43Z</time>
      </trkpt>
      <trkpt lat="45.73714" lon="4.72745">
        <ele>242.87</ele>
        <time>2014-06-15T18:15:46Z</time>
      </trkpt>
      <trkpt lat="45.73719" lon="4.72745">
        <ele>241.43</ele>
        <time>2014-06-15T18:15:47Z</time>
      </trkpt>
      <trkpt lat="45.73724" lon="4.72747">
        <ele>240.95</ele>
        <time>2014-06-15T18:15:48Z</time>
      </trkpt>
      <trkpt lat="45.73729" lon="4.72749">
        <ele>239.51</ele>
        <time>2014-06-15T18:15:49Z</time>
      </trkpt>
      <trkpt lat="45.73735" lon="4.72752">
        <ele>239.02</ele>
        <time>2014-06-15T18:15:50Z</time>
      </trkpt>
      <trkpt lat="45.73746" lon="4.72757">
        <ele>238.06</ele>
        <time>2014-06-15T18:15:52Z</time>
      </trkpt>
      <trkpt lat="45.73756" lon="4.72761">
        <ele>236.62</ele>
        <time>2014-06-15T18:15:54Z</time>
      </trkpt>
      <trkpt lat="45.7376" lon="4.72763">
        <ele>236.14</ele>
        <time>2014-06-15T18:15:55Z</time>
      </trkpt>
      <trkpt lat="45.73764" lon="4.72764">
        <ele>236.14</ele>
        <time>2014-06-15T18:15:56Z</time>
      </trkpt>
      <trkpt lat="45.73766" lon="4.72766">
        <ele>236.14</ele>
        <time>2014-06-15T18:15:57Z</time>
      </trkpt>
      <trkpt lat="45.73768" lon="4.72765">
        <ele>236.14</ele>
        <time>2014-06-15T18:15:58Z</time>
      </trkpt>
      <trkpt lat="45.73775" lon="4.72759">
        <ele>237.1</ele>
        <time>2014-06-15T18:16:04Z</time>
      </trkpt>
      <trkpt lat="45.73776" lon="4.72758">
        <ele>236.62</ele>
        <time>2014-06-15T18:16:05Z</time>
      </trkpt>
      <trkpt lat="45.73778" lon="4.72757">
        <ele>236.62</ele>
        <time>2014-06-15T18:16:06Z</time>
      </trkpt>
      <trkpt lat="45.73781" lon="4.72756">
        <ele>236.62</ele>
        <time>2014-06-15T18:16:07Z</time>
      </trkpt>
      <trkpt lat="45.73784" lon="4.72755">
        <ele>236.62</ele>
        <time>2014-06-15T18:16:08Z</time>
      </trkpt>
      <trkpt lat="45.73787" lon="4.72754">
        <ele>236.62</ele>
        <time>2014-06-15T18:16:09Z</time>
      </trkpt>
      <trkpt lat="45.7379" lon="4.72752">
        <ele>236.62</ele>
        <time>2014-06-15T18:16:10Z</time>
      </trkpt>
      <trkpt lat="45.73793" lon="4.72751">
        <ele>236.14</ele>
        <time>2014-06-15T18:16:11Z</time>
      </trkpt>
      <trkpt lat="45.73795" lon="4.72751">
        <ele>236.14</ele>
        <time>2014-06-15T18:16:12Z</time>
      </trkpt>
      <trkpt lat="45.73796" lon="4.72753">
        <ele>236.62</ele>
        <time>2014-06-15T18:16:13Z</time>
      </trkpt>
      <trkpt lat="45.73797" lon="4.72755">
        <ele>236.14</ele>
        <time>2014-06-15T18:16:14Z</time>
      </trkpt>
      <trkpt lat="45.73797" lon="4.72757">
        <ele>236.14</ele>
        <time>2014-06-15T18:16:15Z</time>
      </trkpt>
      <trkpt lat="45.73797" lon="4.7276">
        <ele>236.14</ele>
        <time>2014-06-15T18:16:16Z</time>
      </trkpt>
      <trkpt lat="45.73796" lon="4.72763">
        <ele>235.66</ele>
        <time>2014-06-15T18:16:17Z</time>
      </trkpt>
      <trkpt lat="45.73796" lon="4.72766">
        <ele>235.18</ele>
        <time>2014-06-15T18:16:18Z</time>
      </trkpt>
      <trkpt lat="45.73796" lon="4.7277">
        <ele>234.7</ele>
        <time>2014-06-15T18:16:19Z</time>
      </trkpt>
      <trkpt lat="45.73807" lon="4.72819">
        <ele>236.62</ele>
        <time>2014-06-15T18:16:29Z</time>
      </trkpt>
      <trkpt lat="45.73803" lon="4.72854">
        <ele>236.62</ele>
        <time>2014-06-15T18:16:35Z</time>
      </trkpt>
      <trkpt lat="45.73804" lon="4.72861">
        <ele>236.62</ele>
        <time>2014-06-15T18:16:36Z</time>
      </trkpt>
      <trkpt lat="45.73805" lon="4.72867">
        <ele>236.62</ele>
        <time>2014-06-15T18:16:37Z</time>
      </trkpt>
      <trkpt lat="45.73806" lon="4.72883">
        <ele>237.1</ele>
        <time>2014-06-15T18:16:39Z</time>
      </trkpt>
      <trkpt lat="45.73806" lon="4.72891">
        <ele>237.1</ele>
        <time>2014-06-15T18:16:40Z</time>
      </trkpt>
      <trkpt lat="45.73805" lon="4.72898">
        <ele>237.1</ele>
        <time>2014-06-15T18:16:41Z</time>
      </trkpt>
      <trkpt lat="45.73804" lon="4.72906">
        <ele>237.1</ele>
        <time>2014-06-15T18:16:42Z</time>
      </trkpt>
      <trkpt lat="45.73803" lon="4.72914">
        <ele>237.1</ele>
        <time>2014-06-15T18:16:43Z</time>
      </trkpt>
      <trkpt lat="45.73799" lon="4.73016">
        <ele>235.66</ele>
        <time>2014-06-15T18:16:55Z</time>
      </trkpt>
      <trkpt lat="45.73799" lon="4.73103">
        <ele>234.22</ele>
        <time>2014-06-15T18:17:06Z</time>
      </trkpt>
      <trkpt lat="45.73798" lon="4.73146">
        <ele>232.78</ele>
        <time>2014-06-15T18:17:11Z</time>
      </trkpt>
      <trkpt lat="45.73797" lon="4.73154">
        <ele>232.78</ele>
        <time>2014-06-15T18:17:12Z</time>
      </trkpt>
      <trkpt lat="45.73796" lon="4.73162">
        <ele>232.78</ele>
        <time>2014-06-15T18:17:13Z</time>
      </trkpt>
      <trkpt lat="45.73797" lon="4.73169">
        <ele>232.78</ele>
        <time>2014-06-15T18:17:14Z</time>
      </trkpt>
      <trkpt lat="45.73797" lon="4.73174">
        <ele>232.78</ele>
        <time>2014-06-15T18:17:15Z</time>
      </trkpt>
      <trkpt lat="45.73798" lon="4.7318">
        <ele>232.78</ele>
        <time>2014-06-15T18:17:16Z</time>
      </trkpt>
      <trkpt lat="45.738" lon="4.73185">
        <ele>233.26</ele>
        <time>2014-06-15T18:17:17Z</time>
      </trkpt>
      <trkpt lat="45.73801" lon="4.73191">
        <ele>233.26</ele>
        <time>2014-06-15T18:17:18Z</time>
      </trkpt>
      <trkpt lat="45.73803" lon="4.73197">
        <ele>232.78</ele>
        <time>2014-06-15T18:17:19Z</time>
      </trkpt>
      <trkpt lat="45.73804" lon="4.73203">
        <ele>232.78</ele>
        <time>2014-06-15T18:17:20Z</time>
      </trkpt>
      <trkpt lat="45.73806" lon="4.73209">
        <ele>232.78</ele>
        <time>2014-06-15T18:17:21Z</time>
      </trkpt>
      <trkpt lat="45.73807" lon="4.73215">
        <ele>232.3</ele>
        <time>2014-06-15T18:17:22Z</time>
      </trkpt>
      <trkpt lat="45.73809" lon="4.7322">
        <ele>232.3</ele>
        <time>2014-06-15T18:17:23Z</time>
      </trkpt>
      <trkpt lat="45.73811" lon="4.73226">
        <ele>232.3</ele>
        <time>2014-06-15T18:17:24Z</time>
      </trkpt>
      <trkpt lat="45.73813" lon="4.73231">
        <ele>232.3</ele>
        <time>2014-06-15T18:17:25Z</time>
      </trkpt>
      <trkpt lat="45.73815" lon="4.73237">
        <ele>232.3</ele>
        <time>2014-06-15T18:17:26Z</time>
      </trkpt>
      <trkpt lat="45.7382" lon="4.73249">
        <ele>231.81</ele>
        <time>2014-06-15T18:17:28Z</time>
      </trkpt>
      <trkpt lat="45.73826" lon="4.7326">
        <ele>231.81</ele>
        <time>2014-06-15T18:17:30Z</time>
      </trkpt>
      <trkpt lat="45.73829" lon="4.73264">
        <ele>231.81</ele>
        <time>2014-06-15T18:17:31Z</time>
      </trkpt>
      <trkpt lat="45.73868" lon="4.73293">
        <ele>230.37</ele>
        <time>2014-06-15T18:17:41Z</time>
      </trkpt>
      <trkpt lat="45.73872" lon="4.73291">
        <ele>230.37</ele>
        <time>2014-06-15T18:17:42Z</time>
      </trkpt>
      <trkpt lat="45.73875" lon="4.73289">
        <ele>230.37</ele>
        <time>2014-06-15T18:17:43Z</time>
      </trkpt>
      <trkpt lat="45.73878" lon="4.73285">
        <ele>230.37</ele>
        <time>2014-06-15T18:17:44Z</time>
      </trkpt>
      <trkpt lat="45.7388" lon="4.7328">
        <ele>230.37</ele>
        <time>2014-06-15T18:17:45Z</time>
      </trkpt>
      <trkpt lat="45.73883" lon="4.73276">
        <ele>230.85</ele>
        <time>2014-06-15T18:17:46Z</time>
      </trkpt>
      <trkpt lat="45.73889" lon="4.7327">
        <ele>230.85</ele>
        <time>2014-06-15T18:17:48Z</time>
      </trkpt>
      <trkpt lat="45.73893" lon="4.73268">
        <ele>230.85</ele>
        <time>2014-06-15T18:17:49Z</time>
      </trkpt>
      <trkpt lat="45.73908" lon="4.7326">
        <ele>230.37</ele>
        <time>2014-06-15T18:17:53Z</time>
      </trkpt>
      <trkpt lat="45.7391" lon="4.73256">
        <ele>230.37</ele>
        <time>2014-06-15T18:17:54Z</time>
      </trkpt>
      <trkpt lat="45.73913" lon="4.73251">
        <ele>230.85</ele>
        <time>2014-06-15T18:17:55Z</time>
      </trkpt>
      <trkpt lat="45.73915" lon="4.73247">
        <ele>230.85</ele>
        <time>2014-06-15T18:17:56Z</time>
      </trkpt>
      <trkpt lat="45.73916" lon="4.73243">
        <ele>231.33</ele>
        <time>2014-06-15T18:17:57Z</time>
      </trkpt>
      <trkpt lat="45.73918" lon="4.7324">
        <ele>231.33</ele>
        <time>2014-06-15T18:17:58Z</time>
      </trkpt>
      <trkpt lat="45.73918" lon="4.73236">
        <ele>231.33</ele>
        <time>2014-06-15T18:17:59Z</time>
      </trkpt>
      <trkpt lat="45.7392" lon="4.73232">
        <ele>230.85</ele>
        <time>2014-06-15T18:18:00Z</time>
      </trkpt>
      <trkpt lat="45.73921" lon="4.73228">
        <ele>231.33</ele>
        <time>2014-06-15T18:18:01Z</time>
      </trkpt>
      <trkpt lat="45.73923" lon="4.73224">
        <ele>231.33</ele>
        <time>2014-06-15T18:18:02Z</time>
      </trkpt>
      <trkpt lat="45.73925" lon="4.7322">
        <ele>231.33</ele>
        <time>2014-06-15T18:18:03Z</time>
      </trkpt>
      <trkpt lat="45.73927" lon="4.73217">
        <ele>231.33</ele>
        <time>2014-06-15T18:18:04Z</time>
      </trkpt>
      <trkpt lat="45.73929" lon="4.73215">
        <ele>231.33</ele>
        <time>2014-06-15T18:18:05Z</time>
      </trkpt>
      <trkpt lat="45.73951" lon="4.73209">
        <ele>230.37</ele>
        <time>2014-06-15T18:18:14Z</time>
      </trkpt>
      <trkpt lat="45.73953" lon="4.73208">
        <ele>230.37</ele>
        <time>2014-06-15T18:18:15Z</time>
      </trkpt>
      <trkpt lat="45.73955" lon="4.73207">
        <ele>229.89</ele>
        <time>2014-06-15T18:18:16Z</time>
      </trkpt>
      <trkpt lat="45.73957" lon="4.73206">
        <ele>229.41</ele>
        <time>2014-06-15T18:18:17Z</time>
      </trkpt>
      <trkpt lat="45.7396" lon="4.73203">
        <ele>229.41</ele>
        <time>2014-06-15T18:18:18Z</time>
      </trkpt>
      <trkpt lat="45.73962" lon="4.732">
        <ele>229.89</ele>
        <time>2014-06-15T18:18:19Z</time>
      </trkpt>
      <trkpt lat="45.73975" lon="4.73186">
        <ele>231.33</ele>
        <time>2014-06-15T18:18:25Z</time>
      </trkpt>
      <trkpt lat="45.73977" lon="4.73185">
        <ele>231.33</ele>
        <time>2014-06-15T18:18:26Z</time>
      </trkpt>
      <trkpt lat="45.7398" lon="4.73184">
        <ele>231.33</ele>
        <time>2014-06-15T18:18:27Z</time>
      </trkpt>
      <trkpt lat="45.73989" lon="4.73177">
        <ele>231.81</ele>
        <time>2014-06-15T18:18:32Z</time>
      </trkpt>
      <trkpt lat="45.73991" lon="4.73175">
        <ele>231.81</ele>
        <time>2014-06-15T18:18:33Z</time>
      </trkpt>
      <trkpt lat="45.73996" lon="4.7317">
        <ele>232.3</ele>
        <time>2014-06-15T18:18:35Z</time>
      </trkpt>
      <trkpt lat="45.74027" lon="4.73157">
        <ele>233.74</ele>
        <time>2014-06-15T18:18:43Z</time>
      </trkpt>
      <trkpt lat="45.74031" lon="4.73155">
        <ele>233.74</ele>
        <time>2014-06-15T18:18:44Z</time>
      </trkpt>
      <trkpt lat="45.74035" lon="4.73153">
        <ele>234.22</ele>
        <time>2014-06-15T18:18:45Z</time>
      </trkpt>
      <trkpt lat="45.74039" lon="4.73151">
        <ele>234.7</ele>
        <time>2014-06-15T18:18:46Z</time>
      </trkpt>
      <trkpt lat="45.74041" lon="4.73148">
        <ele>234.7</ele>
        <time>2014-06-15T18:18:47Z</time>
      </trkpt>
      <trkpt lat="45.74046" lon="4.73146">
        <ele>235.18</ele>
        <time>2014-06-15T18:18:49Z</time>
      </trkpt>
      <trkpt lat="45.74049" lon="4.73145">
        <ele>235.18</ele>
        <time>2014-06-15T18:18:50Z</time>
      </trkpt>
      <trkpt lat="45.74053" lon="4.73146">
        <ele>235.18</ele>
        <time>2014-06-15T18:18:51Z</time>
      </trkpt>
      <trkpt lat="45.74057" lon="4.73147">
        <ele>235.18</ele>
        <time>2014-06-15T18:18:52Z</time>
      </trkpt>
      <trkpt lat="45.74061" lon="4.73147">
        <ele>235.18</ele>
        <time>2014-06-15T18:18:53Z</time>
      </trkpt>
      <trkpt lat="45.74064" lon="4.73148">
        <ele>234.7</ele>
        <time>2014-06-15T18:18:54Z</time>
      </trkpt>
      <trkpt lat="45.74067" lon="4.73148">
        <ele>235.18</ele>
        <time>2014-06-15T18:18:55Z</time>
      </trkpt>
      <trkpt lat="45.74088" lon="4.73149">
        <ele>236.62</ele>
        <time>2014-06-15T18:19:01Z</time>
      </trkpt>
      <trkpt lat="45.7409" lon="4.73151">
        <ele>236.62</ele>
        <time>2014-06-15T18:19:02Z</time>
      </trkpt>
      <trkpt lat="45.74091" lon="4.73153">
        <ele>236.14</ele>
        <time>2014-06-15T18:19:03Z</time>
      </trkpt>
      <trkpt lat="45.74092" lon="4.73155">
        <ele>235.66</ele>
        <time>2014-06-15T18:19:04Z</time>
      </trkpt>
      <trkpt lat="45.74095" lon="4.73162">
        <ele>234.7</ele>
        <time>2014-06-15T18:19:06Z</time>
      </trkpt>
      <trkpt lat="45.74109" lon="4.73178">
        <ele>233.26</ele>
        <time>2014-06-15T18:19:09Z</time>
      </trkpt>
      <trkpt lat="45.74125" lon="4.73197">
        <ele>232.78</ele>
        <time>2014-06-15T18:19:13Z</time>
      </trkpt>
      <trkpt lat="45.74132" lon="4.73205">
        <ele>232.3</ele>
        <time>2014-06-15T18:19:16Z</time>
      </trkpt>
      <trkpt lat="45.74133" lon="4.73208">
        <ele>232.3</ele>
        <time>2014-06-15T18:19:17Z</time>
      </trkpt>
      <trkpt lat="45.74135" lon="4.73209">
        <ele>231.81</ele>
        <time>2014-06-15T18:19:18Z</time>
      </trkpt>
      <trkpt lat="45.74141" lon="4.73237">
        <ele>228.93</ele>
        <time>2014-06-15T18:21:53Z</time>
      </trkpt>
      <trkpt lat="45.74146" lon="4.73243">
        <ele>228.45</ele>
        <time>2014-06-15T18:22:05Z</time>
      </trkpt>
      <trkpt lat="45.74148" lon="4.7325">
        <ele>227.97</ele>
        <time>2014-06-15T18:22:27Z</time>
      </trkpt>
      <trkpt lat="45.74154" lon="4.73253">
        <ele>227.01</ele>
        <time>2014-06-15T18:22:37Z</time>
      </trkpt>
      <trkpt lat="45.7416" lon="4.73251">
        <ele>227.01</ele>
        <time>2014-06-15T18:22:44Z</time>
      </trkpt>
      <trkpt lat="45.74166" lon="4.73252">
        <ele>228.93</ele>
        <time>2014-06-15T18:22:52Z</time>
      </trkpt>
      <trkpt lat="45.74171" lon="4.7326">
        <ele>230.37</ele>
        <time>2014-06-15T18:23:00Z</time>
      </trkpt>
      <trkpt lat="45.74171" lon="4.73263">
        <ele>230.37</ele>
        <time>2014-06-15T18:23:02Z</time>
      </trkpt>
      <trkpt lat="45.7418" lon="4.73275">
        <ele>229.89</ele>
        <time>2014-06-15T18:23:16Z</time>
      </trkpt>
      <trkpt lat="45.74181" lon="4.73277">
        <ele>231.33</ele>
        <time>2014-06-15T18:23:23Z</time>
      </trkpt>
      <trkpt lat="45.7419" lon="4.73303">
        <ele>230.37</ele>
        <time>2014-06-15T18:23:32Z</time>
      </trkpt>
      <trkpt lat="45.74197" lon="4.73325">
        <ele>230.37</ele>
        <time>2014-06-15T18:23:38Z</time>
      </trkpt>
      <trkpt lat="45.74212" lon="4.73366">
        <ele>230.37</ele>
        <time>2014-06-15T18:23:47Z</time>
      </trkpt>
      <trkpt lat="45.74222" lon="4.73416">
        <ele>227.97</ele>
        <time>2014-06-15T18:23:57Z</time>
      </trkpt>
      <trkpt lat="45.74221" lon="4.73424">
        <ele>227.49</ele>
        <time>2014-06-15T18:23:58Z</time>
      </trkpt>
      <trkpt lat="45.74204" lon="4.73493">
        <ele>227.97</ele>
        <time>2014-06-15T18:24:08Z</time>
      </trkpt>
      <trkpt lat="45.74202" lon="4.735">
        <ele>227.97</ele>
        <time>2014-06-15T18:24:09Z</time>
      </trkpt>
      <trkpt lat="45.74185" lon="4.73579">
        <ele>229.41</ele>
        <time>2014-06-15T18:24:20Z</time>
      </trkpt>
      <trkpt lat="45.74185" lon="4.73586">
        <ele>229.89</ele>
        <time>2014-06-15T18:24:21Z</time>
      </trkpt>
      <trkpt lat="45.74185" lon="4.73593">
        <ele>229.89</ele>
        <time>2014-06-15T18:24:22Z</time>
      </trkpt>
      <trkpt lat="45.74189" lon="4.73653">
        <ele>230.85</ele>
        <time>2014-06-15T18:24:32Z</time>
      </trkpt>
      <trkpt lat="45.7419" lon="4.73662">
        <ele>231.33</ele>
        <time>2014-06-15T18:24:34Z</time>
      </trkpt>
      <trkpt lat="45.74188" lon="4.73667">
        <ele>231.33</ele>
        <time>2014-06-15T18:24:35Z</time>
      </trkpt>
      <trkpt lat="45.74186" lon="4.73673">
        <ele>230.85</ele>
        <time>2014-06-15T18:24:36Z</time>
      </trkpt>
      <trkpt lat="45.74162" lon="4.73705">
        <ele>228.45</ele>
        <time>2014-06-15T18:24:42Z</time>
      </trkpt>
      <trkpt lat="45.74156" lon="4.73713">
        <ele>227.97</ele>
        <time>2014-06-15T18:24:44Z</time>
      </trkpt>
      <trkpt lat="45.74156" lon="4.73717">
        <ele>227.97</ele>
        <time>2014-06-15T18:24:45Z</time>
      </trkpt>
      <trkpt lat="45.74161" lon="4.73738">
        <ele>227.49</ele>
        <time>2014-06-15T18:24:49Z</time>
      </trkpt>
      <trkpt lat="45.74168" lon="4.73767">
        <ele>228.93</ele>
        <time>2014-06-15T18:24:54Z</time>
      </trkpt>
      <trkpt lat="45.74172" lon="4.73783">
        <ele>227.49</ele>
        <time>2014-06-15T18:24:57Z</time>
      </trkpt>
      <trkpt lat="45.74195" lon="4.73845">
        <ele>226.53</ele>
        <time>2014-06-15T18:25:08Z</time>
      </trkpt>
      <trkpt lat="45.74208" lon="4.7388">
        <ele>226.53</ele>
        <time>2014-06-15T18:25:14Z</time>
      </trkpt>
      <trkpt lat="45.74231" lon="4.73934">
        <ele>226.53</ele>
        <time>2014-06-15T18:25:23Z</time>
      </trkpt>
      <trkpt lat="45.7424" lon="4.73945">
        <ele>226.53</ele>
        <time>2014-06-15T18:25:30Z</time>
      </trkpt>
      <trkpt lat="45.74243" lon="4.73948">
        <ele>226.53</ele>
        <time>2014-06-15T18:25:31Z</time>
      </trkpt>
      <trkpt lat="45.74257" lon="4.73961">
        <ele>225.57</ele>
        <time>2014-06-15T18:25:37Z</time>
      </trkpt>
      <trkpt lat="45.74259" lon="4.73964">
        <ele>225.57</ele>
        <time>2014-06-15T18:25:38Z</time>
      </trkpt>
      <trkpt lat="45.7426" lon="4.73968">
        <ele>225.57</ele>
        <time>2014-06-15T18:25:39Z</time>
      </trkpt>
      <trkpt lat="45.74264" lon="4.73985">
        <ele>225.09</ele>
        <time>2014-06-15T18:25:41Z</time>
      </trkpt>
      <trkpt lat="45.74266" lon="4.73993">
        <ele>224.61</ele>
        <time>2014-06-15T18:25:42Z</time>
      </trkpt>
      <trkpt lat="45.7427" lon="4.74">
        <ele>224.61</ele>
        <time>2014-06-15T18:25:43Z</time>
      </trkpt>
      <trkpt lat="45.74282" lon="4.7402">
        <ele>224.61</ele>
        <time>2014-06-15T18:25:46Z</time>
      </trkpt>
      <trkpt lat="45.74285" lon="4.74027">
        <ele>224.61</ele>
        <time>2014-06-15T18:25:47Z</time>
      </trkpt>
      <trkpt lat="45.74288" lon="4.74034">
        <ele>224.61</ele>
        <time>2014-06-15T18:25:48Z</time>
      </trkpt>
      <trkpt lat="45.74291" lon="4.74042">
        <ele>224.61</ele>
        <time>2014-06-15T18:25:49Z</time>
      </trkpt>
      <trkpt lat="45.74294" lon="4.74051">
        <ele>224.61</ele>
        <time>2014-06-15T18:25:50Z</time>
      </trkpt>
      <trkpt lat="45.74303" lon="4.74082">
        <ele>224.61</ele>
        <time>2014-06-15T18:25:54Z</time>
      </trkpt>
      <trkpt lat="45.74314" lon="4.74137">
        <ele>224.12</ele>
        <time>2014-06-15T18:26:01Z</time>
      </trkpt>
      <trkpt lat="45.74315" lon="4.74146">
        <ele>224.12</ele>
        <time>2014-06-15T18:26:02Z</time>
      </trkpt>
      <trkpt lat="45.74315" lon="4.74156">
        <ele>224.61</ele>
        <time>2014-06-15T18:26:03Z</time>
      </trkpt>
      <trkpt lat="45.74317" lon="4.74193">
        <ele>224.12</ele>
        <time>2014-06-15T18:26:07Z</time>
      </trkpt>
      <trkpt lat="45.74319" lon="4.74217">
        <ele>224.12</ele>
        <time>2014-06-15T18:26:10Z</time>
      </trkpt>
      <trkpt lat="45.74321" lon="4.74223">
        <ele>224.61</ele>
        <time>2014-06-15T18:26:11Z</time>
      </trkpt>
      <trkpt lat="45.74321" lon="4.74226">
        <ele>222.68</ele>
        <time>2014-06-15T18:27:50Z</time>
      </trkpt>
      <trkpt lat="45.74319" lon="4.74227">
        <ele>221.72</ele>
        <time>2014-06-15T18:27:51Z</time>
      </trkpt>
      <trkpt lat="45.74316" lon="4.74228">
        <ele>221.24</ele>
        <time>2014-06-15T18:27:52Z</time>
      </trkpt>
      <trkpt lat="45.74312" lon="4.74228">
        <ele>220.28</ele>
        <time>2014-06-15T18:27:53Z</time>
      </trkpt>
      <trkpt lat="45.74308" lon="4.74229">
        <ele>220.28</ele>
        <time>2014-06-15T18:27:54Z</time>
      </trkpt>
      <trkpt lat="45.74293" lon="4.74234">
        <ele>219.8</ele>
        <time>2014-06-15T18:27:57Z</time>
      </trkpt>
      <trkpt lat="45.74289" lon="4.74238">
        <ele>219.8</ele>
        <time>2014-06-15T18:27:58Z</time>
      </trkpt>
      <trkpt lat="45.74285" lon="4.74244">
        <ele>219.8</ele>
        <time>2014-06-15T18:27:59Z</time>
      </trkpt>
      <trkpt lat="45.7428" lon="4.74256">
        <ele>220.28</ele>
        <time>2014-06-15T18:28:01Z</time>
      </trkpt>
      <trkpt lat="45.74274" lon="4.74284">
        <ele>219.8</ele>
        <time>2014-06-15T18:28:05Z</time>
      </trkpt>
      <trkpt lat="45.74272" lon="4.74299">
        <ele>219.8</ele>
        <time>2014-06-15T18:28:07Z</time>
      </trkpt>
      <trkpt lat="45.74272" lon="4.74305">
        <ele>219.8</ele>
        <time>2014-06-15T18:28:08Z</time>
      </trkpt>
      <trkpt lat="45.74273" lon="4.74311">
        <ele>219.32</ele>
        <time>2014-06-15T18:28:09Z</time>
      </trkpt>
      <trkpt lat="45.74275" lon="4.74315">
        <ele>219.8</ele>
        <time>2014-06-15T18:28:10Z</time>
      </trkpt>
      <trkpt lat="45.74276" lon="4.74319">
        <ele>219.8</ele>
        <time>2014-06-15T18:28:11Z</time>
      </trkpt>
      <trkpt lat="45.74278" lon="4.74322">
        <ele>219.8</ele>
        <time>2014-06-15T18:28:12Z</time>
      </trkpt>
      <trkpt lat="45.74279" lon="4.74324">
        <ele>219.8</ele>
        <time>2014-06-15T18:28:13Z</time>
      </trkpt>
      <trkpt lat="45.74296" lon="4.74342">
        <ele>217.4</ele>
        <time>2014-06-15T18:28:22Z</time>
      </trkpt>
      <trkpt lat="45.74324" lon="4.74367">
        <ele>218.36</ele>
        <time>2014-06-15T18:28:34Z</time>
      </trkpt>
      <trkpt lat="45.74331" lon="4.74375">
        <ele>218.84</ele>
        <time>2014-06-15T18:28:38Z</time>
      </trkpt>
      <trkpt lat="45.74332" lon="4.74378">
        <ele>218.84</ele>
        <time>2014-06-15T18:28:39Z</time>
      </trkpt>
      <trkpt lat="45.74333" lon="4.74382">
        <ele>218.36</ele>
        <time>2014-06-15T18:28:40Z</time>
      </trkpt>
      <trkpt lat="45.74334" lon="4.74386">
        <ele>218.36</ele>
        <time>2014-06-15T18:28:41Z</time>
      </trkpt>
      <trkpt lat="45.74334" lon="4.74391">
        <ele>218.36</ele>
        <time>2014-06-15T18:28:42Z</time>
      </trkpt>
      <trkpt lat="45.74338" lon="4.74408">
        <ele>217.88</ele>
        <time>2014-06-15T18:28:45Z</time>
      </trkpt>
      <trkpt lat="45.7434" lon="4.74414">
        <ele>217.4</ele>
        <time>2014-06-15T18:28:46Z</time>
      </trkpt>
      <trkpt lat="45.74341" lon="4.74421">
        <ele>217.4</ele>
        <time>2014-06-15T18:28:47Z</time>
      </trkpt>
      <trkpt lat="45.74341" lon="4.74428">
        <ele>216.91</ele>
        <time>2014-06-15T18:28:48Z</time>
      </trkpt>
      <trkpt lat="45.74343" lon="4.74436">
        <ele>216.91</ele>
        <time>2014-06-15T18:28:49Z</time>
      </trkpt>
      <trkpt lat="45.74345" lon="4.74445">
        <ele>216.43</ele>
        <time>2014-06-15T18:28:50Z</time>
      </trkpt>
      <trkpt lat="45.74346" lon="4.74453">
        <ele>216.43</ele>
        <time>2014-06-15T18:28:51Z</time>
      </trkpt>
      <trkpt lat="45.74349" lon="4.7447">
        <ele>215.95</ele>
        <time>2014-06-15T18:28:53Z</time>
      </trkpt>
      <trkpt lat="45.7435" lon="4.74478">
        <ele>215.47</ele>
        <time>2014-06-15T18:28:54Z</time>
      </trkpt>
      <trkpt lat="45.74351" lon="4.74518">
        <ele>216.43</ele>
        <time>2014-06-15T18:29:00Z</time>
      </trkpt>
      <trkpt lat="45.74348" lon="4.74553">
        <ele>216.43</ele>
        <time>2014-06-15T18:29:08Z</time>
      </trkpt>
      <trkpt lat="45.74347" lon="4.74558">
        <ele>216.91</ele>
        <time>2014-06-15T18:29:09Z</time>
      </trkpt>
      <trkpt lat="45.74352" lon="4.74618">
        <ele>216.43</ele>
        <time>2014-06-15T18:29:20Z</time>
      </trkpt>
      <trkpt lat="45.74361" lon="4.74653">
        <ele>216.43</ele>
        <time>2014-06-15T18:29:27Z</time>
      </trkpt>
      <trkpt lat="45.74375" lon="4.74689">
        <ele>216.43</ele>
        <time>2014-06-15T18:29:36Z</time>
      </trkpt>
      <trkpt lat="45.7438" lon="4.74698">
        <ele>216.91</ele>
        <time>2014-06-15T18:29:46Z</time>
      </trkpt>
      <trkpt lat="45.74382" lon="4.74701">
        <ele>215.95</ele>
        <time>2014-06-15T18:29:48Z</time>
      </trkpt>
      <trkpt lat="45.74385" lon="4.74709">
        <ele>215.95</ele>
        <time>2014-06-15T18:29:53Z</time>
      </trkpt>
      <trkpt lat="45.74385" lon="4.74713">
        <ele>215.95</ele>
        <time>2014-06-15T18:29:54Z</time>
      </trkpt>
      <trkpt lat="45.74386" lon="4.74716">
        <ele>215.95</ele>
        <time>2014-06-15T18:29:55Z</time>
      </trkpt>
      <trkpt lat="45.74388" lon="4.74736">
        <ele>215.47</ele>
        <time>2014-06-15T18:30:06Z</time>
      </trkpt>
      <trkpt lat="45.7439" lon="4.74743">
        <ele>214.99</ele>
        <time>2014-06-15T18:30:10Z</time>
      </trkpt>
      <trkpt lat="45.74389" lon="4.74745">
        <ele>214.99</ele>
        <time>2014-06-15T18:30:11Z</time>
      </trkpt>
      <trkpt lat="45.74382" lon="4.74753">
        <ele>215.47</ele>
        <time>2014-06-15T18:30:17Z</time>
      </trkpt>
      <trkpt lat="45.74381" lon="4.74756">
        <ele>215.47</ele>
        <time>2014-06-15T18:30:18Z</time>
      </trkpt>
      <trkpt lat="45.7438" lon="4.74758">
        <ele>215.47</ele>
        <time>2014-06-15T18:30:19Z</time>
      </trkpt>
      <trkpt lat="45.74372" lon="4.74776">
        <ele>214.99</ele>
        <time>2014-06-15T18:30:25Z</time>
      </trkpt>
      <trkpt lat="45.7437" lon="4.74778">
        <ele>214.99</ele>
        <time>2014-06-15T18:30:26Z</time>
      </trkpt>
      <trkpt lat="45.74368" lon="4.7478">
        <ele>214.99</ele>
        <time>2014-06-15T18:30:27Z</time>
      </trkpt>
      <trkpt lat="45.74366" lon="4.74782">
        <ele>214.99</ele>
        <time>2014-06-15T18:30:28Z</time>
      </trkpt>
      <trkpt lat="45.74361" lon="4.74791">
        <ele>214.99</ele>
        <time>2014-06-15T18:30:39Z</time>
      </trkpt>
      <trkpt lat="45.74357" lon="4.74803">
        <ele>214.99</ele>
        <time>2014-06-15T18:30:51Z</time>
      </trkpt>
      <trkpt lat="45.74354" lon="4.74809">
        <ele>214.51</ele>
        <time>2014-06-15T18:30:54Z</time>
      </trkpt>
      <trkpt lat="45.74353" lon="4.74812">
        <ele>214.03</ele>
        <time>2014-06-15T18:30:55Z</time>
      </trkpt>
      <trkpt lat="45.74351" lon="4.74815">
        <ele>214.03</ele>
        <time>2014-06-15T18:30:56Z</time>
      </trkpt>
      <trkpt lat="45.74349" lon="4.74817">
        <ele>214.03</ele>
        <time>2014-06-15T18:30:57Z</time>
      </trkpt>
      <trkpt lat="45.74347" lon="4.74819">
        <ele>213.55</ele>
        <time>2014-06-15T18:30:58Z</time>
      </trkpt>
      <trkpt lat="45.74329" lon="4.74843">
        <ele>213.07</ele>
        <time>2014-06-15T18:31:08Z</time>
      </trkpt>
      <trkpt lat="45.74319" lon="4.74848">
        <ele>213.07</ele>
        <time>2014-06-15T18:31:20Z</time>
      </trkpt>
      <trkpt lat="45.74311" lon="4.74851">
        <ele>213.07</ele>
        <time>2014-06-15T18:31:34Z</time>
      </trkpt>
      <trkpt lat="45.74308" lon="4.74851">
        <ele>213.07</ele>
        <time>2014-06-15T18:31:41Z</time>
      </trkpt>
      <trkpt lat="45.74295" lon="4.74841">
        <ele>214.51</ele>
        <time>2014-06-15T18:31:50Z</time>
      </trkpt>
      <trkpt lat="45.74272" lon="4.7484">
        <ele>215.47</ele>
        <time>2014-06-15T18:31:58Z</time>
      </trkpt>
      <trkpt lat="45.74252" lon="4.74871">
        <ele>213.55</ele>
        <time>2014-06-15T18:32:08Z</time>
      </trkpt>
      <trkpt lat="45.74241" lon="4.74886">
        <ele>212.11</ele>
        <time>2014-06-15T18:32:13Z</time>
      </trkpt>
      <trkpt lat="45.74229" lon="4.74891">
        <ele>213.07</ele>
        <time>2014-06-15T18:32:17Z</time>
      </trkpt>
      <trkpt lat="45.7422" lon="4.74895">
        <ele>213.07</ele>
        <time>2014-06-15T18:32:19Z</time>
      </trkpt>
      <trkpt lat="45.74208" lon="4.74895">
        <ele>213.07</ele>
        <time>2014-06-15T18:32:23Z</time>
      </trkpt>
      <trkpt lat="45.74196" lon="4.74909">
        <ele>212.59</ele>
        <time>2014-06-15T18:32:27Z</time>
      </trkpt>
      <trkpt lat="45.74194" lon="4.74911">
        <ele>213.07</ele>
        <time>2014-06-15T18:32:28Z</time>
      </trkpt>
      <trkpt lat="45.74187" lon="4.7492">
        <ele>212.59</ele>
        <time>2014-06-15T18:32:40Z</time>
      </trkpt>
      <trkpt lat="45.74166" lon="4.74944">
        <ele>210.67</ele>
        <time>2014-06-15T18:32:49Z</time>
      </trkpt>
      <trkpt lat="45.74153" lon="4.74967">
        <ele>210.19</ele>
        <time>2014-06-15T18:32:59Z</time>
      </trkpt>
      <trkpt lat="45.74144" lon="4.74989">
        <ele>210.19</ele>
        <time>2014-06-15T18:33:15Z</time>
      </trkpt>
      <trkpt lat="45.74144" lon="4.74992">
        <ele>210.67</ele>
        <time>2014-06-15T18:33:18Z</time>
      </trkpt>
      <trkpt lat="45.74142" lon="4.75">
        <ele>210.19</ele>
        <time>2014-06-15T18:33:24Z</time>
      </trkpt>
      <trkpt lat="45.74143" lon="4.75003">
        <ele>210.67</ele>
        <time>2014-06-15T18:33:27Z</time>
      </trkpt>
      <trkpt lat="45.74143" lon="4.7501">
        <ele>210.19</ele>
        <time>2014-06-15T18:33:32Z</time>
      </trkpt>
      <trkpt lat="45.74139" lon="4.7503">
        <ele>210.19</ele>
        <time>2014-06-15T18:33:44Z</time>
      </trkpt>
      <trkpt lat="45.74139" lon="4.75035">
        <ele>209.7</ele>
        <time>2014-06-15T18:33:49Z</time>
      </trkpt>
      <trkpt lat="45.74138" lon="4.75039">
        <ele>209.7</ele>
        <time>2014-06-15T18:33:51Z</time>
      </trkpt>
      <trkpt lat="45.74137" lon="4.7505">
        <ele>209.7</ele>
        <time>2014-06-15T18:34:00Z</time>
      </trkpt>
      <trkpt lat="45.74135" lon="4.75058">
        <ele>209.22</ele>
        <time>2014-06-15T18:34:04Z</time>
      </trkpt>
      <trkpt lat="45.74128" lon="4.75074">
        <ele>210.19</ele>
        <time>2014-06-15T18:34:16Z</time>
      </trkpt>
      <trkpt lat="45.74123" lon="4.75087">
        <ele>210.67</ele>
        <time>2014-06-15T18:34:27Z</time>
      </trkpt>
      <trkpt lat="45.7412" lon="4.751">
        <ele>212.11</ele>
        <time>2014-06-15T18:34:34Z</time>
      </trkpt>
      <trkpt lat="45.74118" lon="4.75106">
        <ele>212.59</ele>
        <time>2014-06-15T18:34:37Z</time>
      </trkpt>
      <trkpt lat="45.74115" lon="4.75116">
        <ele>212.59</ele>
        <time>2014-06-15T18:34:42Z</time>
      </trkpt>
      <trkpt lat="45.74112" lon="4.75127">
        <ele>213.07</ele>
        <time>2014-06-15T18:34:53Z</time>
      </trkpt>
      <trkpt lat="45.74113" lon="4.75127">
        <ele>213.07</ele>
        <time>2014-06-15T18:34:58Z</time>
      </trkpt>
      <trkpt lat="45.74111" lon="4.75138">
        <ele>212.59</ele>
        <time>2014-06-15T18:35:03Z</time>
      </trkpt>
      <trkpt lat="45.74111" lon="4.75159">
        <ele>212.59</ele>
        <time>2014-06-15T18:35:15Z</time>
      </trkpt>
      <trkpt lat="45.74108" lon="4.75171">
        <ele>213.55</ele>
        <time>2014-06-15T18:35:27Z</time>
      </trkpt>
      <trkpt lat="45.74107" lon="4.75175">
        <ele>214.03</ele>
        <time>2014-06-15T18:35:30Z</time>
      </trkpt>
      <trkpt lat="45.74104" lon="4.7518">
        <ele>214.03</ele>
        <time>2014-06-15T18:35:33Z</time>
      </trkpt>
      <trkpt lat="45.74113" lon="4.75195">
        <ele>210.67</ele>
        <time>2014-06-15T18:35:38Z</time>
      </trkpt>
      <trkpt lat="45.74115" lon="4.75199">
        <ele>210.67</ele>
        <time>2014-06-15T18:35:39Z</time>
      </trkpt>
      <trkpt lat="45.74121" lon="4.7521">
        <ele>209.7</ele>
        <time>2014-06-15T18:35:43Z</time>
      </trkpt>
      <trkpt lat="45.74127" lon="4.75231">
        <ele>210.67</ele>
        <time>2014-06-15T18:35:50Z</time>
      </trkpt>
      <trkpt lat="45.74132" lon="4.75234">
        <ele>208.74</ele>
        <time>2014-06-15T18:35:55Z</time>
      </trkpt>
      <trkpt lat="45.74136" lon="4.75247">
        <ele>207.78</ele>
        <time>2014-06-15T18:35:59Z</time>
      </trkpt>
      <trkpt lat="45.74148" lon="4.75282">
        <ele>209.22</ele>
        <time>2014-06-15T18:36:08Z</time>
      </trkpt>
      <trkpt lat="45.74151" lon="4.75289">
        <ele>208.26</ele>
        <time>2014-06-15T18:36:10Z</time>
      </trkpt>
      <trkpt lat="45.74154" lon="4.75295">
        <ele>207.78</ele>
        <time>2014-06-15T18:36:13Z</time>
      </trkpt>
      <trkpt lat="45.74154" lon="4.75301">
        <ele>207.78</ele>
        <time>2014-06-15T18:36:16Z</time>
      </trkpt>
      <trkpt lat="45.74154" lon="4.75305">
        <ele>207.3</ele>
        <time>2014-06-15T18:36:18Z</time>
      </trkpt>
      <trkpt lat="45.74157" lon="4.75316">
        <ele>207.3</ele>
        <time>2014-06-15T18:36:27Z</time>
      </trkpt>
      <trkpt lat="45.74157" lon="4.7532">
        <ele>207.3</ele>
        <time>2014-06-15T18:36:29Z</time>
      </trkpt>
      <trkpt lat="45.74157" lon="4.75334">
        <ele>207.78</ele>
        <time>2014-06-15T18:36:41Z</time>
      </trkpt>
      <trkpt lat="45.74157" lon="4.7535">
        <ele>209.22</ele>
        <time>2014-06-15T18:36:52Z</time>
      </trkpt>
      <trkpt lat="45.74157" lon="4.75354">
        <ele>210.19</ele>
        <time>2014-06-15T18:36:55Z</time>
      </trkpt>
      <trkpt lat="45.7415" lon="4.75363">
        <ele>212.59</ele>
        <time>2014-06-15T18:37:07Z</time>
      </trkpt>
      <trkpt lat="45.74158" lon="4.75392">
        <ele>212.11</ele>
        <time>2014-06-15T18:37:17Z</time>
      </trkpt>
      <trkpt lat="45.74164" lon="4.75404">
        <ele>210.67</ele>
        <time>2014-06-15T18:37:21Z</time>
      </trkpt>
      <trkpt lat="45.74178" lon="4.75437">
        <ele>210.19</ele>
        <time>2014-06-15T18:37:31Z</time>
      </trkpt>
      <trkpt lat="45.7418" lon="4.75446">
        <ele>210.67</ele>
        <time>2014-06-15T18:37:46Z</time>
      </trkpt>
      <trkpt lat="45.74181" lon="4.75447">
        <ele>210.67</ele>
        <time>2014-06-15T18:38:01Z</time>
      </trkpt>
      <trkpt lat="45.74181" lon="4.75446">
        <ele>211.15</ele>
        <time>2014-06-15T18:38:33Z</time>
      </trkpt>
      <trkpt lat="45.74185" lon="4.75452">
        <ele>210.67</ele>
        <time>2014-06-15T18:38:42Z</time>
      </trkpt>
      <trkpt lat="45.74203" lon="4.7549">
        <ele>208.74</ele>
        <time>2014-06-15T18:38:52Z</time>
      </trkpt>
      <trkpt lat="45.74206" lon="4.75496">
        <ele>209.22</ele>
        <time>2014-06-15T18:38:53Z</time>
      </trkpt>
      <trkpt lat="45.74208" lon="4.75502">
        <ele>208.74</ele>
        <time>2014-06-15T18:38:54Z</time>
      </trkpt>
      <trkpt lat="45.74218" lon="4.75525">
        <ele>209.22</ele>
        <time>2014-06-15T18:38:59Z</time>
      </trkpt>
      <trkpt lat="45.74221" lon="4.75526">
        <ele>208.74</ele>
        <time>2014-06-15T18:39:00Z</time>
      </trkpt>
      <trkpt lat="45.74244" lon="4.75526">
        <ele>207.78</ele>
        <time>2014-06-15T18:39:06Z</time>
      </trkpt>
      <trkpt lat="45.74249" lon="4.75526">
        <ele>208.26</ele>
        <time>2014-06-15T18:39:07Z</time>
      </trkpt>
      <trkpt lat="45.74254" lon="4.75526">
        <ele>207.78</ele>
        <time>2014-06-15T18:39:08Z</time>
      </trkpt>
      <trkpt lat="45.74259" lon="4.75526">
        <ele>207.78</ele>
        <time>2014-06-15T18:39:09Z</time>
      </trkpt>
      <trkpt lat="45.74264" lon="4.75526">
        <ele>207.78</ele>
        <time>2014-06-15T18:39:10Z</time>
      </trkpt>
      <trkpt lat="45.7427" lon="4.75526">
        <ele>207.78</ele>
        <time>2014-06-15T18:39:11Z</time>
      </trkpt>
      <trkpt lat="45.74288" lon="4.75529">
        <ele>207.3</ele>
        <time>2014-06-15T18:39:14Z</time>
      </trkpt>
      <trkpt lat="45.74293" lon="4.7553">
        <ele>207.78</ele>
        <time>2014-06-15T18:39:15Z</time>
      </trkpt>
      <trkpt lat="45.74304" lon="4.75533">
        <ele>206.82</ele>
        <time>2014-06-15T18:39:17Z</time>
      </trkpt>
      <trkpt lat="45.74309" lon="4.75535">
        <ele>206.82</ele>
        <time>2014-06-15T18:39:18Z</time>
      </trkpt>
      <trkpt lat="45.74329" lon="4.75552">
        <ele>206.34</ele>
        <time>2014-06-15T18:39:22Z</time>
      </trkpt>
      <trkpt lat="45.74337" lon="4.75564">
        <ele>206.34</ele>
        <time>2014-06-15T18:39:24Z</time>
      </trkpt>
      <trkpt lat="45.74344" lon="4.75589">
        <ele>205.86</ele>
        <time>2014-06-15T18:39:28Z</time>
      </trkpt>
      <trkpt lat="45.74344" lon="4.75595">
        <ele>205.86</ele>
        <time>2014-06-15T18:39:29Z</time>
      </trkpt>
      <trkpt lat="45.74343" lon="4.75602">
        <ele>205.86</ele>
        <time>2014-06-15T18:39:30Z</time>
      </trkpt>
      <trkpt lat="45.74342" lon="4.75609">
        <ele>206.34</ele>
        <time>2014-06-15T18:39:31Z</time>
      </trkpt>
      <trkpt lat="45.74341" lon="4.75616">
        <ele>206.34</ele>
        <time>2014-06-15T18:39:32Z</time>
      </trkpt>
      <trkpt lat="45.74338" lon="4.75646">
        <ele>205.38</ele>
        <time>2014-06-15T18:39:36Z</time>
      </trkpt>
      <trkpt lat="45.74342" lon="4.75711">
        <ele>204.9</ele>
        <time>2014-06-15T18:39:44Z</time>
      </trkpt>
      <trkpt lat="45.74345" lon="4.75744">
        <ele>204.9</ele>
        <time>2014-06-15T18:39:48Z</time>
      </trkpt>
      <trkpt lat="45.74347" lon="4.75752">
        <ele>204.42</ele>
        <time>2014-06-15T18:39:49Z</time>
      </trkpt>
      <trkpt lat="45.7435" lon="4.75759">
        <ele>203.46</ele>
        <time>2014-06-15T18:39:50Z</time>
      </trkpt>
      <trkpt lat="45.7438" lon="4.75833">
        <ele>202.98</ele>
        <time>2014-06-15T18:39:59Z</time>
      </trkpt>
      <trkpt lat="45.74382" lon="4.75842">
        <ele>202.98</ele>
        <time>2014-06-15T18:40:00Z</time>
      </trkpt>
      <trkpt lat="45.74383" lon="4.75851">
        <ele>202.98</ele>
        <time>2014-06-15T18:40:01Z</time>
      </trkpt>
      <trkpt lat="45.74383" lon="4.75859">
        <ele>203.46</ele>
        <time>2014-06-15T18:40:02Z</time>
      </trkpt>
      <trkpt lat="45.74384" lon="4.75868">
        <ele>202.98</ele>
        <time>2014-06-15T18:40:03Z</time>
      </trkpt>
      <trkpt lat="45.74383" lon="4.75912">
        <ele>202.49</ele>
        <time>2014-06-15T18:40:09Z</time>
      </trkpt>
      <trkpt lat="45.74381" lon="4.75929">
        <ele>202.01</ele>
        <time>2014-06-15T18:40:11Z</time>
      </trkpt>
      <trkpt lat="45.74376" lon="4.75947">
        <ele>201.53</ele>
        <time>2014-06-15T18:40:13Z</time>
      </trkpt>
      <trkpt lat="45.74366" lon="4.75984">
        <ele>202.49</ele>
        <time>2014-06-15T18:40:18Z</time>
      </trkpt>
      <trkpt lat="45.74363" lon="4.7599">
        <ele>202.49</ele>
        <time>2014-06-15T18:40:19Z</time>
      </trkpt>
      <trkpt lat="45.74361" lon="4.75997">
        <ele>202.49</ele>
        <time>2014-06-15T18:40:20Z</time>
      </trkpt>
      <trkpt lat="45.74361" lon="4.76004">
        <ele>202.01</ele>
        <time>2014-06-15T18:40:21Z</time>
      </trkpt>
      <trkpt lat="45.7436" lon="4.76012">
        <ele>202.01</ele>
        <time>2014-06-15T18:40:22Z</time>
      </trkpt>
      <trkpt lat="45.74361" lon="4.7603">
        <ele>202.01</ele>
        <time>2014-06-15T18:40:24Z</time>
      </trkpt>
      <trkpt lat="45.7436" lon="4.76047">
        <ele>202.01</ele>
        <time>2014-06-15T18:40:26Z</time>
      </trkpt>
      <trkpt lat="45.74358" lon="4.76087">
        <ele>202.49</ele>
        <time>2014-06-15T18:40:31Z</time>
      </trkpt>
      <trkpt lat="45.74359" lon="4.76095">
        <ele>202.49</ele>
        <time>2014-06-15T18:40:32Z</time>
      </trkpt>
      <trkpt lat="45.7436" lon="4.76102">
        <ele>202.49</ele>
        <time>2014-06-15T18:40:33Z</time>
      </trkpt>
      <trkpt lat="45.74361" lon="4.7611">
        <ele>202.01</ele>
        <time>2014-06-15T18:40:34Z</time>
      </trkpt>
      <trkpt lat="45.74363" lon="4.76118">
        <ele>202.01</ele>
        <time>2014-06-15T18:40:35Z</time>
      </trkpt>
      <trkpt lat="45.74366" lon="4.76127">
        <ele>201.53</ele>
        <time>2014-06-15T18:40:36Z</time>
      </trkpt>
      <trkpt lat="45.74368" lon="4.76136">
        <ele>202.01</ele>
        <time>2014-06-15T18:40:37Z</time>
      </trkpt>
      <trkpt lat="45.74373" lon="4.76159">
        <ele>201.05</ele>
        <time>2014-06-15T18:40:40Z</time>
      </trkpt>
      <trkpt lat="45.74376" lon="4.76172">
        <ele>201.53</ele>
        <time>2014-06-15T18:40:42Z</time>
      </trkpt>
      <trkpt lat="45.74385" lon="4.76222">
        <ele>200.57</ele>
        <time>2014-06-15T18:40:49Z</time>
      </trkpt>
      <trkpt lat="45.74386" lon="4.7623">
        <ele>201.05</ele>
        <time>2014-06-15T18:40:50Z</time>
      </trkpt>
      <trkpt lat="45.74386" lon="4.76238">
        <ele>201.05</ele>
        <time>2014-06-15T18:40:51Z</time>
      </trkpt>
      <trkpt lat="45.74384" lon="4.76244">
        <ele>201.05</ele>
        <time>2014-06-15T18:40:52Z</time>
      </trkpt>
      <trkpt lat="45.74381" lon="4.7625">
        <ele>201.05</ele>
        <time>2014-06-15T18:40:53Z</time>
      </trkpt>
      <trkpt lat="45.74376" lon="4.76254">
        <ele>201.05</ele>
        <time>2014-06-15T18:40:54Z</time>
      </trkpt>
      <trkpt lat="45.74336" lon="4.76302">
        <ele>200.57</ele>
        <time>2014-06-15T18:41:03Z</time>
      </trkpt>
      <trkpt lat="45.74317" lon="4.76319">
        <ele>200.57</ele>
        <time>2014-06-15T18:41:07Z</time>
      </trkpt>
      <trkpt lat="45.74312" lon="4.76322">
        <ele>200.57</ele>
        <time>2014-06-15T18:41:08Z</time>
      </trkpt>
      <trkpt lat="45.74308" lon="4.76325">
        <ele>200.57</ele>
        <time>2014-06-15T18:41:09Z</time>
      </trkpt>
      <trkpt lat="45.74295" lon="4.76335">
        <ele>200.09</ele>
        <time>2014-06-15T18:41:12Z</time>
      </trkpt>
      <trkpt lat="45.74266" lon="4.76366">
        <ele>200.09</ele>
        <time>2014-06-15T18:41:20Z</time>
      </trkpt>
      <trkpt lat="45.7426" lon="4.76375">
        <ele>200.57</ele>
        <time>2014-06-15T18:41:26Z</time>
      </trkpt>
      <trkpt lat="45.74258" lon="4.76376">
        <ele>200.09</ele>
        <time>2014-06-15T18:41:27Z</time>
      </trkpt>
      <trkpt lat="45.74254" lon="4.76378">
        <ele>200.09</ele>
        <time>2014-06-15T18:41:28Z</time>
      </trkpt>
      <trkpt lat="45.74252" lon="4.76382">
        <ele>200.09</ele>
        <time>2014-06-15T18:41:29Z</time>
      </trkpt>
      <trkpt lat="45.7425" lon="4.76389">
        <ele>200.09</ele>
        <time>2014-06-15T18:41:30Z</time>
      </trkpt>
      <trkpt lat="45.74249" lon="4.76394">
        <ele>199.61</ele>
        <time>2014-06-15T18:41:31Z</time>
      </trkpt>
      <trkpt lat="45.74247" lon="4.76398">
        <ele>199.61</ele>
        <time>2014-06-15T18:41:32Z</time>
      </trkpt>
      <trkpt lat="45.74245" lon="4.764">
        <ele>199.13</ele>
        <time>2014-06-15T18:41:33Z</time>
      </trkpt>
      <trkpt lat="45.74229" lon="4.76416">
        <ele>198.17</ele>
        <time>2014-06-15T18:41:40Z</time>
      </trkpt>
      <trkpt lat="45.74225" lon="4.76417">
        <ele>198.17</ele>
        <time>2014-06-15T18:41:41Z</time>
      </trkpt>
      <trkpt lat="45.74221" lon="4.76418">
        <ele>198.17</ele>
        <time>2014-06-15T18:41:42Z</time>
      </trkpt>
      <trkpt lat="45.74219" lon="4.7642">
        <ele>198.65</ele>
        <time>2014-06-15T18:41:43Z</time>
      </trkpt>
      <trkpt lat="45.74216" lon="4.76423">
        <ele>199.13</ele>
        <time>2014-06-15T18:41:44Z</time>
      </trkpt>
      <trkpt lat="45.74214" lon="4.76427">
        <ele>198.65</ele>
        <time>2014-06-15T18:41:45Z</time>
      </trkpt>
      <trkpt lat="45.74213" lon="4.76432">
        <ele>199.13</ele>
        <time>2014-06-15T18:41:46Z</time>
      </trkpt>
      <trkpt lat="45.74212" lon="4.76437">
        <ele>199.13</ele>
        <time>2014-06-15T18:41:47Z</time>
      </trkpt>
      <trkpt lat="45.74212" lon="4.76475">
        <ele>198.65</ele>
        <time>2014-06-15T18:41:54Z</time>
      </trkpt>
      <trkpt lat="45.74212" lon="4.76481">
        <ele>198.65</ele>
        <time>2014-06-15T18:41:55Z</time>
      </trkpt>
      <trkpt lat="45.74212" lon="4.76487">
        <ele>198.17</ele>
        <time>2014-06-15T18:41:56Z</time>
      </trkpt>
      <trkpt lat="45.74212" lon="4.76493">
        <ele>198.17</ele>
        <time>2014-06-15T18:41:57Z</time>
      </trkpt>
      <trkpt lat="45.74212" lon="4.765">
        <ele>198.65</ele>
        <time>2014-06-15T18:41:58Z</time>
      </trkpt>
      <trkpt lat="45.74212" lon="4.76519">
        <ele>198.17</ele>
        <time>2014-06-15T18:42:01Z</time>
      </trkpt>
      <trkpt lat="45.74212" lon="4.76539">
        <ele>198.17</ele>
        <time>2014-06-15T18:42:04Z</time>
      </trkpt>
      <trkpt lat="45.74213" lon="4.76559">
        <ele>198.17</ele>
        <time>2014-06-15T18:42:07Z</time>
      </trkpt>
      <trkpt lat="45.74213" lon="4.76565">
        <ele>198.17</ele>
        <time>2014-06-15T18:42:08Z</time>
      </trkpt>
      <trkpt lat="45.74213" lon="4.76578">
        <ele>198.17</ele>
        <time>2014-06-15T18:42:10Z</time>
      </trkpt>
      <trkpt lat="45.74213" lon="4.76585">
        <ele>198.17</ele>
        <time>2014-06-15T18:42:11Z</time>
      </trkpt>
      <trkpt lat="45.74211" lon="4.76615">
        <ele>198.17</ele>
        <time>2014-06-15T18:42:16Z</time>
      </trkpt>
      <trkpt lat="45.74211" lon="4.76621">
        <ele>198.17</ele>
        <time>2014-06-15T18:42:17Z</time>
      </trkpt>
      <trkpt lat="45.74203" lon="4.76682">
        <ele>198.65</ele>
        <time>2014-06-15T18:42:27Z</time>
      </trkpt>
      <trkpt lat="45.74201" lon="4.76688">
        <ele>198.65</ele>
        <time>2014-06-15T18:42:28Z</time>
      </trkpt>
      <trkpt lat="45.74199" lon="4.76695">
        <ele>198.65</ele>
        <time>2014-06-15T18:42:29Z</time>
      </trkpt>
      <trkpt lat="45.74196" lon="4.767">
        <ele>198.65</ele>
        <time>2014-06-15T18:42:30Z</time>
      </trkpt>
      <trkpt lat="45.74194" lon="4.76706">
        <ele>199.13</ele>
        <time>2014-06-15T18:42:31Z</time>
      </trkpt>
      <trkpt lat="45.74185" lon="4.76734">
        <ele>200.09</ele>
        <time>2014-06-15T18:42:36Z</time>
      </trkpt>
      <trkpt lat="45.74169" lon="4.76776">
        <ele>199.61</ele>
        <time>2014-06-15T18:42:44Z</time>
      </trkpt>
      <trkpt lat="45.74167" lon="4.76782">
        <ele>199.13</ele>
        <time>2014-06-15T18:42:45Z</time>
      </trkpt>
      <trkpt lat="45.74159" lon="4.76815">
        <ele>198.65</ele>
        <time>2014-06-15T18:42:51Z</time>
      </trkpt>
      <trkpt lat="45.74162" lon="4.76818">
        <ele>198.65</ele>
        <time>2014-06-15T18:42:52Z</time>
      </trkpt>
      <trkpt lat="45.74165" lon="4.76819">
        <ele>198.65</ele>
        <time>2014-06-15T18:42:53Z</time>
      </trkpt>
      <trkpt lat="45.74169" lon="4.76818">
        <ele>198.65</ele>
        <time>2014-06-15T18:42:54Z</time>
      </trkpt>
      <trkpt lat="45.74174" lon="4.76816">
        <ele>198.65</ele>
        <time>2014-06-15T18:42:55Z</time>
      </trkpt>
      <trkpt lat="45.74192" lon="4.76812">
        <ele>198.17</ele>
        <time>2014-06-15T18:42:59Z</time>
      </trkpt>
      <trkpt lat="45.7427" lon="4.76808">
        <ele>198.65</ele>
        <time>2014-06-15T18:43:16Z</time>
      </trkpt>
      <trkpt lat="45.74284" lon="4.76809">
        <ele>199.61</ele>
        <time>2014-06-15T18:43:19Z</time>
      </trkpt>
      <trkpt lat="45.74296" lon="4.76812">
        <ele>198.65</ele>
        <time>2014-06-15T18:43:22Z</time>
      </trkpt>
      <trkpt lat="45.743" lon="4.76812">
        <ele>198.65</ele>
        <time>2014-06-15T18:43:23Z</time>
      </trkpt>
      <trkpt lat="45.74313" lon="4.76813">
        <ele>198.65</ele>
        <time>2014-06-15T18:43:26Z</time>
      </trkpt>
      <trkpt lat="45.74365" lon="4.76804">
        <ele>199.61</ele>
        <time>2014-06-15T18:43:37Z</time>
      </trkpt>
      <trkpt lat="45.74416" lon="4.76781">
        <ele>200.09</ele>
        <time>2014-06-15T18:43:48Z</time>
      </trkpt>
      <trkpt lat="45.74421" lon="4.7678">
        <ele>200.09</ele>
        <time>2014-06-15T18:43:49Z</time>
      </trkpt>
      <trkpt lat="45.74437" lon="4.76779">
        <ele>199.61</ele>
        <time>2014-06-15T18:43:52Z</time>
      </trkpt>
      <trkpt lat="45.74447" lon="4.76779">
        <ele>199.13</ele>
        <time>2014-06-15T18:43:54Z</time>
      </trkpt>
      <trkpt lat="45.74452" lon="4.7678">
        <ele>199.13</ele>
        <time>2014-06-15T18:43:55Z</time>
      </trkpt>
      <trkpt lat="45.7449" lon="4.76797">
        <ele>200.09</ele>
        <time>2014-06-15T18:44:04Z</time>
      </trkpt>
      <trkpt lat="45.74494" lon="4.76798">
        <ele>200.09</ele>
        <time>2014-06-15T18:44:05Z</time>
      </trkpt>
      <trkpt lat="45.74498" lon="4.768">
        <ele>200.57</ele>
        <time>2014-06-15T18:44:06Z</time>
      </trkpt>
      <trkpt lat="45.74502" lon="4.76801">
        <ele>200.57</ele>
        <time>2014-06-15T18:44:07Z</time>
      </trkpt>
      <trkpt lat="45.74506" lon="4.76801">
        <ele>200.57</ele>
        <time>2014-06-15T18:44:08Z</time>
      </trkpt>
      <trkpt lat="45.74526" lon="4.76803">
        <ele>201.53</ele>
        <time>2014-06-15T18:44:13Z</time>
      </trkpt>
      <trkpt lat="45.7454" lon="4.76801">
        <ele>202.01</ele>
        <time>2014-06-15T18:44:16Z</time>
      </trkpt>
      <trkpt lat="45.74569" lon="4.76794">
        <ele>202.49</ele>
        <time>2014-06-15T18:44:22Z</time>
      </trkpt>
      <trkpt lat="45.74573" lon="4.76792">
        <ele>202.98</ele>
        <time>2014-06-15T18:44:23Z</time>
      </trkpt>
      <trkpt lat="45.74577" lon="4.7679">
        <ele>202.98</ele>
        <time>2014-06-15T18:44:24Z</time>
      </trkpt>
      <trkpt lat="45.74581" lon="4.76789">
        <ele>202.98</ele>
        <time>2014-06-15T18:44:25Z</time>
      </trkpt>
      <trkpt lat="45.74586" lon="4.76788">
        <ele>202.98</ele>
        <time>2014-06-15T18:44:26Z</time>
      </trkpt>
      <trkpt lat="45.7459" lon="4.76786">
        <ele>202.98</ele>
        <time>2014-06-15T18:44:27Z</time>
      </trkpt>
      <trkpt lat="45.74598" lon="4.76784">
        <ele>202.98</ele>
        <time>2014-06-15T18:44:29Z</time>
      </trkpt>
      <trkpt lat="45.74603" lon="4.76783">
        <ele>202.98</ele>
        <time>2014-06-15T18:44:30Z</time>
      </trkpt>
      <trkpt lat="45.74611" lon="4.76781">
        <ele>202.98</ele>
        <time>2014-06-15T18:44:32Z</time>
      </trkpt>
      <trkpt lat="45.74615" lon="4.76779">
        <ele>202.98</ele>
        <time>2014-06-15T18:44:33Z</time>
      </trkpt>
      <trkpt lat="45.74654" lon="4.76761">
        <ele>202.49</ele>
        <time>2014-06-15T18:44:42Z</time>
      </trkpt>
      <trkpt lat="45.74659" lon="4.76761">
        <ele>202.49</ele>
        <time>2014-06-15T18:44:43Z</time>
      </trkpt>
      <trkpt lat="45.74672" lon="4.7676">
        <ele>202.49</ele>
        <time>2014-06-15T18:44:46Z</time>
      </trkpt>
      <trkpt lat="45.74685" lon="4.76762">
        <ele>202.98</ele>
        <time>2014-06-15T18:44:49Z</time>
      </trkpt>
      <trkpt lat="45.74689" lon="4.76763">
        <ele>202.98</ele>
        <time>2014-06-15T18:44:50Z</time>
      </trkpt>
      <trkpt lat="45.74694" lon="4.76765">
        <ele>202.98</ele>
        <time>2014-06-15T18:44:51Z</time>
      </trkpt>
      <trkpt lat="45.74744" lon="4.76786">
        <ele>204.42</ele>
        <time>2014-06-15T18:45:05Z</time>
      </trkpt>
      <trkpt lat="45.74785" lon="4.7676">
        <ele>205.86</ele>
        <time>2014-06-15T18:45:19Z</time>
      </trkpt>
      <trkpt lat="45.74819" lon="4.76736">
        <ele>209.22</ele>
        <time>2014-06-15T18:45:31Z</time>
      </trkpt>
      <trkpt lat="45.74853" lon="4.76707">
        <ele>211.15</ele>
        <time>2014-06-15T18:45:44Z</time>
      </trkpt>
      <trkpt lat="45.74884" lon="4.76687">
        <ele>214.51</ele>
        <time>2014-06-15T18:45:56Z</time>
      </trkpt>
      <trkpt lat="45.74916" lon="4.76663">
        <ele>217.4</ele>
        <time>2014-06-15T18:46:08Z</time>
      </trkpt>
      <trkpt lat="45.74937" lon="4.76645">
        <ele>219.8</ele>
        <time>2014-06-15T18:46:18Z</time>
      </trkpt>
      <trkpt lat="45.74938" lon="4.76643">
        <ele>219.8</ele>
        <time>2014-06-15T18:46:19Z</time>
      </trkpt>
      <trkpt lat="45.7494" lon="4.76642">
        <ele>219.8</ele>
        <time>2014-06-15T18:46:20Z</time>
      </trkpt>
      <trkpt lat="45.74941" lon="4.76642">
        <ele>219.8</ele>
        <time>2014-06-15T18:46:21Z</time>
      </trkpt>
      <trkpt lat="45.74943" lon="4.76641">
        <ele>220.28</ele>
        <time>2014-06-15T18:46:22Z</time>
      </trkpt>
      <trkpt lat="45.74945" lon="4.76641">
        <ele>219.8</ele>
        <time>2014-06-15T18:46:23Z</time>
      </trkpt>
      <trkpt lat="45.74946" lon="4.76642">
        <ele>220.28</ele>
        <time>2014-06-15T18:46:24Z</time>
      </trkpt>
      <trkpt lat="45.74953" lon="4.76643">
        <ele>220.76</ele>
        <time>2014-06-15T18:46:27Z</time>
      </trkpt>
      <trkpt lat="45.74955" lon="4.76646">
        <ele>220.76</ele>
        <time>2014-06-15T18:46:28Z</time>
      </trkpt>
      <trkpt lat="45.74957" lon="4.76649">
        <ele>220.76</ele>
        <time>2014-06-15T18:46:29Z</time>
      </trkpt>
      <trkpt lat="45.7496" lon="4.76652">
        <ele>220.76</ele>
        <time>2014-06-15T18:46:30Z</time>
      </trkpt>
      <trkpt lat="45.74962" lon="4.76656">
        <ele>220.76</ele>
        <time>2014-06-15T18:46:31Z</time>
      </trkpt>
      <trkpt lat="45.74964" lon="4.76661">
        <ele>220.28</ele>
        <time>2014-06-15T18:46:32Z</time>
      </trkpt>
      <trkpt lat="45.74966" lon="4.76665">
        <ele>220.28</ele>
        <time>2014-06-15T18:46:33Z</time>
      </trkpt>
      <trkpt lat="45.74978" lon="4.76689">
        <ele>219.32</ele>
        <time>2014-06-15T18:46:38Z</time>
      </trkpt>
      <trkpt lat="45.74981" lon="4.76693">
        <ele>219.32</ele>
        <time>2014-06-15T18:46:39Z</time>
      </trkpt>
      <trkpt lat="45.74983" lon="4.76697">
        <ele>219.32</ele>
        <time>2014-06-15T18:46:40Z</time>
      </trkpt>
      <trkpt lat="45.75014" lon="4.76746">
        <ele>218.84</ele>
        <time>2014-06-15T18:46:50Z</time>
      </trkpt>
      <trkpt lat="45.75018" lon="4.76751">
        <ele>218.36</ele>
        <time>2014-06-15T18:46:51Z</time>
      </trkpt>
      <trkpt lat="45.75071" lon="4.76827">
        <ele>219.32</ele>
        <time>2014-06-15T18:47:05Z</time>
      </trkpt>
      <trkpt lat="45.75078" lon="4.76837">
        <ele>219.32</ele>
        <time>2014-06-15T18:47:07Z</time>
      </trkpt>
      <trkpt lat="45.75105" lon="4.76885">
        <ele>219.32</ele>
        <time>2014-06-15T18:47:16Z</time>
      </trkpt>
      <trkpt lat="45.75115" lon="4.76902">
        <ele>219.32</ele>
        <time>2014-06-15T18:47:19Z</time>
      </trkpt>
      <trkpt lat="45.75121" lon="4.76913">
        <ele>219.32</ele>
        <time>2014-06-15T18:47:21Z</time>
      </trkpt>
      <trkpt lat="45.75124" lon="4.76919">
        <ele>219.8</ele>
        <time>2014-06-15T18:47:22Z</time>
      </trkpt>
      <trkpt lat="45.75136" lon="4.76952">
        <ele>219.8</ele>
        <time>2014-06-15T18:47:27Z</time>
      </trkpt>
      <trkpt lat="45.75178" lon="4.77028">
        <ele>220.28</ele>
        <time>2014-06-15T18:47:42Z</time>
      </trkpt>
      <trkpt lat="45.75182" lon="4.7703">
        <ele>219.8</ele>
        <time>2014-06-15T18:47:43Z</time>
      </trkpt>
      <trkpt lat="45.75189" lon="4.77036">
        <ele>220.28</ele>
        <time>2014-06-15T18:47:45Z</time>
      </trkpt>
      <trkpt lat="45.75192" lon="4.7704">
        <ele>220.28</ele>
        <time>2014-06-15T18:47:46Z</time>
      </trkpt>
      <trkpt lat="45.7522" lon="4.77071">
        <ele>220.76</ele>
        <time>2014-06-15T18:47:57Z</time>
      </trkpt>
      <trkpt lat="45.75225" lon="4.77077">
        <ele>221.24</ele>
        <time>2014-06-15T18:48:02Z</time>
      </trkpt>
      <trkpt lat="45.75226" lon="4.7708">
        <ele>221.24</ele>
        <time>2014-06-15T18:48:03Z</time>
      </trkpt>
      <trkpt lat="45.75227" lon="4.77083">
        <ele>220.76</ele>
        <time>2014-06-15T18:48:04Z</time>
      </trkpt>
      <trkpt lat="45.75228" lon="4.77086">
        <ele>221.24</ele>
        <time>2014-06-15T18:48:05Z</time>
      </trkpt>
      <trkpt lat="45.7523" lon="4.77089">
        <ele>221.24</ele>
        <time>2014-06-15T18:48:06Z</time>
      </trkpt>
      <trkpt lat="45.75243" lon="4.77121">
        <ele>220.76</ele>
        <time>2014-06-15T18:48:14Z</time>
      </trkpt>
      <trkpt lat="45.75245" lon="4.77125">
        <ele>220.76</ele>
        <time>2014-06-15T18:48:15Z</time>
      </trkpt>
      <trkpt lat="45.75247" lon="4.77129">
        <ele>220.76</ele>
        <time>2014-06-15T18:48:16Z</time>
      </trkpt>
      <trkpt lat="45.75249" lon="4.77132">
        <ele>220.76</ele>
        <time>2014-06-15T18:48:17Z</time>
      </trkpt>
      <trkpt lat="45.75252" lon="4.77136">
        <ele>220.76</ele>
        <time>2014-06-15T18:48:18Z</time>
      </trkpt>
      <trkpt lat="45.75254" lon="4.7714">
        <ele>220.76</ele>
        <time>2014-06-15T18:48:19Z</time>
      </trkpt>
      <trkpt lat="45.75277" lon="4.77176">
        <ele>220.76</ele>
        <time>2014-06-15T18:48:29Z</time>
      </trkpt>
      <trkpt lat="45.75279" lon="4.77178">
        <ele>221.24</ele>
        <time>2014-06-15T18:48:30Z</time>
      </trkpt>
      <trkpt lat="45.75281" lon="4.77179">
        <ele>220.76</ele>
        <time>2014-06-15T18:48:31Z</time>
      </trkpt>
      <trkpt lat="45.75301" lon="4.77201">
        <ele>220.28</ele>
        <time>2014-06-15T18:48:37Z</time>
      </trkpt>
      <trkpt lat="45.75316" lon="4.77218">
        <ele>220.76</ele>
        <time>2014-06-15T18:48:41Z</time>
      </trkpt>
      <trkpt lat="45.75341" lon="4.77236">
        <ele>220.28</ele>
        <time>2014-06-15T18:48:47Z</time>
      </trkpt>
      <trkpt lat="45.75367" lon="4.77254">
        <ele>220.28</ele>
        <time>2014-06-15T18:48:53Z</time>
      </trkpt>
      <trkpt lat="45.75371" lon="4.77258">
        <ele>220.28</ele>
        <time>2014-06-15T18:48:54Z</time>
      </trkpt>
      <trkpt lat="45.75375" lon="4.77261">
        <ele>220.28</ele>
        <time>2014-06-15T18:48:55Z</time>
      </trkpt>
      <trkpt lat="45.7538" lon="4.77264">
        <ele>220.28</ele>
        <time>2014-06-15T18:48:56Z</time>
      </trkpt>
      <trkpt lat="45.75385" lon="4.77267">
        <ele>220.76</ele>
        <time>2014-06-15T18:48:57Z</time>
      </trkpt>
      <trkpt lat="45.75394" lon="4.77274">
        <ele>220.76</ele>
        <time>2014-06-15T18:48:59Z</time>
      </trkpt>
      <trkpt lat="45.75398" lon="4.77278">
        <ele>220.76</ele>
        <time>2014-06-15T18:49:00Z</time>
      </trkpt>
      <trkpt lat="45.75402" lon="4.77281">
        <ele>220.76</ele>
        <time>2014-06-15T18:49:01Z</time>
      </trkpt>
      <trkpt lat="45.75419" lon="4.77296">
        <ele>220.28</ele>
        <time>2014-06-15T18:49:05Z</time>
      </trkpt>
      <trkpt lat="45.75422" lon="4.773">
        <ele>220.28</ele>
        <time>2014-06-15T18:49:06Z</time>
      </trkpt>
      <trkpt lat="45.7543" lon="4.77309">
        <ele>220.76</ele>
        <time>2014-06-15T18:49:08Z</time>
      </trkpt>
      <trkpt lat="45.75434" lon="4.77313">
        <ele>220.76</ele>
        <time>2014-06-15T18:49:09Z</time>
      </trkpt>
      <trkpt lat="45.75438" lon="4.77316">
        <ele>221.24</ele>
        <time>2014-06-15T18:49:10Z</time>
      </trkpt>
      <trkpt lat="45.75442" lon="4.77321">
        <ele>221.24</ele>
        <time>2014-06-15T18:49:11Z</time>
      </trkpt>
      <trkpt lat="45.75445" lon="4.77326">
        <ele>220.76</ele>
        <time>2014-06-15T18:49:12Z</time>
      </trkpt>
      <trkpt lat="45.75449" lon="4.7733">
        <ele>221.24</ele>
        <time>2014-06-15T18:49:13Z</time>
      </trkpt>
      <trkpt lat="45.75452" lon="4.77335">
        <ele>221.24</ele>
        <time>2014-06-15T18:49:14Z</time>
      </trkpt>
      <trkpt lat="45.75455" lon="4.7734">
        <ele>221.72</ele>
        <time>2014-06-15T18:49:15Z</time>
      </trkpt>
      <trkpt lat="45.75458" lon="4.77346">
        <ele>221.72</ele>
        <time>2014-06-15T18:49:16Z</time>
      </trkpt>
      <trkpt lat="45.75459" lon="4.77352">
        <ele>221.72</ele>
        <time>2014-06-15T18:49:17Z</time>
      </trkpt>
      <trkpt lat="45.75461" lon="4.77358">
        <ele>221.72</ele>
        <time>2014-06-15T18:49:18Z</time>
      </trkpt>
      <trkpt lat="45.75464" lon="4.77363">
        <ele>222.2</ele>
        <time>2014-06-15T18:49:19Z</time>
      </trkpt>
      <trkpt lat="45.75467" lon="4.77368">
        <ele>221.72</ele>
        <time>2014-06-15T18:49:20Z</time>
      </trkpt>
      <trkpt lat="45.75489" lon="4.77417">
        <ele>222.2</ele>
        <time>2014-06-15T18:49:28Z</time>
      </trkpt>
      <trkpt lat="45.75495" lon="4.77435">
        <ele>222.2</ele>
        <time>2014-06-15T18:49:31Z</time>
      </trkpt>
      <trkpt lat="45.75504" lon="4.7747">
        <ele>222.68</ele>
        <time>2014-06-15T18:49:36Z</time>
      </trkpt>
      <trkpt lat="45.75505" lon="4.77477">
        <ele>222.68</ele>
        <time>2014-06-15T18:49:37Z</time>
      </trkpt>
      <trkpt lat="45.75507" lon="4.77484">
        <ele>222.68</ele>
        <time>2014-06-15T18:49:38Z</time>
      </trkpt>
      <trkpt lat="45.75526" lon="4.77592">
        <ele>224.61</ele>
        <time>2014-06-15T18:49:54Z</time>
      </trkpt>
      <trkpt lat="45.75527" lon="4.77598">
        <ele>224.61</ele>
        <time>2014-06-15T18:49:55Z</time>
      </trkpt>
      <trkpt lat="45.7553" lon="4.77611">
        <ele>224.61</ele>
        <time>2014-06-15T18:49:57Z</time>
      </trkpt>
      <trkpt lat="45.75535" lon="4.77628">
        <ele>224.61</ele>
        <time>2014-06-15T18:50:00Z</time>
      </trkpt>
      <trkpt lat="45.75536" lon="4.77634">
        <ele>225.09</ele>
        <time>2014-06-15T18:50:01Z</time>
      </trkpt>
      <trkpt lat="45.75538" lon="4.7764">
        <ele>225.09</ele>
        <time>2014-06-15T18:50:02Z</time>
      </trkpt>
      <trkpt lat="45.75545" lon="4.77657">
        <ele>225.09</ele>
        <time>2014-06-15T18:50:05Z</time>
      </trkpt>
      <trkpt lat="45.75548" lon="4.77663">
        <ele>225.57</ele>
        <time>2014-06-15T18:50:06Z</time>
      </trkpt>
      <trkpt lat="45.7555" lon="4.77669">
        <ele>226.05</ele>
        <time>2014-06-15T18:50:07Z</time>
      </trkpt>
      <trkpt lat="45.75569" lon="4.77706">
        <ele>226.05</ele>
        <time>2014-06-15T18:50:14Z</time>
      </trkpt>
      <trkpt lat="45.75579" lon="4.77721">
        <ele>225.57</ele>
        <time>2014-06-15T18:50:17Z</time>
      </trkpt>
      <trkpt lat="45.75593" lon="4.77739">
        <ele>225.57</ele>
        <time>2014-06-15T18:50:21Z</time>
      </trkpt>
      <trkpt lat="45.75612" lon="4.77758">
        <ele>226.05</ele>
        <time>2014-06-15T18:50:26Z</time>
      </trkpt>
      <trkpt lat="45.75666" lon="4.77797">
        <ele>225.57</ele>
        <time>2014-06-15T18:50:38Z</time>
      </trkpt>
      <trkpt lat="45.75714" lon="4.77821">
        <ele>226.53</ele>
        <time>2014-06-15T18:50:49Z</time>
      </trkpt>
      <trkpt lat="45.75741" lon="4.77832">
        <ele>227.01</ele>
        <time>2014-06-15T18:50:55Z</time>
      </trkpt>
      <trkpt lat="45.75761" lon="4.77834">
        <ele>226.53</ele>
        <time>2014-06-15T18:50:59Z</time>
      </trkpt>
      <trkpt lat="45.7577" lon="4.77837">
        <ele>227.01</ele>
        <time>2014-06-15T18:51:01Z</time>
      </trkpt>
      <trkpt lat="45.75799" lon="4.77839">
        <ele>227.49</ele>
        <time>2014-06-15T18:51:07Z</time>
      </trkpt>
      <trkpt lat="45.75814" lon="4.7784">
        <ele>227.49</ele>
        <time>2014-06-15T18:51:10Z</time>
      </trkpt>
      <trkpt lat="45.7586" lon="4.77844">
        <ele>228.45</ele>
        <time>2014-06-15T18:51:19Z</time>
      </trkpt>
      <trkpt lat="45.75885" lon="4.7785">
        <ele>228.45</ele>
        <time>2014-06-15T18:51:24Z</time>
      </trkpt>
      <trkpt lat="45.75946" lon="4.7788">
        <ele>228.45</ele>
        <time>2014-06-15T18:51:36Z</time>
      </trkpt>
      <trkpt lat="45.75965" lon="4.77895">
        <ele>228.93</ele>
        <time>2014-06-15T18:51:40Z</time>
      </trkpt>
      <trkpt lat="45.75969" lon="4.77899">
        <ele>228.45</ele>
        <time>2014-06-15T18:51:41Z</time>
      </trkpt>
      <trkpt lat="45.75979" lon="4.77906">
        <ele>228.45</ele>
        <time>2014-06-15T18:51:43Z</time>
      </trkpt>
      <trkpt lat="45.76038" lon="4.77946">
        <ele>228.93</ele>
        <time>2014-06-15T18:51:56Z</time>
      </trkpt>
      <trkpt lat="45.76049" lon="4.77954">
        <ele>228.93</ele>
        <time>2014-06-15T18:51:59Z</time>
      </trkpt>
      <trkpt lat="45.76052" lon="4.77958">
        <ele>228.93</ele>
        <time>2014-06-15T18:52:00Z</time>
      </trkpt>
      <trkpt lat="45.76056" lon="4.7796">
        <ele>228.93</ele>
        <time>2014-06-15T18:52:01Z</time>
      </trkpt>
      <trkpt lat="45.76081" lon="4.77975">
        <ele>229.41</ele>
        <time>2014-06-15T18:52:11Z</time>
      </trkpt>
      <trkpt lat="45.76081" lon="4.77978">
        <ele>229.41</ele>
        <time>2014-06-15T18:52:15Z</time>
      </trkpt>
      <trkpt lat="45.7608" lon="4.77981">
        <ele>228.93</ele>
        <time>2014-06-15T18:52:16Z</time>
      </trkpt>
      <trkpt lat="45.76079" lon="4.77986">
        <ele>227.97</ele>
        <time>2014-06-15T18:52:17Z</time>
      </trkpt>
      <trkpt lat="45.76078" lon="4.77991">
        <ele>227.97</ele>
        <time>2014-06-15T18:52:18Z</time>
      </trkpt>
      <trkpt lat="45.76077" lon="4.77995">
        <ele>227.97</ele>
        <time>2014-06-15T18:52:19Z</time>
      </trkpt>
      <trkpt lat="45.76077" lon="4.78">
        <ele>227.97</ele>
        <time>2014-06-15T18:52:20Z</time>
      </trkpt>
      <trkpt lat="45.76076" lon="4.78005">
        <ele>227.97</ele>
        <time>2014-06-15T18:52:21Z</time>
      </trkpt>
      <trkpt lat="45.76075" lon="4.78009">
        <ele>227.97</ele>
        <time>2014-06-15T18:52:22Z</time>
      </trkpt>
      <trkpt lat="45.76073" lon="4.78012">
        <ele>227.49</ele>
        <time>2014-06-15T18:52:23Z</time>
      </trkpt>
      <trkpt lat="45.76071" lon="4.78012">
        <ele>227.49</ele>
        <time>2014-06-15T18:52:24Z</time>
      </trkpt>
      <trkpt lat="45.76066" lon="4.78014">
        <ele>227.97</ele>
        <time>2014-06-15T18:52:26Z</time>
      </trkpt>
      <trkpt lat="45.76065" lon="4.78017">
        <ele>227.97</ele>
        <time>2014-06-15T18:52:27Z</time>
      </trkpt>
      <trkpt lat="45.76062" lon="4.78038">
        <ele>227.97</ele>
        <time>2014-06-15T18:52:32Z</time>
      </trkpt>
      <trkpt lat="45.7606" lon="4.78044">
        <ele>228.45</ele>
        <time>2014-06-15T18:52:33Z</time>
      </trkpt>
      <trkpt lat="45.76054" lon="4.78079">
        <ele>229.41</ele>
        <time>2014-06-15T18:52:41Z</time>
      </trkpt>
      <trkpt lat="45.76054" lon="4.78085">
        <ele>228.93</ele>
        <time>2014-06-15T18:52:42Z</time>
      </trkpt>
      <trkpt lat="45.76053" lon="4.78117">
        <ele>230.37</ele>
        <time>2014-06-15T18:52:48Z</time>
      </trkpt>
      <trkpt lat="45.76052" lon="4.7813">
        <ele>230.85</ele>
        <time>2014-06-15T18:52:52Z</time>
      </trkpt>
      <trkpt lat="45.7605" lon="4.78138">
        <ele>231.33</ele>
        <time>2014-06-15T18:53:02Z</time>
      </trkpt>
      <trkpt lat="45.7605" lon="4.78138">
        <ele>230.37</ele>
        <time>2014-06-15T18:53:04Z</time>
      </trkpt>
    </trkseg>
  </trk>
</gpx>